<?xml version="1.0" encoding="UTF-8" standalone="no" ?>
<gpx xmlns="http://www.topografix.com/GPX/1/1" xmlns:xsi="http://www.w3.org/2001/XMLSchema-instance" xsi:schemaLocation="http://www.topografix.com/GPX/1/1 http://www.topografix.com/GPX/1/1/gpx.xsd" version="1.1" creator="VisuGPX - https://www.visugpx.com">
  <metadata>
    <name>Anello Busson Cima Bosco Thures Giassez Col Chabaud col Begino </name>
    <desc><![CDATA[Busson,Cima Bosco,Thures,Giassez,Col Chabaud,Col Begino, Curbiun]]></desc>
  </metadata>
  <trk>
    <name><![CDATA[GIASSEZ.gpx created from 2011-09-10T06:28:35Z to 2011-09-10T15:17:58Z]]></name>
    <trkseg>
      <trkpt lat="44.93295" lon="6.821">
        <ele>1413</ele>
        <time>2011-09-10T06:27:50Z</time>
      </trkpt>
      <trkpt lat="44.93317" lon="6.82116">
        <ele>1412</ele>
        <time>2011-09-10T06:28:35Z</time>
      </trkpt>
      <trkpt lat="44.93322" lon="6.8215">
        <ele>1411</ele>
        <time>2011-09-10T06:28:42Z</time>
      </trkpt>
      <trkpt lat="44.93324" lon="6.82186">
        <ele>1413</ele>
        <time>2011-09-10T06:28:49Z</time>
      </trkpt>
      <trkpt lat="44.93323" lon="6.82219">
        <ele>1413</ele>
        <time>2011-09-10T06:28:58Z</time>
      </trkpt>
      <trkpt lat="44.93324" lon="6.82253">
        <ele>1413</ele>
        <time>2011-09-10T06:29:09Z</time>
      </trkpt>
      <trkpt lat="44.93326" lon="6.82286">
        <ele>1414</ele>
        <time>2011-09-10T06:29:17Z</time>
      </trkpt>
      <trkpt lat="44.93327" lon="6.8232">
        <ele>1415</ele>
        <time>2011-09-10T06:29:26Z</time>
      </trkpt>
      <trkpt lat="44.93333" lon="6.82354">
        <ele>1415</ele>
        <time>2011-09-10T06:29:36Z</time>
      </trkpt>
      <trkpt lat="44.9334" lon="6.82388">
        <ele>1415</ele>
        <time>2011-09-10T06:29:44Z</time>
      </trkpt>
      <trkpt lat="44.93347" lon="6.82423">
        <ele>1417</ele>
        <time>2011-09-10T06:29:52Z</time>
      </trkpt>
      <trkpt lat="44.93352" lon="6.82455">
        <ele>1417</ele>
        <time>2011-09-10T06:29:59Z</time>
      </trkpt>
      <trkpt lat="44.93357" lon="6.82486">
        <ele>1418</ele>
        <time>2011-09-10T06:30:06Z</time>
      </trkpt>
      <trkpt lat="44.93363" lon="6.82518">
        <ele>1418</ele>
        <time>2011-09-10T06:30:13Z</time>
      </trkpt>
      <trkpt lat="44.93369" lon="6.8255">
        <ele>1419</ele>
        <time>2011-09-10T06:30:20Z</time>
      </trkpt>
      <trkpt lat="44.93374" lon="6.82583">
        <ele>1421</ele>
        <time>2011-09-10T06:30:27Z</time>
      </trkpt>
      <trkpt lat="44.93381" lon="6.82616">
        <ele>1420</ele>
        <time>2011-09-10T06:30:34Z</time>
      </trkpt>
      <trkpt lat="44.93387" lon="6.82649">
        <ele>1422</ele>
        <time>2011-09-10T06:30:41Z</time>
      </trkpt>
      <trkpt lat="44.93393" lon="6.82682">
        <ele>1422</ele>
        <time>2011-09-10T06:30:48Z</time>
      </trkpt>
      <trkpt lat="44.93399" lon="6.82714">
        <ele>1424</ele>
        <time>2011-09-10T06:30:55Z</time>
      </trkpt>
      <trkpt lat="44.93405" lon="6.82746">
        <ele>1424</ele>
        <time>2011-09-10T06:31:02Z</time>
      </trkpt>
      <trkpt lat="44.93411" lon="6.82781">
        <ele>1425</ele>
        <time>2011-09-10T06:31:10Z</time>
      </trkpt>
      <trkpt lat="44.93418" lon="6.82817">
        <ele>1426</ele>
        <time>2011-09-10T06:31:18Z</time>
      </trkpt>
      <trkpt lat="44.93424" lon="6.82853">
        <ele>1426</ele>
        <time>2011-09-10T06:31:26Z</time>
      </trkpt>
      <trkpt lat="44.9343" lon="6.82884">
        <ele>1427</ele>
        <time>2011-09-10T06:31:33Z</time>
      </trkpt>
      <trkpt lat="44.93436" lon="6.82916">
        <ele>1429</ele>
        <time>2011-09-10T06:31:40Z</time>
      </trkpt>
      <trkpt lat="44.93441" lon="6.8295">
        <ele>1429</ele>
        <time>2011-09-10T06:31:47Z</time>
      </trkpt>
      <trkpt lat="44.93446" lon="6.82984">
        <ele>1430</ele>
        <time>2011-09-10T06:31:54Z</time>
      </trkpt>
      <trkpt lat="44.93451" lon="6.83017">
        <ele>1430</ele>
        <time>2011-09-10T06:32:01Z</time>
      </trkpt>
      <trkpt lat="44.93465" lon="6.83046">
        <ele>1432</ele>
        <time>2011-09-10T06:32:09Z</time>
      </trkpt>
      <trkpt lat="44.93485" lon="6.83063">
        <ele>1434</ele>
        <time>2011-09-10T06:32:16Z</time>
      </trkpt>
      <trkpt lat="44.93507" lon="6.8308">
        <ele>1434</ele>
        <time>2011-09-10T06:32:23Z</time>
      </trkpt>
      <trkpt lat="44.93527" lon="6.83098">
        <ele>1434</ele>
        <time>2011-09-10T06:32:30Z</time>
      </trkpt>
      <trkpt lat="44.93545" lon="6.83121">
        <ele>1434</ele>
        <time>2011-09-10T06:32:37Z</time>
      </trkpt>
      <trkpt lat="44.93559" lon="6.83151">
        <ele>1434</ele>
        <time>2011-09-10T06:32:44Z</time>
      </trkpt>
      <trkpt lat="44.93566" lon="6.83182">
        <ele>1434</ele>
        <time>2011-09-10T06:32:51Z</time>
      </trkpt>
      <trkpt lat="44.93573" lon="6.83213">
        <ele>1435</ele>
        <time>2011-09-10T06:32:58Z</time>
      </trkpt>
      <trkpt lat="44.9358" lon="6.83248">
        <ele>1435</ele>
        <time>2011-09-10T06:33:06Z</time>
      </trkpt>
      <trkpt lat="44.93588" lon="6.83283">
        <ele>1436</ele>
        <time>2011-09-10T06:33:14Z</time>
      </trkpt>
      <trkpt lat="44.93595" lon="6.83318">
        <ele>1437</ele>
        <time>2011-09-10T06:33:22Z</time>
      </trkpt>
      <trkpt lat="44.93602" lon="6.83351">
        <ele>1438</ele>
        <time>2011-09-10T06:33:30Z</time>
      </trkpt>
      <trkpt lat="44.9361" lon="6.83384">
        <ele>1439</ele>
        <time>2011-09-10T06:33:38Z</time>
      </trkpt>
      <trkpt lat="44.93617" lon="6.83416">
        <ele>1439</ele>
        <time>2011-09-10T06:33:46Z</time>
      </trkpt>
      <trkpt lat="44.93625" lon="6.8345">
        <ele>1440</ele>
        <time>2011-09-10T06:33:54Z</time>
      </trkpt>
      <trkpt lat="44.93632" lon="6.83483">
        <ele>1442</ele>
        <time>2011-09-10T06:34:02Z</time>
      </trkpt>
      <trkpt lat="44.93642" lon="6.83515">
        <ele>1442</ele>
        <time>2011-09-10T06:34:10Z</time>
      </trkpt>
      <trkpt lat="44.93649" lon="6.83548">
        <ele>1443</ele>
        <time>2011-09-10T06:34:18Z</time>
      </trkpt>
      <trkpt lat="44.93656" lon="6.83582">
        <ele>1444</ele>
        <time>2011-09-10T06:34:26Z</time>
      </trkpt>
      <trkpt lat="44.93663" lon="6.83614">
        <ele>1444</ele>
        <time>2011-09-10T06:34:34Z</time>
      </trkpt>
      <trkpt lat="44.9367" lon="6.83647">
        <ele>1446</ele>
        <time>2011-09-10T06:34:42Z</time>
      </trkpt>
      <trkpt lat="44.93678" lon="6.83681">
        <ele>1448</ele>
        <time>2011-09-10T06:34:51Z</time>
      </trkpt>
      <trkpt lat="44.93665" lon="6.83709">
        <ele>1447</ele>
        <time>2011-09-10T06:35:04Z</time>
      </trkpt>
      <trkpt lat="44.93651" lon="6.83736">
        <ele>1448</ele>
        <time>2011-09-10T06:35:14Z</time>
      </trkpt>
      <trkpt lat="44.9366" lon="6.83766">
        <ele>1449</ele>
        <time>2011-09-10T06:35:24Z</time>
      </trkpt>
      <trkpt lat="44.93664" lon="6.83798">
        <ele>1450</ele>
        <time>2011-09-10T06:35:34Z</time>
      </trkpt>
      <trkpt lat="44.93662" lon="6.83832">
        <ele>1452</ele>
        <time>2011-09-10T06:35:45Z</time>
      </trkpt>
      <trkpt lat="44.93651" lon="6.83861">
        <ele>1452</ele>
        <time>2011-09-10T06:35:53Z</time>
      </trkpt>
      <trkpt lat="44.93643" lon="6.83892">
        <ele>1452</ele>
        <time>2011-09-10T06:36:02Z</time>
      </trkpt>
      <trkpt lat="44.93625" lon="6.83914">
        <ele>1452</ele>
        <time>2011-09-10T06:36:14Z</time>
      </trkpt>
      <trkpt lat="44.93603" lon="6.83904">
        <ele>1454</ele>
        <time>2011-09-10T06:36:26Z</time>
      </trkpt>
      <trkpt lat="44.93588" lon="6.83878">
        <ele>1456</ele>
        <time>2011-09-10T06:36:36Z</time>
      </trkpt>
      <trkpt lat="44.93576" lon="6.83907">
        <ele>1464</ele>
        <time>2011-09-10T06:37:10Z</time>
      </trkpt>
      <trkpt lat="44.93574" lon="6.8394">
        <ele>1469</ele>
        <time>2011-09-10T06:37:29Z</time>
      </trkpt>
      <trkpt lat="44.93562" lon="6.83969">
        <ele>1472</ele>
        <time>2011-09-10T06:37:48Z</time>
      </trkpt>
      <trkpt lat="44.93569" lon="6.84001">
        <ele>1474</ele>
        <time>2011-09-10T06:38:09Z</time>
      </trkpt>
      <trkpt lat="44.93567" lon="6.84034">
        <ele>1477</ele>
        <time>2011-09-10T06:38:26Z</time>
      </trkpt>
      <trkpt lat="44.93575" lon="6.84066">
        <ele>1481</ele>
        <time>2011-09-10T06:38:47Z</time>
      </trkpt>
      <trkpt lat="44.93577" lon="6.841">
        <ele>1483</ele>
        <time>2011-09-10T06:39:05Z</time>
      </trkpt>
      <trkpt lat="44.93581" lon="6.84134">
        <ele>1487</ele>
        <time>2011-09-10T06:39:25Z</time>
      </trkpt>
      <trkpt lat="44.93581" lon="6.84167">
        <ele>1491</ele>
        <time>2011-09-10T06:39:43Z</time>
      </trkpt>
      <trkpt lat="44.93583" lon="6.84199">
        <ele>1494</ele>
        <time>2011-09-10T06:40:01Z</time>
      </trkpt>
      <trkpt lat="44.93564" lon="6.84178">
        <ele>1502</ele>
        <time>2011-09-10T06:40:41Z</time>
      </trkpt>
      <trkpt lat="44.93553" lon="6.84149">
        <ele>1505</ele>
        <time>2011-09-10T06:40:58Z</time>
      </trkpt>
      <trkpt lat="44.93541" lon="6.8412">
        <ele>1506</ele>
        <time>2011-09-10T06:41:13Z</time>
      </trkpt>
      <trkpt lat="44.93537" lon="6.84152">
        <ele>1514</ele>
        <time>2011-09-10T06:41:55Z</time>
      </trkpt>
      <trkpt lat="44.93536" lon="6.84185">
        <ele>1518</ele>
        <time>2011-09-10T06:42:15Z</time>
      </trkpt>
      <trkpt lat="44.93518" lon="6.84207">
        <ele>1522</ele>
        <time>2011-09-10T06:42:38Z</time>
      </trkpt>
      <trkpt lat="44.93495" lon="6.84207">
        <ele>1525</ele>
        <time>2011-09-10T06:42:55Z</time>
      </trkpt>
      <trkpt lat="44.93472" lon="6.8419">
        <ele>1528</ele>
        <time>2011-09-10T06:43:16Z</time>
      </trkpt>
      <trkpt lat="44.93464" lon="6.84154">
        <ele>1529</ele>
        <time>2011-09-10T06:43:33Z</time>
      </trkpt>
      <trkpt lat="44.93449" lon="6.84129">
        <ele>1531</ele>
        <time>2011-09-10T06:43:50Z</time>
      </trkpt>
      <trkpt lat="44.93434" lon="6.84103">
        <ele>1535</ele>
        <time>2011-09-10T06:44:08Z</time>
      </trkpt>
      <trkpt lat="44.93416" lon="6.8408">
        <ele>1538</ele>
        <time>2011-09-10T06:44:24Z</time>
      </trkpt>
      <trkpt lat="44.93399" lon="6.84058">
        <ele>1539</ele>
        <time>2011-09-10T06:44:34Z</time>
      </trkpt>
      <trkpt lat="44.93386" lon="6.8403">
        <ele>1542</ele>
        <time>2011-09-10T06:44:56Z</time>
      </trkpt>
      <trkpt lat="44.93366" lon="6.8401">
        <ele>1546</ele>
        <time>2011-09-10T06:45:17Z</time>
      </trkpt>
      <trkpt lat="44.93367" lon="6.84044">
        <ele>1548</ele>
        <time>2011-09-10T06:45:39Z</time>
      </trkpt>
      <trkpt lat="44.93376" lon="6.84075">
        <ele>1551</ele>
        <time>2011-09-10T06:45:58Z</time>
      </trkpt>
      <trkpt lat="44.93379" lon="6.84108">
        <ele>1554</ele>
        <time>2011-09-10T06:46:15Z</time>
      </trkpt>
      <trkpt lat="44.93381" lon="6.84142">
        <ele>1556</ele>
        <time>2011-09-10T06:46:31Z</time>
      </trkpt>
      <trkpt lat="44.93389" lon="6.84173">
        <ele>1559</ele>
        <time>2011-09-10T06:46:47Z</time>
      </trkpt>
      <trkpt lat="44.93396" lon="6.84205">
        <ele>1561</ele>
        <time>2011-09-10T06:47:04Z</time>
      </trkpt>
      <trkpt lat="44.93413" lon="6.84228">
        <ele>1564</ele>
        <time>2011-09-10T06:47:22Z</time>
      </trkpt>
      <trkpt lat="44.93424" lon="6.84259">
        <ele>1567</ele>
        <time>2011-09-10T06:47:40Z</time>
      </trkpt>
      <trkpt lat="44.93438" lon="6.84285">
        <ele>1569</ele>
        <time>2011-09-10T06:47:57Z</time>
      </trkpt>
      <trkpt lat="44.93455" lon="6.84309">
        <ele>1571</ele>
        <time>2011-09-10T06:48:13Z</time>
      </trkpt>
      <trkpt lat="44.93443" lon="6.84336">
        <ele>1577</ele>
        <time>2011-09-10T06:48:51Z</time>
      </trkpt>
      <trkpt lat="44.93419" lon="6.84321">
        <ele>1579</ele>
        <time>2011-09-10T06:49:09Z</time>
      </trkpt>
      <trkpt lat="44.934" lon="6.843">
        <ele>1581</ele>
        <time>2011-09-10T06:49:25Z</time>
      </trkpt>
      <trkpt lat="44.93379" lon="6.84285">
        <ele>1584</ele>
        <time>2011-09-10T06:49:42Z</time>
      </trkpt>
      <trkpt lat="44.93397" lon="6.84306">
        <ele>1586</ele>
        <time>2011-09-10T06:50:44Z</time>
      </trkpt>
      <trkpt lat="44.93417" lon="6.84329">
        <ele>1586</ele>
        <time>2011-09-10T06:50:53Z</time>
      </trkpt>
      <trkpt lat="44.93432" lon="6.84354">
        <ele>1586</ele>
        <time>2011-09-10T06:51:01Z</time>
      </trkpt>
      <trkpt lat="44.93453" lon="6.84375">
        <ele>1587</ele>
        <time>2011-09-10T06:51:10Z</time>
      </trkpt>
      <trkpt lat="44.93469" lon="6.84402">
        <ele>1586</ele>
        <time>2011-09-10T06:51:18Z</time>
      </trkpt>
      <trkpt lat="44.9348" lon="6.84431">
        <ele>1586</ele>
        <time>2011-09-10T06:51:26Z</time>
      </trkpt>
      <trkpt lat="44.93496" lon="6.84456">
        <ele>1586</ele>
        <time>2011-09-10T06:51:33Z</time>
      </trkpt>
      <trkpt lat="44.93511" lon="6.84486">
        <ele>1585</ele>
        <time>2011-09-10T06:51:40Z</time>
      </trkpt>
      <trkpt lat="44.93525" lon="6.84515">
        <ele>1587</ele>
        <time>2011-09-10T06:51:48Z</time>
      </trkpt>
      <trkpt lat="44.93534" lon="6.84548">
        <ele>1586</ele>
        <time>2011-09-10T06:51:56Z</time>
      </trkpt>
      <trkpt lat="44.93537" lon="6.84581">
        <ele>1587</ele>
        <time>2011-09-10T06:52:04Z</time>
      </trkpt>
      <trkpt lat="44.93532" lon="6.84615">
        <ele>1587</ele>
        <time>2011-09-10T06:52:12Z</time>
      </trkpt>
      <trkpt lat="44.93531" lon="6.84649">
        <ele>1586</ele>
        <time>2011-09-10T06:52:20Z</time>
      </trkpt>
      <trkpt lat="44.93538" lon="6.84683">
        <ele>1586</ele>
        <time>2011-09-10T06:52:28Z</time>
      </trkpt>
      <trkpt lat="44.93532" lon="6.84716">
        <ele>1587</ele>
        <time>2011-09-10T06:52:36Z</time>
      </trkpt>
      <trkpt lat="44.9354" lon="6.84748">
        <ele>1590</ele>
        <time>2011-09-10T06:52:45Z</time>
      </trkpt>
      <trkpt lat="44.93552" lon="6.84775">
        <ele>1590</ele>
        <time>2011-09-10T06:52:55Z</time>
      </trkpt>
      <trkpt lat="44.93564" lon="6.84803">
        <ele>1591</ele>
        <time>2011-09-10T06:53:04Z</time>
      </trkpt>
      <trkpt lat="44.93574" lon="6.84836">
        <ele>1591</ele>
        <time>2011-09-10T06:53:13Z</time>
      </trkpt>
      <trkpt lat="44.93573" lon="6.84869">
        <ele>1593</ele>
        <time>2011-09-10T06:53:21Z</time>
      </trkpt>
      <trkpt lat="44.9356" lon="6.84899">
        <ele>1592</ele>
        <time>2011-09-10T06:53:30Z</time>
      </trkpt>
      <trkpt lat="44.93559" lon="6.84934">
        <ele>1594</ele>
        <time>2011-09-10T06:53:42Z</time>
      </trkpt>
      <trkpt lat="44.93559" lon="6.84967">
        <ele>1595</ele>
        <time>2011-09-10T06:53:51Z</time>
      </trkpt>
      <trkpt lat="44.93559" lon="6.85002">
        <ele>1594</ele>
        <time>2011-09-10T06:54:01Z</time>
      </trkpt>
      <trkpt lat="44.93556" lon="6.85035">
        <ele>1596</ele>
        <time>2011-09-10T06:54:10Z</time>
      </trkpt>
      <trkpt lat="44.93567" lon="6.85064">
        <ele>1597</ele>
        <time>2011-09-10T06:54:19Z</time>
      </trkpt>
      <trkpt lat="44.93575" lon="6.85097">
        <ele>1597</ele>
        <time>2011-09-10T06:54:29Z</time>
      </trkpt>
      <trkpt lat="44.93593" lon="6.8512">
        <ele>1597</ele>
        <time>2011-09-10T06:54:37Z</time>
      </trkpt>
      <trkpt lat="44.93614" lon="6.85137">
        <ele>1596</ele>
        <time>2011-09-10T06:54:45Z</time>
      </trkpt>
      <trkpt lat="44.93591" lon="6.85135">
        <ele>1603</ele>
        <time>2011-09-10T06:55:29Z</time>
      </trkpt>
      <trkpt lat="44.93569" lon="6.85121">
        <ele>1606</ele>
        <time>2011-09-10T06:55:46Z</time>
      </trkpt>
      <trkpt lat="44.9355" lon="6.85101">
        <ele>1608</ele>
        <time>2011-09-10T06:56:01Z</time>
      </trkpt>
      <trkpt lat="44.93533" lon="6.85079">
        <ele>1610</ele>
        <time>2011-09-10T06:56:13Z</time>
      </trkpt>
      <trkpt lat="44.93525" lon="6.85047">
        <ele>1612</ele>
        <time>2011-09-10T06:56:32Z</time>
      </trkpt>
      <trkpt lat="44.9353" lon="6.85013">
        <ele>1616</ele>
        <time>2011-09-10T06:56:47Z</time>
      </trkpt>
      <trkpt lat="44.93524" lon="6.84981">
        <ele>1617</ele>
        <time>2011-09-10T06:57:02Z</time>
      </trkpt>
      <trkpt lat="44.93503" lon="6.84966">
        <ele>1619</ele>
        <time>2011-09-10T06:57:18Z</time>
      </trkpt>
      <trkpt lat="44.93486" lon="6.84943">
        <ele>1622</ele>
        <time>2011-09-10T06:57:32Z</time>
      </trkpt>
      <trkpt lat="44.93484" lon="6.8491">
        <ele>1623</ele>
        <time>2011-09-10T06:57:47Z</time>
      </trkpt>
      <trkpt lat="44.9347" lon="6.84883">
        <ele>1626</ele>
        <time>2011-09-10T06:58:02Z</time>
      </trkpt>
      <trkpt lat="44.9347" lon="6.84851">
        <ele>1628</ele>
        <time>2011-09-10T06:58:16Z</time>
      </trkpt>
      <trkpt lat="44.93473" lon="6.84817">
        <ele>1629</ele>
        <time>2011-09-10T06:58:32Z</time>
      </trkpt>
      <trkpt lat="44.93475" lon="6.84783">
        <ele>1632</ele>
        <time>2011-09-10T06:58:48Z</time>
      </trkpt>
      <trkpt lat="44.93468" lon="6.84752">
        <ele>1635</ele>
        <time>2011-09-10T06:59:01Z</time>
      </trkpt>
      <trkpt lat="44.93462" lon="6.8472">
        <ele>1637</ele>
        <time>2011-09-10T06:59:17Z</time>
      </trkpt>
      <trkpt lat="44.93459" lon="6.84686">
        <ele>1639</ele>
        <time>2011-09-10T06:59:32Z</time>
      </trkpt>
      <trkpt lat="44.93447" lon="6.84656">
        <ele>1642</ele>
        <time>2011-09-10T06:59:49Z</time>
      </trkpt>
      <trkpt lat="44.93431" lon="6.84633">
        <ele>1644</ele>
        <time>2011-09-10T07:00:04Z</time>
      </trkpt>
      <trkpt lat="44.93408" lon="6.84623">
        <ele>1644</ele>
        <time>2011-09-10T07:00:17Z</time>
      </trkpt>
      <trkpt lat="44.93389" lon="6.84602">
        <ele>1645</ele>
        <time>2011-09-10T07:00:29Z</time>
      </trkpt>
      <trkpt lat="44.93379" lon="6.84573">
        <ele>1647</ele>
        <time>2011-09-10T07:00:44Z</time>
      </trkpt>
      <trkpt lat="44.9337" lon="6.84543">
        <ele>1647</ele>
        <time>2011-09-10T07:00:55Z</time>
      </trkpt>
      <trkpt lat="44.93367" lon="6.84576">
        <ele>1650</ele>
        <time>2011-09-10T07:01:30Z</time>
      </trkpt>
      <trkpt lat="44.9338" lon="6.84608">
        <ele>1650</ele>
        <time>2011-09-10T07:01:42Z</time>
      </trkpt>
      <trkpt lat="44.93401" lon="6.84628">
        <ele>1651</ele>
        <time>2011-09-10T07:01:52Z</time>
      </trkpt>
      <trkpt lat="44.93421" lon="6.84645">
        <ele>1651</ele>
        <time>2011-09-10T07:02:02Z</time>
      </trkpt>
      <trkpt lat="44.93437" lon="6.8467">
        <ele>1654</ele>
        <time>2011-09-10T07:02:16Z</time>
      </trkpt>
      <trkpt lat="44.93437" lon="6.84703">
        <ele>1657</ele>
        <time>2011-09-10T07:02:31Z</time>
      </trkpt>
      <trkpt lat="44.93432" lon="6.84736">
        <ele>1659</ele>
        <time>2011-09-10T07:02:46Z</time>
      </trkpt>
      <trkpt lat="44.93434" lon="6.84768">
        <ele>1661</ele>
        <time>2011-09-10T07:03:02Z</time>
      </trkpt>
      <trkpt lat="44.93432" lon="6.84802">
        <ele>1663</ele>
        <time>2011-09-10T07:03:17Z</time>
      </trkpt>
      <trkpt lat="44.93422" lon="6.84831">
        <ele>1666</ele>
        <time>2011-09-10T07:03:34Z</time>
      </trkpt>
      <trkpt lat="44.93415" lon="6.84862">
        <ele>1668</ele>
        <time>2011-09-10T07:03:50Z</time>
      </trkpt>
      <trkpt lat="44.93414" lon="6.84895">
        <ele>1671</ele>
        <time>2011-09-10T07:04:05Z</time>
      </trkpt>
      <trkpt lat="44.93408" lon="6.84927">
        <ele>1673</ele>
        <time>2011-09-10T07:04:24Z</time>
      </trkpt>
      <trkpt lat="44.93391" lon="6.84949">
        <ele>1677</ele>
        <time>2011-09-10T07:04:44Z</time>
      </trkpt>
      <trkpt lat="44.93384" lon="6.84981">
        <ele>1679</ele>
        <time>2011-09-10T07:05:04Z</time>
      </trkpt>
      <trkpt lat="44.93373" lon="6.85011">
        <ele>1683</ele>
        <time>2011-09-10T07:05:25Z</time>
      </trkpt>
      <trkpt lat="44.93377" lon="6.85044">
        <ele>1685</ele>
        <time>2011-09-10T07:05:41Z</time>
      </trkpt>
      <trkpt lat="44.93391" lon="6.85072">
        <ele>1689</ele>
        <time>2011-09-10T07:06:04Z</time>
      </trkpt>
      <trkpt lat="44.93399" lon="6.85103">
        <ele>1690</ele>
        <time>2011-09-10T07:06:20Z</time>
      </trkpt>
      <trkpt lat="44.93394" lon="6.85135">
        <ele>1693</ele>
        <time>2011-09-10T07:06:39Z</time>
      </trkpt>
      <trkpt lat="44.93394" lon="6.85168">
        <ele>1697</ele>
        <time>2011-09-10T07:07:02Z</time>
      </trkpt>
      <trkpt lat="44.93406" lon="6.85196">
        <ele>1699</ele>
        <time>2011-09-10T07:07:18Z</time>
      </trkpt>
      <trkpt lat="44.93413" lon="6.85228">
        <ele>1701</ele>
        <time>2011-09-10T07:07:37Z</time>
      </trkpt>
      <trkpt lat="44.93413" lon="6.85262">
        <ele>1703</ele>
        <time>2011-09-10T07:07:55Z</time>
      </trkpt>
      <trkpt lat="44.93426" lon="6.8529">
        <ele>1705</ele>
        <time>2011-09-10T07:08:13Z</time>
      </trkpt>
      <trkpt lat="44.93435" lon="6.85321">
        <ele>1707</ele>
        <time>2011-09-10T07:08:30Z</time>
      </trkpt>
      <trkpt lat="44.93446" lon="6.85352">
        <ele>1709</ele>
        <time>2011-09-10T07:08:46Z</time>
      </trkpt>
      <trkpt lat="44.93454" lon="6.85382">
        <ele>1712</ele>
        <time>2011-09-10T07:09:03Z</time>
      </trkpt>
      <trkpt lat="44.93457" lon="6.85415">
        <ele>1714</ele>
        <time>2011-09-10T07:09:22Z</time>
      </trkpt>
      <trkpt lat="44.93454" lon="6.85448">
        <ele>1717</ele>
        <time>2011-09-10T07:09:39Z</time>
      </trkpt>
      <trkpt lat="44.93445" lon="6.8548">
        <ele>1718</ele>
        <time>2011-09-10T07:09:57Z</time>
      </trkpt>
      <trkpt lat="44.93434" lon="6.85509">
        <ele>1721</ele>
        <time>2011-09-10T07:10:15Z</time>
      </trkpt>
      <trkpt lat="44.93424" lon="6.85538">
        <ele>1724</ele>
        <time>2011-09-10T07:10:33Z</time>
      </trkpt>
      <trkpt lat="44.93429" lon="6.85572">
        <ele>1727</ele>
        <time>2011-09-10T07:10:53Z</time>
      </trkpt>
      <trkpt lat="44.93436" lon="6.85603">
        <ele>1730</ele>
        <time>2011-09-10T07:11:12Z</time>
      </trkpt>
      <trkpt lat="44.93439" lon="6.85636">
        <ele>1732</ele>
        <time>2011-09-10T07:11:31Z</time>
      </trkpt>
      <trkpt lat="44.93432" lon="6.85668">
        <ele>1735</ele>
        <time>2011-09-10T07:11:51Z</time>
      </trkpt>
      <trkpt lat="44.93423" lon="6.85699">
        <ele>1736</ele>
        <time>2011-09-10T07:12:07Z</time>
      </trkpt>
      <trkpt lat="44.93415" lon="6.85731">
        <ele>1738</ele>
        <time>2011-09-10T07:12:24Z</time>
      </trkpt>
      <trkpt lat="44.93407" lon="6.85762">
        <ele>1741</ele>
        <time>2011-09-10T07:12:42Z</time>
      </trkpt>
      <trkpt lat="44.93402" lon="6.85795">
        <ele>1743</ele>
        <time>2011-09-10T07:13:03Z</time>
      </trkpt>
      <trkpt lat="44.93399" lon="6.85827">
        <ele>1746</ele>
        <time>2011-09-10T07:13:24Z</time>
      </trkpt>
      <trkpt lat="44.93402" lon="6.8586">
        <ele>1748</ele>
        <time>2011-09-10T07:13:42Z</time>
      </trkpt>
      <trkpt lat="44.93391" lon="6.8589">
        <ele>1751</ele>
        <time>2011-09-10T07:14:00Z</time>
      </trkpt>
      <trkpt lat="44.93376" lon="6.85915">
        <ele>1753</ele>
        <time>2011-09-10T07:14:22Z</time>
      </trkpt>
      <trkpt lat="44.93362" lon="6.85944">
        <ele>1756</ele>
        <time>2011-09-10T07:14:39Z</time>
      </trkpt>
      <trkpt lat="44.93352" lon="6.85974">
        <ele>1760</ele>
        <time>2011-09-10T07:14:59Z</time>
      </trkpt>
      <trkpt lat="44.93343" lon="6.86005">
        <ele>1762</ele>
        <time>2011-09-10T07:15:21Z</time>
      </trkpt>
      <trkpt lat="44.93332" lon="6.86035">
        <ele>1764</ele>
        <time>2011-09-10T07:15:42Z</time>
      </trkpt>
      <trkpt lat="44.93325" lon="6.86066">
        <ele>1768</ele>
        <time>2011-09-10T07:16:05Z</time>
      </trkpt>
      <trkpt lat="44.9332" lon="6.86099">
        <ele>1770</ele>
        <time>2011-09-10T07:16:21Z</time>
      </trkpt>
      <trkpt lat="44.93311" lon="6.86129">
        <ele>1772</ele>
        <time>2011-09-10T07:18:03Z</time>
      </trkpt>
      <trkpt lat="44.93309" lon="6.86162">
        <ele>1774</ele>
        <time>2011-09-10T07:18:22Z</time>
      </trkpt>
      <trkpt lat="44.93323" lon="6.86189">
        <ele>1777</ele>
        <time>2011-09-10T07:18:44Z</time>
      </trkpt>
      <trkpt lat="44.9331" lon="6.86216">
        <ele>1781</ele>
        <time>2011-09-10T07:19:07Z</time>
      </trkpt>
      <trkpt lat="44.93289" lon="6.86233">
        <ele>1783</ele>
        <time>2011-09-10T07:19:28Z</time>
      </trkpt>
      <trkpt lat="44.93267" lon="6.86244">
        <ele>1785</ele>
        <time>2011-09-10T07:19:46Z</time>
      </trkpt>
      <trkpt lat="44.93244" lon="6.8625">
        <ele>1788</ele>
        <time>2011-09-10T07:20:05Z</time>
      </trkpt>
      <trkpt lat="44.93226" lon="6.86273">
        <ele>1790</ele>
        <time>2011-09-10T07:20:25Z</time>
      </trkpt>
      <trkpt lat="44.93212" lon="6.863">
        <ele>1791</ele>
        <time>2011-09-10T07:20:40Z</time>
      </trkpt>
      <trkpt lat="44.93192" lon="6.86317">
        <ele>1794</ele>
        <time>2011-09-10T07:21:00Z</time>
      </trkpt>
      <trkpt lat="44.93168" lon="6.86322">
        <ele>1796</ele>
        <time>2011-09-10T07:21:18Z</time>
      </trkpt>
      <trkpt lat="44.93145" lon="6.86331">
        <ele>1798</ele>
        <time>2011-09-10T07:21:37Z</time>
      </trkpt>
      <trkpt lat="44.93122" lon="6.86335">
        <ele>1801</ele>
        <time>2011-09-10T07:21:53Z</time>
      </trkpt>
      <trkpt lat="44.93102" lon="6.86352">
        <ele>1803</ele>
        <time>2011-09-10T07:22:10Z</time>
      </trkpt>
      <trkpt lat="44.93082" lon="6.86369">
        <ele>1805</ele>
        <time>2011-09-10T07:22:28Z</time>
      </trkpt>
      <trkpt lat="44.93066" lon="6.86393">
        <ele>1808</ele>
        <time>2011-09-10T07:22:45Z</time>
      </trkpt>
      <trkpt lat="44.93049" lon="6.86417">
        <ele>1810</ele>
        <time>2011-09-10T07:23:03Z</time>
      </trkpt>
      <trkpt lat="44.93037" lon="6.86445">
        <ele>1813</ele>
        <time>2011-09-10T07:23:21Z</time>
      </trkpt>
      <trkpt lat="44.93017" lon="6.86463">
        <ele>1816</ele>
        <time>2011-09-10T07:23:40Z</time>
      </trkpt>
      <trkpt lat="44.92999" lon="6.86485">
        <ele>1818</ele>
        <time>2011-09-10T07:23:58Z</time>
      </trkpt>
      <trkpt lat="44.92977" lon="6.86492">
        <ele>1820</ele>
        <time>2011-09-10T07:24:15Z</time>
      </trkpt>
      <trkpt lat="44.92955" lon="6.86505">
        <ele>1824</ele>
        <time>2011-09-10T07:24:33Z</time>
      </trkpt>
      <trkpt lat="44.92933" lon="6.86514">
        <ele>1827</ele>
        <time>2011-09-10T07:27:07Z</time>
      </trkpt>
      <trkpt lat="44.92913" lon="6.86496">
        <ele>1829</ele>
        <time>2011-09-10T07:27:26Z</time>
      </trkpt>
      <trkpt lat="44.92891" lon="6.86508">
        <ele>1831</ele>
        <time>2011-09-10T07:27:44Z</time>
      </trkpt>
      <trkpt lat="44.92869" lon="6.86519">
        <ele>1834</ele>
        <time>2011-09-10T07:28:01Z</time>
      </trkpt>
      <trkpt lat="44.92848" lon="6.86534">
        <ele>1836</ele>
        <time>2011-09-10T07:28:19Z</time>
      </trkpt>
      <trkpt lat="44.92825" lon="6.86539">
        <ele>1839</ele>
        <time>2011-09-10T07:28:38Z</time>
      </trkpt>
      <trkpt lat="44.92804" lon="6.86524">
        <ele>1841</ele>
        <time>2011-09-10T07:28:55Z</time>
      </trkpt>
      <trkpt lat="44.9278" lon="6.86516">
        <ele>1845</ele>
        <time>2011-09-10T07:29:13Z</time>
      </trkpt>
      <trkpt lat="44.92757" lon="6.8651">
        <ele>1847</ele>
        <time>2011-09-10T07:29:30Z</time>
      </trkpt>
      <trkpt lat="44.92733" lon="6.86516">
        <ele>1849</ele>
        <time>2011-09-10T07:29:48Z</time>
      </trkpt>
      <trkpt lat="44.92713" lon="6.86533">
        <ele>1850</ele>
        <time>2011-09-10T07:30:03Z</time>
      </trkpt>
      <trkpt lat="44.92695" lon="6.86555">
        <ele>1854</ele>
        <time>2011-09-10T07:30:18Z</time>
      </trkpt>
      <trkpt lat="44.92676" lon="6.86575">
        <ele>1856</ele>
        <time>2011-09-10T07:30:35Z</time>
      </trkpt>
      <trkpt lat="44.92653" lon="6.86579">
        <ele>1861</ele>
        <time>2011-09-10T07:30:54Z</time>
      </trkpt>
      <trkpt lat="44.9263" lon="6.86575">
        <ele>1864</ele>
        <time>2011-09-10T07:31:12Z</time>
      </trkpt>
      <trkpt lat="44.92607" lon="6.86566">
        <ele>1867</ele>
        <time>2011-09-10T07:31:33Z</time>
      </trkpt>
      <trkpt lat="44.9263" lon="6.86556">
        <ele>1872</ele>
        <time>2011-09-10T07:32:02Z</time>
      </trkpt>
      <trkpt lat="44.92649" lon="6.86536">
        <ele>1874</ele>
        <time>2011-09-10T07:32:18Z</time>
      </trkpt>
      <trkpt lat="44.92666" lon="6.86514">
        <ele>1877</ele>
        <time>2011-09-10T07:32:35Z</time>
      </trkpt>
      <trkpt lat="44.9268" lon="6.86487">
        <ele>1879</ele>
        <time>2011-09-10T07:32:54Z</time>
      </trkpt>
      <trkpt lat="44.92691" lon="6.86458">
        <ele>1883</ele>
        <time>2011-09-10T07:33:17Z</time>
      </trkpt>
      <trkpt lat="44.92707" lon="6.86435">
        <ele>1885</ele>
        <time>2011-09-10T07:33:32Z</time>
      </trkpt>
      <trkpt lat="44.92731" lon="6.86432">
        <ele>1888</ele>
        <time>2011-09-10T07:33:51Z</time>
      </trkpt>
      <trkpt lat="44.92754" lon="6.86435">
        <ele>1891</ele>
        <time>2011-09-10T07:34:08Z</time>
      </trkpt>
      <trkpt lat="44.92778" lon="6.86432">
        <ele>1893</ele>
        <time>2011-09-10T07:34:27Z</time>
      </trkpt>
      <trkpt lat="44.92802" lon="6.86431">
        <ele>1896</ele>
        <time>2011-09-10T07:34:45Z</time>
      </trkpt>
      <trkpt lat="44.92827" lon="6.86436">
        <ele>1898</ele>
        <time>2011-09-10T07:35:06Z</time>
      </trkpt>
      <trkpt lat="44.92849" lon="6.86427">
        <ele>1902</ele>
        <time>2011-09-10T07:35:23Z</time>
      </trkpt>
      <trkpt lat="44.92871" lon="6.86413">
        <ele>1904</ele>
        <time>2011-09-10T07:35:44Z</time>
      </trkpt>
      <trkpt lat="44.9289" lon="6.86393">
        <ele>1907</ele>
        <time>2011-09-10T07:36:01Z</time>
      </trkpt>
      <trkpt lat="44.92904" lon="6.86367">
        <ele>1909</ele>
        <time>2011-09-10T07:36:16Z</time>
      </trkpt>
      <trkpt lat="44.92917" lon="6.8634">
        <ele>1911</ele>
        <time>2011-09-10T07:36:34Z</time>
      </trkpt>
      <trkpt lat="44.92931" lon="6.86312">
        <ele>1914</ele>
        <time>2011-09-10T07:36:52Z</time>
      </trkpt>
      <trkpt lat="44.92944" lon="6.86284">
        <ele>1917</ele>
        <time>2011-09-10T07:37:11Z</time>
      </trkpt>
      <trkpt lat="44.92957" lon="6.86257">
        <ele>1920</ele>
        <time>2011-09-10T07:37:30Z</time>
      </trkpt>
      <trkpt lat="44.92973" lon="6.86232">
        <ele>1922</ele>
        <time>2011-09-10T07:37:48Z</time>
      </trkpt>
      <trkpt lat="44.92989" lon="6.86205">
        <ele>1923</ele>
        <time>2011-09-10T07:38:03Z</time>
      </trkpt>
      <trkpt lat="44.9301" lon="6.8619">
        <ele>1928</ele>
        <time>2011-09-10T07:38:21Z</time>
      </trkpt>
      <trkpt lat="44.9303" lon="6.86173">
        <ele>1930</ele>
        <time>2011-09-10T07:38:39Z</time>
      </trkpt>
      <trkpt lat="44.93047" lon="6.86149">
        <ele>1931</ele>
        <time>2011-09-10T07:38:58Z</time>
      </trkpt>
      <trkpt lat="44.93062" lon="6.86122">
        <ele>1933</ele>
        <time>2011-09-10T07:39:12Z</time>
      </trkpt>
      <trkpt lat="44.93078" lon="6.86098">
        <ele>1936</ele>
        <time>2011-09-10T07:39:29Z</time>
      </trkpt>
      <trkpt lat="44.93093" lon="6.86074">
        <ele>1938</ele>
        <time>2011-09-10T07:39:43Z</time>
      </trkpt>
      <trkpt lat="44.93106" lon="6.86046">
        <ele>1941</ele>
        <time>2011-09-10T07:40:02Z</time>
      </trkpt>
      <trkpt lat="44.9311" lon="6.86013">
        <ele>1944</ele>
        <time>2011-09-10T07:40:19Z</time>
      </trkpt>
      <trkpt lat="44.93098" lon="6.86041">
        <ele>1947</ele>
        <time>2011-09-10T07:40:40Z</time>
      </trkpt>
      <trkpt lat="44.93079" lon="6.8606">
        <ele>1948</ele>
        <time>2011-09-10T07:40:57Z</time>
      </trkpt>
      <trkpt lat="44.93058" lon="6.86075">
        <ele>1950</ele>
        <time>2011-09-10T07:41:12Z</time>
      </trkpt>
      <trkpt lat="44.93038" lon="6.86094">
        <ele>1952</ele>
        <time>2011-09-10T07:41:27Z</time>
      </trkpt>
      <trkpt lat="44.93018" lon="6.8611">
        <ele>1955</ele>
        <time>2011-09-10T07:41:42Z</time>
      </trkpt>
      <trkpt lat="44.92996" lon="6.86123">
        <ele>1957</ele>
        <time>2011-09-10T07:41:57Z</time>
      </trkpt>
      <trkpt lat="44.92973" lon="6.86133">
        <ele>1959</ele>
        <time>2011-09-10T07:42:12Z</time>
      </trkpt>
      <trkpt lat="44.92951" lon="6.86145">
        <ele>1961</ele>
        <time>2011-09-10T07:42:27Z</time>
      </trkpt>
      <trkpt lat="44.92931" lon="6.86163">
        <ele>1965</ele>
        <time>2011-09-10T07:42:45Z</time>
      </trkpt>
      <trkpt lat="44.9291" lon="6.86178">
        <ele>1967</ele>
        <time>2011-09-10T07:43:00Z</time>
      </trkpt>
      <trkpt lat="44.92891" lon="6.86197">
        <ele>1970</ele>
        <time>2011-09-10T07:43:18Z</time>
      </trkpt>
      <trkpt lat="44.92871" lon="6.86213">
        <ele>1972</ele>
        <time>2011-09-10T07:43:33Z</time>
      </trkpt>
      <trkpt lat="44.92852" lon="6.86234">
        <ele>1974</ele>
        <time>2011-09-10T07:43:50Z</time>
      </trkpt>
      <trkpt lat="44.92832" lon="6.86249">
        <ele>1977</ele>
        <time>2011-09-10T07:44:07Z</time>
      </trkpt>
      <trkpt lat="44.92809" lon="6.86258">
        <ele>1979</ele>
        <time>2011-09-10T07:44:23Z</time>
      </trkpt>
      <trkpt lat="44.92786" lon="6.86251">
        <ele>1981</ele>
        <time>2011-09-10T07:44:40Z</time>
      </trkpt>
      <trkpt lat="44.92763" lon="6.86239">
        <ele>1984</ele>
        <time>2011-09-10T07:44:58Z</time>
      </trkpt>
      <trkpt lat="44.92742" lon="6.86226">
        <ele>1986</ele>
        <time>2011-09-10T07:45:15Z</time>
      </trkpt>
      <trkpt lat="44.92718" lon="6.86226">
        <ele>1990</ele>
        <time>2011-09-10T07:45:32Z</time>
      </trkpt>
      <trkpt lat="44.92694" lon="6.8623">
        <ele>1992</ele>
        <time>2011-09-10T07:45:49Z</time>
      </trkpt>
      <trkpt lat="44.92671" lon="6.86225">
        <ele>1995</ele>
        <time>2011-09-10T07:46:06Z</time>
      </trkpt>
      <trkpt lat="44.92648" lon="6.86228">
        <ele>1996</ele>
        <time>2011-09-10T07:46:23Z</time>
      </trkpt>
      <trkpt lat="44.92626" lon="6.86219">
        <ele>1998</ele>
        <time>2011-09-10T07:46:40Z</time>
      </trkpt>
      <trkpt lat="44.92603" lon="6.86226">
        <ele>2002</ele>
        <time>2011-09-10T07:46:59Z</time>
      </trkpt>
      <trkpt lat="44.92589" lon="6.86252">
        <ele>2003</ele>
        <time>2011-09-10T07:47:10Z</time>
      </trkpt>
      <trkpt lat="44.92565" lon="6.86247">
        <ele>2006</ele>
        <time>2011-09-10T07:47:27Z</time>
      </trkpt>
      <trkpt lat="44.92541" lon="6.86249">
        <ele>2009</ele>
        <time>2011-09-10T07:47:46Z</time>
      </trkpt>
      <trkpt lat="44.92518" lon="6.86253">
        <ele>2010</ele>
        <time>2011-09-10T07:48:01Z</time>
      </trkpt>
      <trkpt lat="44.92495" lon="6.86253">
        <ele>2014</ele>
        <time>2011-09-10T07:48:21Z</time>
      </trkpt>
      <trkpt lat="44.92472" lon="6.86251">
        <ele>2015</ele>
        <time>2011-09-10T07:48:40Z</time>
      </trkpt>
      <trkpt lat="44.92449" lon="6.86247">
        <ele>2016</ele>
        <time>2011-09-10T07:48:58Z</time>
      </trkpt>
      <trkpt lat="44.92426" lon="6.86243">
        <ele>2019</ele>
        <time>2011-09-10T07:49:14Z</time>
      </trkpt>
      <trkpt lat="44.92403" lon="6.86253">
        <ele>2022</ele>
        <time>2011-09-10T07:49:30Z</time>
      </trkpt>
      <trkpt lat="44.9238" lon="6.86265">
        <ele>2025</ele>
        <time>2011-09-10T07:49:47Z</time>
      </trkpt>
      <trkpt lat="44.92357" lon="6.86271">
        <ele>2027</ele>
        <time>2011-09-10T07:50:03Z</time>
      </trkpt>
      <trkpt lat="44.92333" lon="6.86271">
        <ele>2030</ele>
        <time>2011-09-10T07:50:21Z</time>
      </trkpt>
      <trkpt lat="44.9231" lon="6.8627">
        <ele>2032</ele>
        <time>2011-09-10T07:50:37Z</time>
      </trkpt>
      <trkpt lat="44.92288" lon="6.86257">
        <ele>2035</ele>
        <time>2011-09-10T07:50:52Z</time>
      </trkpt>
      <trkpt lat="44.92268" lon="6.86239">
        <ele>2036</ele>
        <time>2011-09-10T07:55:14Z</time>
      </trkpt>
      <trkpt lat="44.92245" lon="6.86244">
        <ele>2038</ele>
        <time>2011-09-10T07:55:32Z</time>
      </trkpt>
      <trkpt lat="44.92223" lon="6.86256">
        <ele>2038</ele>
        <time>2011-09-10T07:55:46Z</time>
      </trkpt>
      <trkpt lat="44.922" lon="6.86254">
        <ele>2037</ele>
        <time>2011-09-10T07:55:59Z</time>
      </trkpt>
      <trkpt lat="44.92177" lon="6.86256">
        <ele>2039</ele>
        <time>2011-09-10T07:56:14Z</time>
      </trkpt>
      <trkpt lat="44.92195" lon="6.86238">
        <ele>2042</ele>
        <time>2011-09-10T07:56:39Z</time>
      </trkpt>
      <trkpt lat="44.92218" lon="6.86227">
        <ele>2045</ele>
        <time>2011-09-10T07:56:57Z</time>
      </trkpt>
      <trkpt lat="44.92243" lon="6.86221">
        <ele>2046</ele>
        <time>2011-09-10T07:57:23Z</time>
      </trkpt>
      <trkpt lat="44.92262" lon="6.86203">
        <ele>2050</ele>
        <time>2011-09-10T07:57:40Z</time>
      </trkpt>
      <trkpt lat="44.92281" lon="6.86183">
        <ele>2053</ele>
        <time>2011-09-10T07:57:56Z</time>
      </trkpt>
      <trkpt lat="44.92305" lon="6.86178">
        <ele>2055</ele>
        <time>2011-09-10T07:58:18Z</time>
      </trkpt>
      <trkpt lat="44.92327" lon="6.86164">
        <ele>2058</ele>
        <time>2011-09-10T07:58:34Z</time>
      </trkpt>
      <trkpt lat="44.92349" lon="6.86152">
        <ele>2061</ele>
        <time>2011-09-10T07:58:55Z</time>
      </trkpt>
      <trkpt lat="44.92373" lon="6.86149">
        <ele>2063</ele>
        <time>2011-09-10T07:59:19Z</time>
      </trkpt>
      <trkpt lat="44.92394" lon="6.86134">
        <ele>2066</ele>
        <time>2011-09-10T07:59:35Z</time>
      </trkpt>
      <trkpt lat="44.92418" lon="6.86124">
        <ele>2069</ele>
        <time>2011-09-10T07:59:59Z</time>
      </trkpt>
      <trkpt lat="44.92439" lon="6.86104">
        <ele>2070</ele>
        <time>2011-09-10T08:00:14Z</time>
      </trkpt>
      <trkpt lat="44.92462" lon="6.86099">
        <ele>2073</ele>
        <time>2011-09-10T08:00:32Z</time>
      </trkpt>
      <trkpt lat="44.92485" lon="6.861">
        <ele>2075</ele>
        <time>2011-09-10T08:00:50Z</time>
      </trkpt>
      <trkpt lat="44.92509" lon="6.86094">
        <ele>2078</ele>
        <time>2011-09-10T08:01:08Z</time>
      </trkpt>
      <trkpt lat="44.92532" lon="6.86089">
        <ele>2080</ele>
        <time>2011-09-10T08:01:27Z</time>
      </trkpt>
      <trkpt lat="44.92555" lon="6.8608">
        <ele>2084</ele>
        <time>2011-09-10T08:01:47Z</time>
      </trkpt>
      <trkpt lat="44.92579" lon="6.86085">
        <ele>2087</ele>
        <time>2011-09-10T08:02:03Z</time>
      </trkpt>
      <trkpt lat="44.92596" lon="6.86061">
        <ele>2090</ele>
        <time>2011-09-10T08:02:32Z</time>
      </trkpt>
      <trkpt lat="44.92616" lon="6.86037">
        <ele>2092</ele>
        <time>2011-09-10T08:02:48Z</time>
      </trkpt>
      <trkpt lat="44.92639" lon="6.8603">
        <ele>2096</ele>
        <time>2011-09-10T08:03:09Z</time>
      </trkpt>
      <trkpt lat="44.92661" lon="6.86021">
        <ele>2098</ele>
        <time>2011-09-10T08:03:27Z</time>
      </trkpt>
      <trkpt lat="44.92685" lon="6.86017">
        <ele>2101</ele>
        <time>2011-09-10T08:03:46Z</time>
      </trkpt>
      <trkpt lat="44.92707" lon="6.86005">
        <ele>2104</ele>
        <time>2011-09-10T08:04:06Z</time>
      </trkpt>
      <trkpt lat="44.92731" lon="6.85998">
        <ele>2107</ele>
        <time>2011-09-10T08:04:26Z</time>
      </trkpt>
      <trkpt lat="44.92752" lon="6.85986">
        <ele>2108</ele>
        <time>2011-09-10T08:04:43Z</time>
      </trkpt>
      <trkpt lat="44.92774" lon="6.85969">
        <ele>2111</ele>
        <time>2011-09-10T08:05:02Z</time>
      </trkpt>
      <trkpt lat="44.92795" lon="6.85942">
        <ele>2112</ele>
        <time>2011-09-10T08:05:15Z</time>
      </trkpt>
      <trkpt lat="44.92815" lon="6.85922">
        <ele>2112</ele>
        <time>2011-09-10T08:05:24Z</time>
      </trkpt>
      <trkpt lat="44.92832" lon="6.859">
        <ele>2114</ele>
        <time>2011-09-10T08:05:40Z</time>
      </trkpt>
      <trkpt lat="44.9285" lon="6.85879">
        <ele>2113</ele>
        <time>2011-09-10T08:05:54Z</time>
      </trkpt>
      <trkpt lat="44.92871" lon="6.85868">
        <ele>2115</ele>
        <time>2011-09-10T08:06:07Z</time>
      </trkpt>
      <trkpt lat="44.92848" lon="6.85866">
        <ele>2121</ele>
        <time>2011-09-10T08:06:44Z</time>
      </trkpt>
      <trkpt lat="44.92826" lon="6.85881">
        <ele>2123</ele>
        <time>2011-09-10T08:07:03Z</time>
      </trkpt>
      <trkpt lat="44.92804" lon="6.85894">
        <ele>2126</ele>
        <time>2011-09-10T08:07:19Z</time>
      </trkpt>
      <trkpt lat="44.92783" lon="6.85908">
        <ele>2129</ele>
        <time>2011-09-10T08:07:39Z</time>
      </trkpt>
      <trkpt lat="44.92765" lon="6.85929">
        <ele>2133</ele>
        <time>2011-09-10T08:07:59Z</time>
      </trkpt>
      <trkpt lat="44.92744" lon="6.85944">
        <ele>2136</ele>
        <time>2011-09-10T08:08:17Z</time>
      </trkpt>
      <trkpt lat="44.92721" lon="6.85948">
        <ele>2137</ele>
        <time>2011-09-10T08:08:36Z</time>
      </trkpt>
      <trkpt lat="44.92699" lon="6.85938">
        <ele>2140</ele>
        <time>2011-09-10T08:08:55Z</time>
      </trkpt>
      <trkpt lat="44.92677" lon="6.85924">
        <ele>2143</ele>
        <time>2011-09-10T08:09:13Z</time>
      </trkpt>
      <trkpt lat="44.92656" lon="6.85907">
        <ele>2147</ele>
        <time>2011-09-10T08:09:34Z</time>
      </trkpt>
      <trkpt lat="44.92633" lon="6.85901">
        <ele>2149</ele>
        <time>2011-09-10T08:09:54Z</time>
      </trkpt>
      <trkpt lat="44.9261" lon="6.85903">
        <ele>2153</ele>
        <time>2011-09-10T08:10:12Z</time>
      </trkpt>
      <trkpt lat="44.92587" lon="6.85901">
        <ele>2156</ele>
        <time>2011-09-10T08:10:32Z</time>
      </trkpt>
      <trkpt lat="44.92563" lon="6.859">
        <ele>2157</ele>
        <time>2011-09-10T08:10:50Z</time>
      </trkpt>
      <trkpt lat="44.92539" lon="6.85894">
        <ele>2160</ele>
        <time>2011-09-10T08:11:10Z</time>
      </trkpt>
      <trkpt lat="44.92517" lon="6.85884">
        <ele>2163</ele>
        <time>2011-09-10T08:11:28Z</time>
      </trkpt>
      <trkpt lat="44.92494" lon="6.85879">
        <ele>2164</ele>
        <time>2011-09-10T08:11:44Z</time>
      </trkpt>
      <trkpt lat="44.9247" lon="6.85887">
        <ele>2165</ele>
        <time>2011-09-10T08:11:58Z</time>
      </trkpt>
      <trkpt lat="44.92447" lon="6.85891">
        <ele>2168</ele>
        <time>2011-09-10T08:12:16Z</time>
      </trkpt>
      <trkpt lat="44.92423" lon="6.859">
        <ele>2171</ele>
        <time>2011-09-10T08:12:38Z</time>
      </trkpt>
      <trkpt lat="44.924" lon="6.85911">
        <ele>2175</ele>
        <time>2011-09-10T08:12:58Z</time>
      </trkpt>
      <trkpt lat="44.92376" lon="6.85908">
        <ele>2175</ele>
        <time>2011-09-10T08:13:15Z</time>
      </trkpt>
      <trkpt lat="44.92353" lon="6.85901">
        <ele>2178</ele>
        <time>2011-09-10T08:13:30Z</time>
      </trkpt>
      <trkpt lat="44.9233" lon="6.85894">
        <ele>2178</ele>
        <time>2011-09-10T08:13:40Z</time>
      </trkpt>
      <trkpt lat="44.92307" lon="6.85882">
        <ele>2180</ele>
        <time>2011-09-10T08:13:57Z</time>
      </trkpt>
      <trkpt lat="44.92283" lon="6.8588">
        <ele>2182</ele>
        <time>2011-09-10T08:14:13Z</time>
      </trkpt>
      <trkpt lat="44.92262" lon="6.85895">
        <ele>2183</ele>
        <time>2011-09-10T08:14:28Z</time>
      </trkpt>
      <trkpt lat="44.92242" lon="6.85912">
        <ele>2185</ele>
        <time>2011-09-10T08:14:41Z</time>
      </trkpt>
      <trkpt lat="44.9222" lon="6.85922">
        <ele>2187</ele>
        <time>2011-09-10T08:14:57Z</time>
      </trkpt>
      <trkpt lat="44.92197" lon="6.85924">
        <ele>2187</ele>
        <time>2011-09-10T08:15:11Z</time>
      </trkpt>
      <trkpt lat="44.92174" lon="6.85923">
        <ele>2190</ele>
        <time>2011-09-10T08:15:29Z</time>
      </trkpt>
      <trkpt lat="44.92153" lon="6.85937">
        <ele>2190</ele>
        <time>2011-09-10T08:15:42Z</time>
      </trkpt>
      <trkpt lat="44.9213" lon="6.85948">
        <ele>2193</ele>
        <time>2011-09-10T08:15:58Z</time>
      </trkpt>
      <trkpt lat="44.92106" lon="6.85947">
        <ele>2194</ele>
        <time>2011-09-10T08:16:14Z</time>
      </trkpt>
      <trkpt lat="44.92083" lon="6.85961">
        <ele>2195</ele>
        <time>2011-09-10T08:16:29Z</time>
      </trkpt>
      <trkpt lat="44.9206" lon="6.85969">
        <ele>2196</ele>
        <time>2011-09-10T08:16:43Z</time>
      </trkpt>
      <trkpt lat="44.92037" lon="6.85975">
        <ele>2198</ele>
        <time>2011-09-10T08:16:58Z</time>
      </trkpt>
      <trkpt lat="44.92013" lon="6.85976">
        <ele>2200</ele>
        <time>2011-09-10T08:17:14Z</time>
      </trkpt>
      <trkpt lat="44.91993" lon="6.85993">
        <ele>2200</ele>
        <time>2011-09-10T08:17:25Z</time>
      </trkpt>
      <trkpt lat="44.92007" lon="6.85965">
        <ele>2205</ele>
        <time>2011-09-10T08:18:05Z</time>
      </trkpt>
      <trkpt lat="44.92029" lon="6.85953">
        <ele>2206</ele>
        <time>2011-09-10T08:18:21Z</time>
      </trkpt>
      <trkpt lat="44.92052" lon="6.85944">
        <ele>2209</ele>
        <time>2011-09-10T08:18:35Z</time>
      </trkpt>
      <trkpt lat="44.92075" lon="6.85934">
        <ele>2211</ele>
        <time>2011-09-10T08:18:55Z</time>
      </trkpt>
      <trkpt lat="44.92094" lon="6.85915">
        <ele>2215</ele>
        <time>2011-09-10T08:19:13Z</time>
      </trkpt>
      <trkpt lat="44.92116" lon="6.85901">
        <ele>2216</ele>
        <time>2011-09-10T08:19:31Z</time>
      </trkpt>
      <trkpt lat="44.92137" lon="6.85888">
        <ele>2219</ele>
        <time>2011-09-10T08:19:50Z</time>
      </trkpt>
      <trkpt lat="44.92156" lon="6.85869">
        <ele>2222</ele>
        <time>2011-09-10T08:20:11Z</time>
      </trkpt>
      <trkpt lat="44.92174" lon="6.85847">
        <ele>2223</ele>
        <time>2011-09-10T08:20:29Z</time>
      </trkpt>
      <trkpt lat="44.92194" lon="6.8583">
        <ele>2227</ele>
        <time>2011-09-10T08:20:48Z</time>
      </trkpt>
      <trkpt lat="44.92214" lon="6.85812">
        <ele>2229</ele>
        <time>2011-09-10T08:21:13Z</time>
      </trkpt>
      <trkpt lat="44.92235" lon="6.85798">
        <ele>2232</ele>
        <time>2011-09-10T08:21:37Z</time>
      </trkpt>
      <trkpt lat="44.92254" lon="6.8578">
        <ele>2235</ele>
        <time>2011-09-10T08:21:55Z</time>
      </trkpt>
      <trkpt lat="44.92275" lon="6.85766">
        <ele>2237</ele>
        <time>2011-09-10T08:22:16Z</time>
      </trkpt>
      <trkpt lat="44.92299" lon="6.85758">
        <ele>2238</ele>
        <time>2011-09-10T08:22:32Z</time>
      </trkpt>
      <trkpt lat="44.92322" lon="6.85752">
        <ele>2239</ele>
        <time>2011-09-10T08:22:50Z</time>
      </trkpt>
      <trkpt lat="44.92346" lon="6.85753">
        <ele>2241</ele>
        <time>2011-09-10T08:23:12Z</time>
      </trkpt>
      <trkpt lat="44.92369" lon="6.85744">
        <ele>2247</ele>
        <time>2011-09-10T08:23:52Z</time>
      </trkpt>
      <trkpt lat="44.92391" lon="6.85733">
        <ele>2249</ele>
        <time>2011-09-10T08:24:12Z</time>
      </trkpt>
      <trkpt lat="44.92412" lon="6.85717">
        <ele>2250</ele>
        <time>2011-09-10T08:24:30Z</time>
      </trkpt>
      <trkpt lat="44.92433" lon="6.85702">
        <ele>2252</ele>
        <time>2011-09-10T08:24:48Z</time>
      </trkpt>
      <trkpt lat="44.92456" lon="6.85698">
        <ele>2255</ele>
        <time>2011-09-10T08:25:09Z</time>
      </trkpt>
      <trkpt lat="44.92481" lon="6.85696">
        <ele>2257</ele>
        <time>2011-09-10T08:25:24Z</time>
      </trkpt>
      <trkpt lat="44.92505" lon="6.85699">
        <ele>2258</ele>
        <time>2011-09-10T08:25:38Z</time>
      </trkpt>
      <trkpt lat="44.92528" lon="6.85705">
        <ele>2261</ele>
        <time>2011-09-10T08:25:57Z</time>
      </trkpt>
      <trkpt lat="44.92549" lon="6.85693">
        <ele>2263</ele>
        <time>2011-09-10T08:26:15Z</time>
      </trkpt>
      <trkpt lat="44.92571" lon="6.85678">
        <ele>2265</ele>
        <time>2011-09-10T08:26:34Z</time>
      </trkpt>
      <trkpt lat="44.92594" lon="6.85666">
        <ele>2267</ele>
        <time>2011-09-10T08:26:51Z</time>
      </trkpt>
      <trkpt lat="44.92616" lon="6.85656">
        <ele>2270</ele>
        <time>2011-09-10T08:27:08Z</time>
      </trkpt>
      <trkpt lat="44.9264" lon="6.85654">
        <ele>2272</ele>
        <time>2011-09-10T08:27:25Z</time>
      </trkpt>
      <trkpt lat="44.92664" lon="6.85653">
        <ele>2274</ele>
        <time>2011-09-10T08:27:42Z</time>
      </trkpt>
      <trkpt lat="44.92642" lon="6.8564">
        <ele>2279</ele>
        <time>2011-09-10T08:28:25Z</time>
      </trkpt>
      <trkpt lat="44.92619" lon="6.85632">
        <ele>2280</ele>
        <time>2011-09-10T08:28:46Z</time>
      </trkpt>
      <trkpt lat="44.92596" lon="6.85629">
        <ele>2283</ele>
        <time>2011-09-10T08:29:04Z</time>
      </trkpt>
      <trkpt lat="44.92573" lon="6.85629">
        <ele>2285</ele>
        <time>2011-09-10T08:29:22Z</time>
      </trkpt>
      <trkpt lat="44.9255" lon="6.85625">
        <ele>2287</ele>
        <time>2011-09-10T08:29:40Z</time>
      </trkpt>
      <trkpt lat="44.92526" lon="6.85627">
        <ele>2289</ele>
        <time>2011-09-10T08:29:55Z</time>
      </trkpt>
      <trkpt lat="44.92546" lon="6.85611">
        <ele>2293</ele>
        <time>2011-09-10T08:30:39Z</time>
      </trkpt>
      <trkpt lat="44.92569" lon="6.85605">
        <ele>2296</ele>
        <time>2011-09-10T08:30:55Z</time>
      </trkpt>
      <trkpt lat="44.92593" lon="6.85598">
        <ele>2299</ele>
        <time>2011-09-10T08:31:15Z</time>
      </trkpt>
      <trkpt lat="44.92616" lon="6.85591">
        <ele>2301</ele>
        <time>2011-09-10T08:31:34Z</time>
      </trkpt>
      <trkpt lat="44.92597" lon="6.8557">
        <ele>2313</ele>
        <time>2011-09-10T08:34:40Z</time>
      </trkpt>
      <trkpt lat="44.92575" lon="6.85561">
        <ele>2321</ele>
        <time>2011-09-10T08:35:18Z</time>
      </trkpt>
      <trkpt lat="44.92552" lon="6.85556">
        <ele>2325</ele>
        <time>2011-09-10T08:35:55Z</time>
      </trkpt>
      <trkpt lat="44.9253" lon="6.85549">
        <ele>2330</ele>
        <time>2011-09-10T08:36:23Z</time>
      </trkpt>
      <trkpt lat="44.92507" lon="6.85541">
        <ele>2337</ele>
        <time>2011-09-10T08:36:58Z</time>
      </trkpt>
      <trkpt lat="44.92484" lon="6.85545">
        <ele>2341</ele>
        <time>2011-09-10T08:37:39Z</time>
      </trkpt>
      <trkpt lat="44.9246" lon="6.8554">
        <ele>2344</ele>
        <time>2011-09-10T08:37:58Z</time>
      </trkpt>
      <trkpt lat="44.92438" lon="6.85529">
        <ele>2347</ele>
        <time>2011-09-10T08:38:18Z</time>
      </trkpt>
      <trkpt lat="44.92416" lon="6.85521">
        <ele>2350</ele>
        <time>2011-09-10T08:38:36Z</time>
      </trkpt>
      <trkpt lat="44.92393" lon="6.85515">
        <ele>2353</ele>
        <time>2011-09-10T08:38:54Z</time>
      </trkpt>
      <trkpt lat="44.92417" lon="6.8552">
        <ele>2350</ele>
        <time>2011-09-10T08:53:26Z</time>
      </trkpt>
      <trkpt lat="44.92441" lon="6.85529">
        <ele>2343</ele>
        <time>2011-09-10T08:53:31Z</time>
      </trkpt>
      <trkpt lat="44.92466" lon="6.85541">
        <ele>2342</ele>
        <time>2011-09-10T08:53:35Z</time>
      </trkpt>
      <trkpt lat="44.92491" lon="6.85543">
        <ele>2340</ele>
        <time>2011-09-10T08:53:40Z</time>
      </trkpt>
      <trkpt lat="44.92468" lon="6.85544">
        <ele>2343</ele>
        <time>2011-09-10T08:54:18Z</time>
      </trkpt>
      <trkpt lat="44.92447" lon="6.85529">
        <ele>2346</ele>
        <time>2011-09-10T08:55:22Z</time>
      </trkpt>
      <trkpt lat="44.92434" lon="6.855">
        <ele>2343</ele>
        <time>2011-09-10T08:55:35Z</time>
      </trkpt>
      <trkpt lat="44.92424" lon="6.8547">
        <ele>2341</ele>
        <time>2011-09-10T08:55:40Z</time>
      </trkpt>
      <trkpt lat="44.92446" lon="6.85449">
        <ele>2332</ele>
        <time>2011-09-10T08:55:49Z</time>
      </trkpt>
      <trkpt lat="44.9247" lon="6.85445">
        <ele>2328</ele>
        <time>2011-09-10T08:55:53Z</time>
      </trkpt>
      <trkpt lat="44.92466" lon="6.85412">
        <ele>2321</ele>
        <time>2011-09-10T08:56:02Z</time>
      </trkpt>
      <trkpt lat="44.92454" lon="6.85379">
        <ele>2313</ele>
        <time>2011-09-10T08:56:24Z</time>
      </trkpt>
      <trkpt lat="44.92438" lon="6.85351">
        <ele>2310</ele>
        <time>2011-09-10T08:56:29Z</time>
      </trkpt>
      <trkpt lat="44.92458" lon="6.85325">
        <ele>2301</ele>
        <time>2011-09-10T08:56:39Z</time>
      </trkpt>
      <trkpt lat="44.92465" lon="6.85291">
        <ele>2292</ele>
        <time>2011-09-10T08:56:51Z</time>
      </trkpt>
      <trkpt lat="44.92449" lon="6.85264">
        <ele>2287</ele>
        <time>2011-09-10T08:56:57Z</time>
      </trkpt>
      <trkpt lat="44.92431" lon="6.85241">
        <ele>2283</ele>
        <time>2011-09-10T08:57:03Z</time>
      </trkpt>
      <trkpt lat="44.92415" lon="6.85217">
        <ele>2278</ele>
        <time>2011-09-10T08:57:09Z</time>
      </trkpt>
      <trkpt lat="44.92397" lon="6.85194">
        <ele>2276</ele>
        <time>2011-09-10T08:57:17Z</time>
      </trkpt>
      <trkpt lat="44.92403" lon="6.85162">
        <ele>2265</ele>
        <time>2011-09-10T08:57:36Z</time>
      </trkpt>
      <trkpt lat="44.92387" lon="6.85139">
        <ele>2261</ele>
        <time>2011-09-10T08:57:45Z</time>
      </trkpt>
      <trkpt lat="44.92408" lon="6.85118">
        <ele>2252</ele>
        <time>2011-09-10T08:57:59Z</time>
      </trkpt>
      <trkpt lat="44.9242" lon="6.85089">
        <ele>2241</ele>
        <time>2011-09-10T08:58:10Z</time>
      </trkpt>
      <trkpt lat="44.9244" lon="6.85067">
        <ele>2232</ele>
        <time>2011-09-10T08:58:31Z</time>
      </trkpt>
      <trkpt lat="44.92428" lon="6.85039">
        <ele>2225</ele>
        <time>2011-09-10T08:59:49Z</time>
      </trkpt>
      <trkpt lat="44.92405" lon="6.85028">
        <ele>2216</ele>
        <time>2011-09-10T09:00:06Z</time>
      </trkpt>
      <trkpt lat="44.92383" lon="6.85018">
        <ele>2210</ele>
        <time>2011-09-10T09:00:15Z</time>
      </trkpt>
      <trkpt lat="44.92351" lon="6.85016">
        <ele>2201</ele>
        <time>2011-09-10T09:00:34Z</time>
      </trkpt>
      <trkpt lat="44.92329" lon="6.85008">
        <ele>2198</ele>
        <time>2011-09-10T09:00:43Z</time>
      </trkpt>
      <trkpt lat="44.92303" lon="6.85012">
        <ele>2190</ele>
        <time>2011-09-10T09:01:25Z</time>
      </trkpt>
      <trkpt lat="44.92278" lon="6.85022">
        <ele>2183</ele>
        <time>2011-09-10T09:01:31Z</time>
      </trkpt>
      <trkpt lat="44.92272" lon="6.8499">
        <ele>2175</ele>
        <time>2011-09-10T09:01:50Z</time>
      </trkpt>
      <trkpt lat="44.92249" lon="6.84975">
        <ele>2170</ele>
        <time>2011-09-10T09:01:56Z</time>
      </trkpt>
      <trkpt lat="44.92229" lon="6.84952">
        <ele>2166</ele>
        <time>2011-09-10T09:02:04Z</time>
      </trkpt>
      <trkpt lat="44.9223" lon="6.84918">
        <ele>2161</ele>
        <time>2011-09-10T09:02:12Z</time>
      </trkpt>
      <trkpt lat="44.92241" lon="6.84889">
        <ele>2156</ele>
        <time>2011-09-10T09:02:20Z</time>
      </trkpt>
      <trkpt lat="44.92237" lon="6.84855">
        <ele>2149</ele>
        <time>2011-09-10T09:02:28Z</time>
      </trkpt>
      <trkpt lat="44.92213" lon="6.84844">
        <ele>2146</ele>
        <time>2011-09-10T09:02:37Z</time>
      </trkpt>
      <trkpt lat="44.92188" lon="6.84837">
        <ele>2140</ele>
        <time>2011-09-10T09:02:49Z</time>
      </trkpt>
      <trkpt lat="44.92165" lon="6.84851">
        <ele>2134</ele>
        <time>2011-09-10T09:02:58Z</time>
      </trkpt>
      <trkpt lat="44.92141" lon="6.84846">
        <ele>2131</ele>
        <time>2011-09-10T09:03:05Z</time>
      </trkpt>
      <trkpt lat="44.92118" lon="6.84842">
        <ele>2149.6</ele>
        <time>2011-09-10T09:03:13Z</time>
      </trkpt>
      <trkpt lat="44.92095" lon="6.84858">
        <ele>2122</ele>
        <time>2011-09-10T09:03:22Z</time>
      </trkpt>
      <trkpt lat="44.92072" lon="6.84868">
        <ele>2118</ele>
        <time>2011-09-10T09:03:28Z</time>
      </trkpt>
      <trkpt lat="44.92055" lon="6.84838">
        <ele>2112</ele>
        <time>2011-09-10T09:03:34Z</time>
      </trkpt>
      <trkpt lat="44.92045" lon="6.84805">
        <ele>2107</ele>
        <time>2011-09-10T09:03:41Z</time>
      </trkpt>
      <trkpt lat="44.92028" lon="6.84776">
        <ele>2102</ele>
        <time>2011-09-10T09:03:50Z</time>
      </trkpt>
      <trkpt lat="44.92017" lon="6.84746">
        <ele>2095</ele>
        <time>2011-09-10T09:03:58Z</time>
      </trkpt>
      <trkpt lat="44.92033" lon="6.84716">
        <ele>2092</ele>
        <time>2011-09-10T09:04:05Z</time>
      </trkpt>
      <trkpt lat="44.92048" lon="6.84685">
        <ele>2087</ele>
        <time>2011-09-10T09:04:12Z</time>
      </trkpt>
      <trkpt lat="44.92069" lon="6.84672">
        <ele>2083</ele>
        <time>2011-09-10T09:04:20Z</time>
      </trkpt>
      <trkpt lat="44.92095" lon="6.84661">
        <ele>2078</ele>
        <time>2011-09-10T09:04:26Z</time>
      </trkpt>
      <trkpt lat="44.92106" lon="6.84624">
        <ele>2075</ele>
        <time>2011-09-10T09:04:31Z</time>
      </trkpt>
      <trkpt lat="44.9211" lon="6.84592">
        <ele>2075</ele>
        <time>2011-09-10T09:04:35Z</time>
      </trkpt>
      <trkpt lat="44.92122" lon="6.84563">
        <ele>2071</ele>
        <time>2011-09-10T09:04:42Z</time>
      </trkpt>
      <trkpt lat="44.92122" lon="6.8453">
        <ele>2070</ele>
        <time>2011-09-10T09:04:48Z</time>
      </trkpt>
      <trkpt lat="44.92126" lon="6.84496">
        <ele>2065</ele>
        <time>2011-09-10T09:04:57Z</time>
      </trkpt>
      <trkpt lat="44.92135" lon="6.84466">
        <ele>2084.8</ele>
        <time>2011-09-10T09:05:03Z</time>
      </trkpt>
      <trkpt lat="44.9214" lon="6.84429">
        <ele>2056</ele>
        <time>2011-09-10T09:05:15Z</time>
      </trkpt>
      <trkpt lat="44.92168" lon="6.84384">
        <ele>2048</ele>
        <time>2011-09-10T09:05:27Z</time>
      </trkpt>
      <trkpt lat="44.92248" lon="6.84203">
        <ele>2012</ele>
        <time>2011-09-10T09:06:17Z</time>
      </trkpt>
      <trkpt lat="44.92245" lon="6.8417">
        <ele>2012</ele>
        <time>2011-09-10T09:06:23Z</time>
      </trkpt>
      <trkpt lat="44.92255" lon="6.8414">
        <ele>2006</ele>
        <time>2011-09-10T09:07:34Z</time>
      </trkpt>
      <trkpt lat="44.92262" lon="6.84105">
        <ele>2002</ele>
        <time>2011-09-10T09:07:39Z</time>
      </trkpt>
      <trkpt lat="44.92254" lon="6.8407">
        <ele>1996</ele>
        <time>2011-09-10T09:07:46Z</time>
      </trkpt>
      <trkpt lat="44.9225" lon="6.84036">
        <ele>1988</ele>
        <time>2011-09-10T09:07:54Z</time>
      </trkpt>
      <trkpt lat="44.92251" lon="6.84">
        <ele>1983</ele>
        <time>2011-09-10T09:08:01Z</time>
      </trkpt>
      <trkpt lat="44.92253" lon="6.83965">
        <ele>1979</ele>
        <time>2011-09-10T09:08:06Z</time>
      </trkpt>
      <trkpt lat="44.92239" lon="6.8394">
        <ele>1976</ele>
        <time>2011-09-10T09:08:30Z</time>
      </trkpt>
      <trkpt lat="44.9222" lon="6.83913">
        <ele>1969</ele>
        <time>2011-09-10T09:08:36Z</time>
      </trkpt>
      <trkpt lat="44.92203" lon="6.83889">
        <ele>1967</ele>
        <time>2011-09-10T09:08:40Z</time>
      </trkpt>
      <trkpt lat="44.92187" lon="6.83865">
        <ele>1964</ele>
        <time>2011-09-10T09:08:44Z</time>
      </trkpt>
      <trkpt lat="44.92168" lon="6.83842">
        <ele>1962</ele>
        <time>2011-09-10T09:08:50Z</time>
      </trkpt>
      <trkpt lat="44.92151" lon="6.83817">
        <ele>1952</ele>
        <time>2011-09-10T09:08:59Z</time>
      </trkpt>
      <trkpt lat="44.9213" lon="6.83795">
        <ele>1941</ele>
        <time>2011-09-10T09:09:08Z</time>
      </trkpt>
      <trkpt lat="44.92113" lon="6.83769">
        <ele>1935</ele>
        <time>2011-09-10T09:09:37Z</time>
      </trkpt>
      <trkpt lat="44.92118" lon="6.83731">
        <ele>1931</ele>
        <time>2011-09-10T09:09:44Z</time>
      </trkpt>
      <trkpt lat="44.92115" lon="6.83692">
        <ele>1944.4</ele>
        <time>2011-09-10T09:09:49Z</time>
      </trkpt>
      <trkpt lat="44.92111" lon="6.83655">
        <ele>1915</ele>
        <time>2011-09-10T09:09:55Z</time>
      </trkpt>
      <trkpt lat="44.92099" lon="6.83621">
        <ele>1907</ele>
        <time>2011-09-10T09:10:01Z</time>
      </trkpt>
      <trkpt lat="44.92094" lon="6.83588">
        <ele>1899</ele>
        <time>2011-09-10T09:10:07Z</time>
      </trkpt>
      <trkpt lat="44.92104" lon="6.83551">
        <ele>1890</ele>
        <time>2011-09-10T09:10:12Z</time>
      </trkpt>
      <trkpt lat="44.92111" lon="6.83518">
        <ele>1887</ele>
        <time>2011-09-10T09:10:16Z</time>
      </trkpt>
      <trkpt lat="44.9211" lon="6.83483">
        <ele>1884</ele>
        <time>2011-09-10T09:10:20Z</time>
      </trkpt>
      <trkpt lat="44.92097" lon="6.83453">
        <ele>1881</ele>
        <time>2011-09-10T09:10:25Z</time>
      </trkpt>
      <trkpt lat="44.92093" lon="6.8342">
        <ele>1873</ele>
        <time>2011-09-10T09:10:36Z</time>
      </trkpt>
      <trkpt lat="44.92104" lon="6.83391">
        <ele>1866</ele>
        <time>2011-09-10T09:10:44Z</time>
      </trkpt>
      <trkpt lat="44.92113" lon="6.83358">
        <ele>1859</ele>
        <time>2011-09-10T09:10:50Z</time>
      </trkpt>
      <trkpt lat="44.92125" lon="6.8333">
        <ele>1852</ele>
        <time>2011-09-10T09:10:57Z</time>
      </trkpt>
      <trkpt lat="44.92137" lon="6.83298">
        <ele>1846</ele>
        <time>2011-09-10T09:11:04Z</time>
      </trkpt>
      <trkpt lat="44.92146" lon="6.83268">
        <ele>1841</ele>
        <time>2011-09-10T09:11:10Z</time>
      </trkpt>
      <trkpt lat="44.92148" lon="6.83235">
        <ele>1836</ele>
        <time>2011-09-10T09:11:16Z</time>
      </trkpt>
      <trkpt lat="44.92165" lon="6.83211">
        <ele>1828</ele>
        <time>2011-09-10T09:11:25Z</time>
      </trkpt>
      <trkpt lat="44.92163" lon="6.83178">
        <ele>1818</ele>
        <time>2011-09-10T09:11:35Z</time>
      </trkpt>
      <trkpt lat="44.92157" lon="6.83144">
        <ele>1805</ele>
        <time>2011-09-10T09:11:47Z</time>
      </trkpt>
      <trkpt lat="44.92171" lon="6.83111">
        <ele>1798</ele>
        <time>2011-09-10T09:11:53Z</time>
      </trkpt>
      <trkpt lat="44.92177" lon="6.83075">
        <ele>1789</ele>
        <time>2011-09-10T09:11:59Z</time>
      </trkpt>
      <trkpt lat="44.92167" lon="6.83043">
        <ele>1784</ele>
        <time>2011-09-10T09:12:07Z</time>
      </trkpt>
      <trkpt lat="44.92162" lon="6.83011">
        <ele>1777</ele>
        <time>2011-09-10T09:12:17Z</time>
      </trkpt>
      <trkpt lat="44.92143" lon="6.82991">
        <ele>1765</ele>
        <time>2011-09-10T09:13:59Z</time>
      </trkpt>
      <trkpt lat="44.92122" lon="6.82975">
        <ele>1760</ele>
        <time>2011-09-10T09:14:10Z</time>
      </trkpt>
      <trkpt lat="44.921" lon="6.82954">
        <ele>1754</ele>
        <time>2011-09-10T09:14:16Z</time>
      </trkpt>
      <trkpt lat="44.9209" lon="6.82922">
        <ele>1746</ele>
        <time>2011-09-10T09:14:22Z</time>
      </trkpt>
      <trkpt lat="44.9207" lon="6.82897">
        <ele>1740</ele>
        <time>2011-09-10T09:14:26Z</time>
      </trkpt>
      <trkpt lat="44.92053" lon="6.8287">
        <ele>1736</ele>
        <time>2011-09-10T09:14:30Z</time>
      </trkpt>
      <trkpt lat="44.92033" lon="6.82845">
        <ele>1731</ele>
        <time>2011-09-10T09:14:35Z</time>
      </trkpt>
      <trkpt lat="44.9201" lon="6.82832">
        <ele>1723</ele>
        <time>2011-09-10T09:14:41Z</time>
      </trkpt>
      <trkpt lat="44.91984" lon="6.82829">
        <ele>1716</ele>
        <time>2011-09-10T09:14:48Z</time>
      </trkpt>
      <trkpt lat="44.9196" lon="6.82825">
        <ele>1709</ele>
        <time>2011-09-10T09:14:54Z</time>
      </trkpt>
      <trkpt lat="44.91936" lon="6.82813">
        <ele>1704</ele>
        <time>2011-09-10T09:15:00Z</time>
      </trkpt>
      <trkpt lat="44.91913" lon="6.82792">
        <ele>1695</ele>
        <time>2011-09-10T09:15:06Z</time>
      </trkpt>
      <trkpt lat="44.91894" lon="6.82773">
        <ele>1692</ele>
        <time>2011-09-10T09:15:11Z</time>
      </trkpt>
      <trkpt lat="44.91875" lon="6.82753">
        <ele>1690</ele>
        <time>2011-09-10T09:17:06Z</time>
      </trkpt>
      <trkpt lat="44.9185" lon="6.82755">
        <ele>1692</ele>
        <time>2011-09-10T09:17:43Z</time>
      </trkpt>
      <trkpt lat="44.91827" lon="6.82762">
        <ele>1695</ele>
        <time>2011-09-10T09:17:59Z</time>
      </trkpt>
      <trkpt lat="44.91804" lon="6.82772">
        <ele>1698</ele>
        <time>2011-09-10T09:18:16Z</time>
      </trkpt>
      <trkpt lat="44.91788" lon="6.82798">
        <ele>1700</ele>
        <time>2011-09-10T09:18:34Z</time>
      </trkpt>
      <trkpt lat="44.91771" lon="6.82821">
        <ele>1703</ele>
        <time>2011-09-10T09:18:49Z</time>
      </trkpt>
      <trkpt lat="44.91754" lon="6.82845">
        <ele>1704</ele>
        <time>2011-09-10T09:19:02Z</time>
      </trkpt>
      <trkpt lat="44.91738" lon="6.82868">
        <ele>1706</ele>
        <time>2011-09-10T09:19:16Z</time>
      </trkpt>
      <trkpt lat="44.91714" lon="6.82877">
        <ele>1709</ele>
        <time>2011-09-10T09:19:31Z</time>
      </trkpt>
      <trkpt lat="44.91693" lon="6.8289">
        <ele>1714</ele>
        <time>2011-09-10T09:19:48Z</time>
      </trkpt>
      <trkpt lat="44.91675" lon="6.82913">
        <ele>1717</ele>
        <time>2011-09-10T09:20:05Z</time>
      </trkpt>
      <trkpt lat="44.91654" lon="6.82927">
        <ele>1719</ele>
        <time>2011-09-10T09:20:21Z</time>
      </trkpt>
      <trkpt lat="44.91632" lon="6.82937">
        <ele>1721</ele>
        <time>2011-09-10T09:20:36Z</time>
      </trkpt>
      <trkpt lat="44.91613" lon="6.82957">
        <ele>1724</ele>
        <time>2011-09-10T09:20:51Z</time>
      </trkpt>
      <trkpt lat="44.91598" lon="6.82982">
        <ele>1725</ele>
        <time>2011-09-10T09:21:04Z</time>
      </trkpt>
      <trkpt lat="44.91583" lon="6.83008">
        <ele>1727</ele>
        <time>2011-09-10T09:21:38Z</time>
      </trkpt>
      <trkpt lat="44.91568" lon="6.83033">
        <ele>1730</ele>
        <time>2011-09-10T09:21:52Z</time>
      </trkpt>
      <trkpt lat="44.91554" lon="6.83062">
        <ele>1733</ele>
        <time>2011-09-10T09:22:08Z</time>
      </trkpt>
      <trkpt lat="44.91535" lon="6.8308">
        <ele>1736</ele>
        <time>2011-09-10T09:22:22Z</time>
      </trkpt>
      <trkpt lat="44.91515" lon="6.83097">
        <ele>1736</ele>
        <time>2011-09-10T09:24:31Z</time>
      </trkpt>
      <trkpt lat="44.91491" lon="6.83106">
        <ele>1735</ele>
        <time>2011-09-10T09:24:44Z</time>
      </trkpt>
      <trkpt lat="44.91468" lon="6.83116">
        <ele>1736</ele>
        <time>2011-09-10T09:24:53Z</time>
      </trkpt>
      <trkpt lat="44.91445" lon="6.83127">
        <ele>1736</ele>
        <time>2011-09-10T09:25:02Z</time>
      </trkpt>
      <trkpt lat="44.91424" lon="6.83138">
        <ele>1736</ele>
        <time>2011-09-10T09:25:09Z</time>
      </trkpt>
      <trkpt lat="44.914" lon="6.8315">
        <ele>1737</ele>
        <time>2011-09-10T09:25:17Z</time>
      </trkpt>
      <trkpt lat="44.91378" lon="6.83168">
        <ele>1738</ele>
        <time>2011-09-10T09:25:27Z</time>
      </trkpt>
      <trkpt lat="44.91359" lon="6.83194">
        <ele>1737</ele>
        <time>2011-09-10T09:25:36Z</time>
      </trkpt>
      <trkpt lat="44.91339" lon="6.8321">
        <ele>1736</ele>
        <time>2011-09-10T09:25:41Z</time>
      </trkpt>
      <trkpt lat="44.91324" lon="6.83237">
        <ele>1733</ele>
        <time>2011-09-10T09:25:45Z</time>
      </trkpt>
      <trkpt lat="44.91306" lon="6.83271">
        <ele>1731</ele>
        <time>2011-09-10T09:25:49Z</time>
      </trkpt>
      <trkpt lat="44.91287" lon="6.83292">
        <ele>1733</ele>
        <time>2011-09-10T09:25:53Z</time>
      </trkpt>
      <trkpt lat="44.91273" lon="6.83318">
        <ele>1735</ele>
        <time>2011-09-10T09:26:00Z</time>
      </trkpt>
      <trkpt lat="44.91253" lon="6.83339">
        <ele>1738</ele>
        <time>2011-09-10T09:26:12Z</time>
      </trkpt>
      <trkpt lat="44.9123" lon="6.83338">
        <ele>1735</ele>
        <time>2011-09-10T09:26:20Z</time>
      </trkpt>
      <trkpt lat="44.91207" lon="6.83327">
        <ele>1736</ele>
        <time>2011-09-10T09:26:26Z</time>
      </trkpt>
      <trkpt lat="44.91184" lon="6.83325">
        <ele>1735</ele>
        <time>2011-09-10T09:26:36Z</time>
      </trkpt>
      <trkpt lat="44.9116" lon="6.83311">
        <ele>1733</ele>
        <time>2011-09-10T09:26:45Z</time>
      </trkpt>
      <trkpt lat="44.91134" lon="6.83296">
        <ele>1732</ele>
        <time>2011-09-10T09:26:51Z</time>
      </trkpt>
      <trkpt lat="44.9111" lon="6.83298">
        <ele>1727</ele>
        <time>2011-09-10T09:26:55Z</time>
      </trkpt>
      <trkpt lat="44.91082" lon="6.83307">
        <ele>1725</ele>
        <time>2011-09-10T09:26:59Z</time>
      </trkpt>
      <trkpt lat="44.91059" lon="6.83322">
        <ele>1724</ele>
        <time>2011-09-10T09:27:03Z</time>
      </trkpt>
      <trkpt lat="44.91037" lon="6.83336">
        <ele>1720</ele>
        <time>2011-09-10T09:27:07Z</time>
      </trkpt>
      <trkpt lat="44.91012" lon="6.83352">
        <ele>1718</ele>
        <time>2011-09-10T09:27:13Z</time>
      </trkpt>
      <trkpt lat="44.90986" lon="6.83358">
        <ele>1718</ele>
        <time>2011-09-10T09:27:18Z</time>
      </trkpt>
      <trkpt lat="44.90961" lon="6.83348">
        <ele>1714</ele>
        <time>2011-09-10T09:27:24Z</time>
      </trkpt>
      <trkpt lat="44.90933" lon="6.83344">
        <ele>1714</ele>
        <time>2011-09-10T09:27:28Z</time>
      </trkpt>
      <trkpt lat="44.90911" lon="6.83353">
        <ele>1714</ele>
        <time>2011-09-10T09:27:33Z</time>
      </trkpt>
      <trkpt lat="44.9089" lon="6.83369">
        <ele>1713</ele>
        <time>2011-09-10T09:27:40Z</time>
      </trkpt>
      <trkpt lat="44.90875" lon="6.83399">
        <ele>1710</ele>
        <time>2011-09-10T09:27:46Z</time>
      </trkpt>
      <trkpt lat="44.90863" lon="6.83429">
        <ele>1706</ele>
        <time>2011-09-10T09:27:50Z</time>
      </trkpt>
      <trkpt lat="44.90846" lon="6.83463">
        <ele>1700</ele>
        <time>2011-09-10T09:27:55Z</time>
      </trkpt>
      <trkpt lat="44.90832" lon="6.83496">
        <ele>1700</ele>
        <time>2011-09-10T09:28:00Z</time>
      </trkpt>
      <trkpt lat="44.90811" lon="6.83514">
        <ele>1698</ele>
        <time>2011-09-10T09:28:04Z</time>
      </trkpt>
      <trkpt lat="44.90789" lon="6.83533">
        <ele>1696</ele>
        <time>2011-09-10T09:28:08Z</time>
      </trkpt>
      <trkpt lat="44.90769" lon="6.83553">
        <ele>1697</ele>
        <time>2011-09-10T09:28:14Z</time>
      </trkpt>
      <trkpt lat="44.90754" lon="6.83583">
        <ele>1693</ele>
        <time>2011-09-10T09:28:22Z</time>
      </trkpt>
      <trkpt lat="44.9074" lon="6.83611">
        <ele>1689</ele>
        <time>2011-09-10T09:28:28Z</time>
      </trkpt>
      <trkpt lat="44.90744" lon="6.83645">
        <ele>1686</ele>
        <time>2011-09-10T09:28:32Z</time>
      </trkpt>
      <trkpt lat="44.90758" lon="6.8368">
        <ele>1682</ele>
        <time>2011-09-10T09:28:36Z</time>
      </trkpt>
      <trkpt lat="44.90765" lon="6.83712">
        <ele>1680</ele>
        <time>2011-09-10T09:28:40Z</time>
      </trkpt>
      <trkpt lat="44.90742" lon="6.83709">
        <ele>1675</ele>
        <time>2011-09-10T09:28:54Z</time>
      </trkpt>
      <trkpt lat="44.90722" lon="6.83687">
        <ele>1671</ele>
        <time>2011-09-10T09:28:58Z</time>
      </trkpt>
      <trkpt lat="44.90705" lon="6.83665">
        <ele>1670</ele>
        <time>2011-09-10T09:29:02Z</time>
      </trkpt>
      <trkpt lat="44.9069" lon="6.83633">
        <ele>1666</ele>
        <time>2011-09-10T09:29:07Z</time>
      </trkpt>
      <trkpt lat="44.90679" lon="6.83604">
        <ele>1663</ele>
        <time>2011-09-10T09:29:12Z</time>
      </trkpt>
      <trkpt lat="44.90675" lon="6.83569">
        <ele>1659</ele>
        <time>2011-09-10T09:29:17Z</time>
      </trkpt>
      <trkpt lat="44.90667" lon="6.83538">
        <ele>1657</ele>
        <time>2011-09-10T09:29:21Z</time>
      </trkpt>
      <trkpt lat="44.9066" lon="6.83501">
        <ele>1653</ele>
        <time>2011-09-10T09:29:25Z</time>
      </trkpt>
      <trkpt lat="44.90654" lon="6.83467">
        <ele>1653</ele>
        <time>2011-09-10T09:29:30Z</time>
      </trkpt>
      <trkpt lat="44.90648" lon="6.8343">
        <ele>1647</ele>
        <time>2011-09-10T09:29:36Z</time>
      </trkpt>
      <trkpt lat="44.90645" lon="6.83392">
        <ele>1644</ele>
        <time>2011-09-10T09:29:41Z</time>
      </trkpt>
      <trkpt lat="44.90629" lon="6.83367">
        <ele>1645</ele>
        <time>2011-09-10T09:29:51Z</time>
      </trkpt>
      <trkpt lat="44.90613" lon="6.83342">
        <ele>1644</ele>
        <time>2011-09-10T09:30:07Z</time>
      </trkpt>
      <trkpt lat="44.90608" lon="6.83309">
        <ele>1643</ele>
        <time>2011-09-10T09:30:17Z</time>
      </trkpt>
      <trkpt lat="44.9061" lon="6.83274">
        <ele>1642</ele>
        <time>2011-09-10T09:30:38Z</time>
      </trkpt>
      <trkpt lat="44.90614" lon="6.83243">
        <ele>1643</ele>
        <time>2011-09-10T09:30:46Z</time>
      </trkpt>
      <trkpt lat="44.90621" lon="6.8321">
        <ele>1646</ele>
        <time>2011-09-10T09:31:03Z</time>
      </trkpt>
      <trkpt lat="44.90627" lon="6.83178">
        <ele>1649</ele>
        <time>2011-09-10T09:31:25Z</time>
      </trkpt>
      <trkpt lat="44.90637" lon="6.83148">
        <ele>1653</ele>
        <time>2011-09-10T09:31:46Z</time>
      </trkpt>
      <trkpt lat="44.90652" lon="6.83124">
        <ele>1656</ele>
        <time>2011-09-10T09:32:08Z</time>
      </trkpt>
      <trkpt lat="44.90675" lon="6.83113">
        <ele>1660</ele>
        <time>2011-09-10T09:32:31Z</time>
      </trkpt>
      <trkpt lat="44.90695" lon="6.83096">
        <ele>1663</ele>
        <time>2011-09-10T09:32:50Z</time>
      </trkpt>
      <trkpt lat="44.90707" lon="6.83067">
        <ele>1664</ele>
        <time>2011-09-10T09:33:04Z</time>
      </trkpt>
      <trkpt lat="44.9072" lon="6.83039">
        <ele>1665</ele>
        <time>2011-09-10T09:33:16Z</time>
      </trkpt>
      <trkpt lat="44.90724" lon="6.83006">
        <ele>1666</ele>
        <time>2011-09-10T09:33:25Z</time>
      </trkpt>
      <trkpt lat="44.90702" lon="6.83018">
        <ele>1671</ele>
        <time>2011-09-10T09:33:49Z</time>
      </trkpt>
      <trkpt lat="44.90679" lon="6.83022">
        <ele>1676</ele>
        <time>2011-09-10T09:34:17Z</time>
      </trkpt>
      <trkpt lat="44.90657" lon="6.83033">
        <ele>1680</ele>
        <time>2011-09-10T09:34:43Z</time>
      </trkpt>
      <trkpt lat="44.90635" lon="6.83039">
        <ele>1684</ele>
        <time>2011-09-10T09:35:09Z</time>
      </trkpt>
      <trkpt lat="44.90633" lon="6.83006">
        <ele>1692</ele>
        <time>2011-09-10T09:36:22Z</time>
      </trkpt>
      <trkpt lat="44.90646" lon="6.82979">
        <ele>1696</ele>
        <time>2011-09-10T09:36:45Z</time>
      </trkpt>
      <trkpt lat="44.90659" lon="6.82949">
        <ele>1698</ele>
        <time>2011-09-10T09:37:01Z</time>
      </trkpt>
      <trkpt lat="44.90673" lon="6.82924">
        <ele>1699</ele>
        <time>2011-09-10T09:37:14Z</time>
      </trkpt>
      <trkpt lat="44.90692" lon="6.82903">
        <ele>1702</ele>
        <time>2011-09-10T09:37:32Z</time>
      </trkpt>
      <trkpt lat="44.90673" lon="6.82884">
        <ele>1708</ele>
        <time>2011-09-10T09:38:13Z</time>
      </trkpt>
      <trkpt lat="44.9065" lon="6.8288">
        <ele>1715</ele>
        <time>2011-09-10T09:38:50Z</time>
      </trkpt>
      <trkpt lat="44.90633" lon="6.82902">
        <ele>1721</ele>
        <time>2011-09-10T09:39:25Z</time>
      </trkpt>
      <trkpt lat="44.90609" lon="6.82905">
        <ele>1728</ele>
        <time>2011-09-10T09:39:59Z</time>
      </trkpt>
      <trkpt lat="44.90586" lon="6.82908">
        <ele>1731</ele>
        <time>2011-09-10T09:40:28Z</time>
      </trkpt>
      <trkpt lat="44.90572" lon="6.82881">
        <ele>1739</ele>
        <time>2011-09-10T09:41:17Z</time>
      </trkpt>
      <trkpt lat="44.90577" lon="6.82848">
        <ele>1743</ele>
        <time>2011-09-10T09:41:41Z</time>
      </trkpt>
      <trkpt lat="44.90586" lon="6.82818">
        <ele>1747</ele>
        <time>2011-09-10T09:42:06Z</time>
      </trkpt>
      <trkpt lat="44.90602" lon="6.82794">
        <ele>1751</ele>
        <time>2011-09-10T09:42:28Z</time>
      </trkpt>
      <trkpt lat="44.90621" lon="6.82775">
        <ele>1756</ele>
        <time>2011-09-10T09:42:55Z</time>
      </trkpt>
      <trkpt lat="44.90642" lon="6.8276">
        <ele>1759</ele>
        <time>2011-09-10T09:43:17Z</time>
      </trkpt>
      <trkpt lat="44.90631" lon="6.82732">
        <ele>1765</ele>
        <time>2011-09-10T09:43:50Z</time>
      </trkpt>
      <trkpt lat="44.90607" lon="6.82731">
        <ele>1770</ele>
        <time>2011-09-10T09:44:17Z</time>
      </trkpt>
      <trkpt lat="44.90584" lon="6.82725">
        <ele>1775</ele>
        <time>2011-09-10T09:44:42Z</time>
      </trkpt>
      <trkpt lat="44.90562" lon="6.82714">
        <ele>1779</ele>
        <time>2011-09-10T09:45:12Z</time>
      </trkpt>
      <trkpt lat="44.9054" lon="6.82727">
        <ele>1782</ele>
        <time>2011-09-10T09:45:34Z</time>
      </trkpt>
      <trkpt lat="44.90516" lon="6.8273">
        <ele>1786</ele>
        <time>2011-09-10T09:45:58Z</time>
      </trkpt>
      <trkpt lat="44.90494" lon="6.82743">
        <ele>1790</ele>
        <time>2011-09-10T09:46:22Z</time>
      </trkpt>
      <trkpt lat="44.9047" lon="6.82744">
        <ele>1794</ele>
        <time>2011-09-10T09:46:46Z</time>
      </trkpt>
      <trkpt lat="44.90448" lon="6.82756">
        <ele>1798</ele>
        <time>2011-09-10T09:47:08Z</time>
      </trkpt>
      <trkpt lat="44.90425" lon="6.82754">
        <ele>1800</ele>
        <time>2011-09-10T09:47:27Z</time>
      </trkpt>
      <trkpt lat="44.90406" lon="6.82733">
        <ele>1802</ele>
        <time>2011-09-10T09:47:43Z</time>
      </trkpt>
      <trkpt lat="44.90392" lon="6.82706">
        <ele>1802</ele>
        <time>2011-09-10T09:47:56Z</time>
      </trkpt>
      <trkpt lat="44.90368" lon="6.82702">
        <ele>1805</ele>
        <time>2011-09-10T09:48:13Z</time>
      </trkpt>
      <trkpt lat="44.90345" lon="6.82711">
        <ele>1808</ele>
        <time>2011-09-10T09:48:29Z</time>
      </trkpt>
      <trkpt lat="44.90325" lon="6.82728">
        <ele>1812</ele>
        <time>2011-09-10T09:48:52Z</time>
      </trkpt>
      <trkpt lat="44.90306" lon="6.82747">
        <ele>1815</ele>
        <time>2011-09-10T09:49:22Z</time>
      </trkpt>
      <trkpt lat="44.90287" lon="6.82767">
        <ele>1820</ele>
        <time>2011-09-10T09:49:51Z</time>
      </trkpt>
      <trkpt lat="44.90265" lon="6.82781">
        <ele>1824</ele>
        <time>2011-09-10T09:50:21Z</time>
      </trkpt>
      <trkpt lat="44.90242" lon="6.82784">
        <ele>1828</ele>
        <time>2011-09-10T09:50:44Z</time>
      </trkpt>
      <trkpt lat="44.90219" lon="6.82779">
        <ele>1830</ele>
        <time>2011-09-10T09:51:05Z</time>
      </trkpt>
      <trkpt lat="44.90195" lon="6.82783">
        <ele>1832</ele>
        <time>2011-09-10T09:51:24Z</time>
      </trkpt>
      <trkpt lat="44.90172" lon="6.82781">
        <ele>1835</ele>
        <time>2011-09-10T09:51:44Z</time>
      </trkpt>
      <trkpt lat="44.90191" lon="6.82762">
        <ele>1837</ele>
        <time>2011-09-10T09:52:08Z</time>
      </trkpt>
      <trkpt lat="44.90214" lon="6.82759">
        <ele>1838</ele>
        <time>2011-09-10T09:52:21Z</time>
      </trkpt>
      <trkpt lat="44.90236" lon="6.82747">
        <ele>1838</ele>
        <time>2011-09-10T09:52:33Z</time>
      </trkpt>
      <trkpt lat="44.90254" lon="6.82725">
        <ele>1840</ele>
        <time>2011-09-10T09:52:46Z</time>
      </trkpt>
      <trkpt lat="44.90248" lon="6.82693">
        <ele>1846</ele>
        <time>2011-09-10T09:53:19Z</time>
      </trkpt>
      <trkpt lat="44.90225" lon="6.82688">
        <ele>1850</ele>
        <time>2011-09-10T09:53:53Z</time>
      </trkpt>
      <trkpt lat="44.90201" lon="6.82683">
        <ele>1855</ele>
        <time>2011-09-10T09:54:26Z</time>
      </trkpt>
      <trkpt lat="44.90179" lon="6.82672">
        <ele>1860</ele>
        <time>2011-09-10T09:54:51Z</time>
      </trkpt>
      <trkpt lat="44.9016" lon="6.82653">
        <ele>1863</ele>
        <time>2011-09-10T09:55:37Z</time>
      </trkpt>
      <trkpt lat="44.9014" lon="6.82636">
        <ele>1867</ele>
        <time>2011-09-10T09:56:00Z</time>
      </trkpt>
      <trkpt lat="44.90119" lon="6.82621">
        <ele>1871</ele>
        <time>2011-09-10T09:56:23Z</time>
      </trkpt>
      <trkpt lat="44.90098" lon="6.82608">
        <ele>1875</ele>
        <time>2011-09-10T09:56:53Z</time>
      </trkpt>
      <trkpt lat="44.90077" lon="6.82591">
        <ele>1879</ele>
        <time>2011-09-10T09:57:22Z</time>
      </trkpt>
      <trkpt lat="44.90059" lon="6.82571">
        <ele>1883</ele>
        <time>2011-09-10T09:57:53Z</time>
      </trkpt>
      <trkpt lat="44.9004" lon="6.82553">
        <ele>1888</ele>
        <time>2011-09-10T09:58:26Z</time>
      </trkpt>
      <trkpt lat="44.90038" lon="6.8252">
        <ele>1893</ele>
        <time>2011-09-10T09:59:01Z</time>
      </trkpt>
      <trkpt lat="44.90046" lon="6.82489">
        <ele>1896</ele>
        <time>2011-09-10T09:59:22Z</time>
      </trkpt>
      <trkpt lat="44.90023" lon="6.82487">
        <ele>1898</ele>
        <time>2011-09-10T10:00:01Z</time>
      </trkpt>
      <trkpt lat="44.89999" lon="6.82493">
        <ele>1902</ele>
        <time>2011-09-10T10:00:24Z</time>
      </trkpt>
      <trkpt lat="44.89976" lon="6.82498">
        <ele>1906</ele>
        <time>2011-09-10T10:00:45Z</time>
      </trkpt>
      <trkpt lat="44.89953" lon="6.825">
        <ele>1907</ele>
        <time>2011-09-10T10:01:07Z</time>
      </trkpt>
      <trkpt lat="44.89929" lon="6.82502">
        <ele>1910</ele>
        <time>2011-09-10T10:01:27Z</time>
      </trkpt>
      <trkpt lat="44.89908" lon="6.82515">
        <ele>1913</ele>
        <time>2011-09-10T10:01:47Z</time>
      </trkpt>
      <trkpt lat="44.89885" lon="6.82509">
        <ele>1916</ele>
        <time>2011-09-10T10:02:09Z</time>
      </trkpt>
      <trkpt lat="44.89873" lon="6.82481">
        <ele>1920</ele>
        <time>2011-09-10T10:02:41Z</time>
      </trkpt>
      <trkpt lat="44.89871" lon="6.82449">
        <ele>1925</ele>
        <time>2011-09-10T10:03:10Z</time>
      </trkpt>
      <trkpt lat="44.89867" lon="6.82416">
        <ele>1930</ele>
        <time>2011-09-10T10:03:45Z</time>
      </trkpt>
      <trkpt lat="44.89869" lon="6.82383">
        <ele>1935</ele>
        <time>2011-09-10T10:04:12Z</time>
      </trkpt>
      <trkpt lat="44.8985" lon="6.82401">
        <ele>1938</ele>
        <time>2011-09-10T10:12:26Z</time>
      </trkpt>
      <trkpt lat="44.89832" lon="6.82378">
        <ele>1938</ele>
        <time>2011-09-10T10:12:38Z</time>
      </trkpt>
      <trkpt lat="44.89819" lon="6.82347">
        <ele>1938</ele>
        <time>2011-09-10T10:12:50Z</time>
      </trkpt>
      <trkpt lat="44.89803" lon="6.82322">
        <ele>1938</ele>
        <time>2011-09-10T10:13:00Z</time>
      </trkpt>
      <trkpt lat="44.89795" lon="6.8229">
        <ele>1939</ele>
        <time>2011-09-10T10:13:16Z</time>
      </trkpt>
      <trkpt lat="44.89784" lon="6.82262">
        <ele>1941</ele>
        <time>2011-09-10T10:13:35Z</time>
      </trkpt>
      <trkpt lat="44.89774" lon="6.82231">
        <ele>1944</ele>
        <time>2011-09-10T10:13:53Z</time>
      </trkpt>
      <trkpt lat="44.89768" lon="6.82199">
        <ele>1944</ele>
        <time>2011-09-10T10:14:09Z</time>
      </trkpt>
      <trkpt lat="44.89755" lon="6.82172">
        <ele>1946</ele>
        <time>2011-09-10T10:14:25Z</time>
      </trkpt>
      <trkpt lat="44.89737" lon="6.82149">
        <ele>1947</ele>
        <time>2011-09-10T10:14:41Z</time>
      </trkpt>
      <trkpt lat="44.89733" lon="6.82182">
        <ele>1951</ele>
        <time>2011-09-10T10:16:13Z</time>
      </trkpt>
      <trkpt lat="44.89737" lon="6.82214">
        <ele>1950</ele>
        <time>2011-09-10T10:16:22Z</time>
      </trkpt>
      <trkpt lat="44.89728" lon="6.82244">
        <ele>1952</ele>
        <time>2011-09-10T10:16:42Z</time>
      </trkpt>
      <trkpt lat="44.89738" lon="6.82275">
        <ele>1953</ele>
        <time>2011-09-10T10:16:58Z</time>
      </trkpt>
      <trkpt lat="44.89748" lon="6.82305">
        <ele>1954</ele>
        <time>2011-09-10T10:17:15Z</time>
      </trkpt>
      <trkpt lat="44.89761" lon="6.82334">
        <ele>1956</ele>
        <time>2011-09-10T10:17:32Z</time>
      </trkpt>
      <trkpt lat="44.89764" lon="6.82368">
        <ele>1958</ele>
        <time>2011-09-10T10:17:52Z</time>
      </trkpt>
      <trkpt lat="44.89766" lon="6.824">
        <ele>1962</ele>
        <time>2011-09-10T10:18:12Z</time>
      </trkpt>
      <trkpt lat="44.89766" lon="6.82433">
        <ele>1965</ele>
        <time>2011-09-10T10:18:34Z</time>
      </trkpt>
      <trkpt lat="44.89762" lon="6.82466">
        <ele>1970</ele>
        <time>2011-09-10T10:18:59Z</time>
      </trkpt>
      <trkpt lat="44.89762" lon="6.82499">
        <ele>1974</ele>
        <time>2011-09-10T10:19:24Z</time>
      </trkpt>
      <trkpt lat="44.89764" lon="6.82531">
        <ele>1977</ele>
        <time>2011-09-10T10:19:47Z</time>
      </trkpt>
      <trkpt lat="44.89764" lon="6.82564">
        <ele>1982</ele>
        <time>2011-09-10T10:20:10Z</time>
      </trkpt>
      <trkpt lat="44.89768" lon="6.82596">
        <ele>1986</ele>
        <time>2011-09-10T10:20:32Z</time>
      </trkpt>
      <trkpt lat="44.89767" lon="6.82629">
        <ele>1988</ele>
        <time>2011-09-10T10:20:52Z</time>
      </trkpt>
      <trkpt lat="44.8977" lon="6.82661">
        <ele>1992</ele>
        <time>2011-09-10T10:21:17Z</time>
      </trkpt>
      <trkpt lat="44.89773" lon="6.82694">
        <ele>1994</ele>
        <time>2011-09-10T10:21:40Z</time>
      </trkpt>
      <trkpt lat="44.89771" lon="6.82727">
        <ele>1996</ele>
        <time>2011-09-10T10:21:57Z</time>
      </trkpt>
      <trkpt lat="44.89775" lon="6.82759">
        <ele>1996</ele>
        <time>2011-09-10T10:22:13Z</time>
      </trkpt>
      <trkpt lat="44.89757" lon="6.82737">
        <ele>2004</ele>
        <time>2011-09-10T10:23:15Z</time>
      </trkpt>
      <trkpt lat="44.89747" lon="6.82768">
        <ele>2007</ele>
        <time>2011-09-10T10:23:50Z</time>
      </trkpt>
      <trkpt lat="44.89748" lon="6.82801">
        <ele>2012</ele>
        <time>2011-09-10T10:24:12Z</time>
      </trkpt>
      <trkpt lat="44.89736" lon="6.8283">
        <ele>2016</ele>
        <time>2011-09-10T10:24:35Z</time>
      </trkpt>
      <trkpt lat="44.89723" lon="6.82856">
        <ele>2019</ele>
        <time>2011-09-10T10:25:00Z</time>
      </trkpt>
      <trkpt lat="44.89719" lon="6.82888">
        <ele>2022</ele>
        <time>2011-09-10T10:25:20Z</time>
      </trkpt>
      <trkpt lat="44.89714" lon="6.82856">
        <ele>2025</ele>
        <time>2011-09-10T10:26:17Z</time>
      </trkpt>
      <trkpt lat="44.897" lon="6.82828">
        <ele>2028</ele>
        <time>2011-09-10T10:26:39Z</time>
      </trkpt>
      <trkpt lat="44.89698" lon="6.82796">
        <ele>2030</ele>
        <time>2011-09-10T10:27:02Z</time>
      </trkpt>
      <trkpt lat="44.89694" lon="6.82764">
        <ele>2033</ele>
        <time>2011-09-10T10:27:27Z</time>
      </trkpt>
      <trkpt lat="44.89672" lon="6.82752">
        <ele>2038</ele>
        <time>2011-09-10T10:27:56Z</time>
      </trkpt>
      <trkpt lat="44.89654" lon="6.82731">
        <ele>2044</ele>
        <time>2011-09-10T10:28:25Z</time>
      </trkpt>
      <trkpt lat="44.89632" lon="6.82718">
        <ele>2047</ele>
        <time>2011-09-10T10:28:52Z</time>
      </trkpt>
      <trkpt lat="44.89617" lon="6.82693">
        <ele>2050</ele>
        <time>2011-09-10T10:29:18Z</time>
      </trkpt>
      <trkpt lat="44.89594" lon="6.82691">
        <ele>2060</ele>
        <time>2011-09-10T10:30:20Z</time>
      </trkpt>
      <trkpt lat="44.89581" lon="6.82718">
        <ele>2063</ele>
        <time>2011-09-10T10:30:47Z</time>
      </trkpt>
      <trkpt lat="44.89579" lon="6.82751">
        <ele>2067</ele>
        <time>2011-09-10T10:31:18Z</time>
      </trkpt>
      <trkpt lat="44.89576" lon="6.82783">
        <ele>2071</ele>
        <time>2011-09-10T10:31:45Z</time>
      </trkpt>
      <trkpt lat="44.89585" lon="6.82813">
        <ele>2075</ele>
        <time>2011-09-10T10:32:12Z</time>
      </trkpt>
      <trkpt lat="44.89596" lon="6.82842">
        <ele>2080</ele>
        <time>2011-09-10T10:32:42Z</time>
      </trkpt>
      <trkpt lat="44.89595" lon="6.82875">
        <ele>2086</ele>
        <time>2011-09-10T10:33:13Z</time>
      </trkpt>
      <trkpt lat="44.89573" lon="6.82886">
        <ele>2089</ele>
        <time>2011-09-10T10:33:42Z</time>
      </trkpt>
      <trkpt lat="44.8955" lon="6.82891">
        <ele>2095</ele>
        <time>2011-09-10T10:34:16Z</time>
      </trkpt>
      <trkpt lat="44.8954" lon="6.82922">
        <ele>2099</ele>
        <time>2011-09-10T10:34:45Z</time>
      </trkpt>
      <trkpt lat="44.8952" lon="6.82939">
        <ele>2101</ele>
        <time>2011-09-10T10:35:10Z</time>
      </trkpt>
      <trkpt lat="44.89507" lon="6.82912">
        <ele>2106</ele>
        <time>2011-09-10T10:35:47Z</time>
      </trkpt>
      <trkpt lat="44.89501" lon="6.8288">
        <ele>2109</ele>
        <time>2011-09-10T10:36:16Z</time>
      </trkpt>
      <trkpt lat="44.89487" lon="6.82854">
        <ele>2114</ele>
        <time>2011-09-10T10:37:16Z</time>
      </trkpt>
      <trkpt lat="44.89469" lon="6.82833">
        <ele>2118</ele>
        <time>2011-09-10T10:37:47Z</time>
      </trkpt>
      <trkpt lat="44.89459" lon="6.82862">
        <ele>2123</ele>
        <time>2011-09-10T10:38:20Z</time>
      </trkpt>
      <trkpt lat="44.8944" lon="6.8288">
        <ele>2129</ele>
        <time>2011-09-10T10:38:52Z</time>
      </trkpt>
      <trkpt lat="44.8942" lon="6.82897">
        <ele>2132</ele>
        <time>2011-09-10T10:39:23Z</time>
      </trkpt>
      <trkpt lat="44.89408" lon="6.82925">
        <ele>2137</ele>
        <time>2011-09-10T10:39:53Z</time>
      </trkpt>
      <trkpt lat="44.89394" lon="6.82951">
        <ele>2140</ele>
        <time>2011-09-10T10:40:26Z</time>
      </trkpt>
      <trkpt lat="44.89378" lon="6.82975">
        <ele>2145</ele>
        <time>2011-09-10T10:40:55Z</time>
      </trkpt>
      <trkpt lat="44.89362" lon="6.82998">
        <ele>2149</ele>
        <time>2011-09-10T10:41:35Z</time>
      </trkpt>
      <trkpt lat="44.89347" lon="6.83024">
        <ele>2152</ele>
        <time>2011-09-10T10:42:07Z</time>
      </trkpt>
      <trkpt lat="44.8933" lon="6.83047">
        <ele>2158</ele>
        <time>2011-09-10T10:42:47Z</time>
      </trkpt>
      <trkpt lat="44.89324" lon="6.83016">
        <ele>2165</ele>
        <time>2011-09-10T10:43:40Z</time>
      </trkpt>
      <trkpt lat="44.89326" lon="6.82982">
        <ele>2169</ele>
        <time>2011-09-10T10:44:10Z</time>
      </trkpt>
      <trkpt lat="44.89323" lon="6.8295">
        <ele>2174</ele>
        <time>2011-09-10T10:44:41Z</time>
      </trkpt>
      <trkpt lat="44.89329" lon="6.82918">
        <ele>2176</ele>
        <time>2011-09-10T10:45:36Z</time>
      </trkpt>
      <trkpt lat="44.89332" lon="6.82885">
        <ele>2181</ele>
        <time>2011-09-10T10:46:08Z</time>
      </trkpt>
      <trkpt lat="44.89328" lon="6.82853">
        <ele>2187</ele>
        <time>2011-09-10T10:47:21Z</time>
      </trkpt>
      <trkpt lat="44.89322" lon="6.82821">
        <ele>2190</ele>
        <time>2011-09-10T10:47:55Z</time>
      </trkpt>
      <trkpt lat="44.89316" lon="6.82789">
        <ele>2196</ele>
        <time>2011-09-10T10:48:31Z</time>
      </trkpt>
      <trkpt lat="44.89308" lon="6.82758">
        <ele>2201</ele>
        <time>2011-09-10T10:49:06Z</time>
      </trkpt>
      <trkpt lat="44.89317" lon="6.82728">
        <ele>2206</ele>
        <time>2011-09-10T10:49:38Z</time>
      </trkpt>
      <trkpt lat="44.89294" lon="6.82726">
        <ele>2216</ele>
        <time>2011-09-10T10:51:50Z</time>
      </trkpt>
      <trkpt lat="44.89274" lon="6.82744">
        <ele>2220</ele>
        <time>2011-09-10T10:52:22Z</time>
      </trkpt>
      <trkpt lat="44.8926" lon="6.82769">
        <ele>2225</ele>
        <time>2011-09-10T10:52:57Z</time>
      </trkpt>
      <trkpt lat="44.89247" lon="6.82797">
        <ele>2229</ele>
        <time>2011-09-10T10:53:28Z</time>
      </trkpt>
      <trkpt lat="44.8924" lon="6.82828">
        <ele>2233</ele>
        <time>2011-09-10T10:54:00Z</time>
      </trkpt>
      <trkpt lat="44.89234" lon="6.8286">
        <ele>2238</ele>
        <time>2011-09-10T10:55:32Z</time>
      </trkpt>
      <trkpt lat="44.89225" lon="6.82891">
        <ele>2242</ele>
        <time>2011-09-10T10:56:20Z</time>
      </trkpt>
      <trkpt lat="44.8921" lon="6.82916">
        <ele>2246</ele>
        <time>2011-09-10T10:56:47Z</time>
      </trkpt>
      <trkpt lat="44.89198" lon="6.82944">
        <ele>2250</ele>
        <time>2011-09-10T10:57:16Z</time>
      </trkpt>
      <trkpt lat="44.89192" lon="6.82975">
        <ele>2255</ele>
        <time>2011-09-10T10:57:58Z</time>
      </trkpt>
      <trkpt lat="44.89183" lon="6.82945">
        <ele>2259</ele>
        <time>2011-09-10T10:58:40Z</time>
      </trkpt>
      <trkpt lat="44.89182" lon="6.82913">
        <ele>2263</ele>
        <time>2011-09-10T10:59:10Z</time>
      </trkpt>
      <trkpt lat="44.89179" lon="6.8288">
        <ele>2268</ele>
        <time>2011-09-10T10:59:41Z</time>
      </trkpt>
      <trkpt lat="44.89173" lon="6.82849">
        <ele>2273</ele>
        <time>2011-09-10T11:00:12Z</time>
      </trkpt>
      <trkpt lat="44.89159" lon="6.82822">
        <ele>2276</ele>
        <time>2011-09-10T11:01:02Z</time>
      </trkpt>
      <trkpt lat="44.89148" lon="6.82794">
        <ele>2281</ele>
        <time>2011-09-10T11:01:33Z</time>
      </trkpt>
      <trkpt lat="44.89141" lon="6.82762">
        <ele>2286</ele>
        <time>2011-09-10T11:02:04Z</time>
      </trkpt>
      <trkpt lat="44.89121" lon="6.82779">
        <ele>2292</ele>
        <time>2011-09-10T11:03:15Z</time>
      </trkpt>
      <trkpt lat="44.89114" lon="6.82811">
        <ele>2296</ele>
        <time>2011-09-10T11:03:48Z</time>
      </trkpt>
      <trkpt lat="44.8911" lon="6.82844">
        <ele>2302</ele>
        <time>2011-09-10T11:04:20Z</time>
      </trkpt>
      <trkpt lat="44.89101" lon="6.82873">
        <ele>2307</ele>
        <time>2011-09-10T11:06:21Z</time>
      </trkpt>
      <trkpt lat="44.89107" lon="6.82905">
        <ele>2311</ele>
        <time>2011-09-10T11:06:52Z</time>
      </trkpt>
      <trkpt lat="44.89115" lon="6.82936">
        <ele>2316</ele>
        <time>2011-09-10T11:07:40Z</time>
      </trkpt>
      <trkpt lat="44.89107" lon="6.82967">
        <ele>2319</ele>
        <time>2011-09-10T11:08:10Z</time>
      </trkpt>
      <trkpt lat="44.89095" lon="6.82996">
        <ele>2323</ele>
        <time>2011-09-10T11:08:45Z</time>
      </trkpt>
      <trkpt lat="44.89088" lon="6.82965">
        <ele>2333</ele>
        <time>2011-09-10T11:15:36Z</time>
      </trkpt>
      <trkpt lat="44.89071" lon="6.82942">
        <ele>2338</ele>
        <time>2011-09-10T11:16:06Z</time>
      </trkpt>
      <trkpt lat="44.89054" lon="6.8292">
        <ele>2342</ele>
        <time>2011-09-10T11:16:38Z</time>
      </trkpt>
      <trkpt lat="44.8904" lon="6.82894">
        <ele>2347</ele>
        <time>2011-09-10T11:17:11Z</time>
      </trkpt>
      <trkpt lat="44.89034" lon="6.82863">
        <ele>2351</ele>
        <time>2011-09-10T11:17:45Z</time>
      </trkpt>
      <trkpt lat="44.8903" lon="6.82829">
        <ele>2355</ele>
        <time>2011-09-10T11:18:35Z</time>
      </trkpt>
      <trkpt lat="44.89031" lon="6.82796">
        <ele>2361</ele>
        <time>2011-09-10T11:19:10Z</time>
      </trkpt>
      <trkpt lat="44.89014" lon="6.82773">
        <ele>2366</ele>
        <time>2011-09-10T11:19:43Z</time>
      </trkpt>
      <trkpt lat="44.89001" lon="6.82744">
        <ele>2371</ele>
        <time>2011-09-10T11:20:25Z</time>
      </trkpt>
      <trkpt lat="44.88998" lon="6.82711">
        <ele>2375</ele>
        <time>2011-09-10T11:21:01Z</time>
      </trkpt>
      <trkpt lat="44.8899" lon="6.8268">
        <ele>2380</ele>
        <time>2011-09-10T11:21:38Z</time>
      </trkpt>
      <trkpt lat="44.88988" lon="6.82647">
        <ele>2387</ele>
        <time>2011-09-10T11:22:17Z</time>
      </trkpt>
      <trkpt lat="44.88974" lon="6.8262">
        <ele>2391</ele>
        <time>2011-09-10T11:22:51Z</time>
      </trkpt>
      <trkpt lat="44.88969" lon="6.82588">
        <ele>2394</ele>
        <time>2011-09-10T11:23:18Z</time>
      </trkpt>
      <trkpt lat="44.88964" lon="6.82555">
        <ele>2400</ele>
        <time>2011-09-10T11:24:00Z</time>
      </trkpt>
      <trkpt lat="44.88946" lon="6.82576">
        <ele>2411</ele>
        <time>2011-09-10T11:28:00Z</time>
      </trkpt>
      <trkpt lat="44.88937" lon="6.82606">
        <ele>2416</ele>
        <time>2011-09-10T11:28:36Z</time>
      </trkpt>
      <trkpt lat="44.88932" lon="6.82638">
        <ele>2421</ele>
        <time>2011-09-10T11:29:48Z</time>
      </trkpt>
      <trkpt lat="44.88929" lon="6.82671">
        <ele>2425</ele>
        <time>2011-09-10T11:31:10Z</time>
      </trkpt>
      <trkpt lat="44.88926" lon="6.82704">
        <ele>2430</ele>
        <time>2011-09-10T11:31:46Z</time>
      </trkpt>
      <trkpt lat="44.88914" lon="6.82675">
        <ele>2437</ele>
        <time>2011-09-10T11:32:47Z</time>
      </trkpt>
      <trkpt lat="44.88904" lon="6.82645">
        <ele>2440</ele>
        <time>2011-09-10T11:33:20Z</time>
      </trkpt>
      <trkpt lat="44.88892" lon="6.82617">
        <ele>2445</ele>
        <time>2011-09-10T11:33:48Z</time>
      </trkpt>
      <trkpt lat="44.88882" lon="6.82588">
        <ele>2448</ele>
        <time>2011-09-10T11:34:20Z</time>
      </trkpt>
      <trkpt lat="44.88867" lon="6.82613">
        <ele>2456</ele>
        <time>2011-09-10T11:35:17Z</time>
      </trkpt>
      <trkpt lat="44.88865" lon="6.82648">
        <ele>2460</ele>
        <time>2011-09-10T11:35:58Z</time>
      </trkpt>
      <trkpt lat="44.88866" lon="6.82681">
        <ele>2466</ele>
        <time>2011-09-10T11:36:34Z</time>
      </trkpt>
      <trkpt lat="44.88872" lon="6.82713">
        <ele>2469</ele>
        <time>2011-09-10T11:37:06Z</time>
      </trkpt>
      <trkpt lat="44.88875" lon="6.82746">
        <ele>2474</ele>
        <time>2011-09-10T11:37:48Z</time>
      </trkpt>
      <trkpt lat="44.88852" lon="6.82746">
        <ele>2485</ele>
        <time>2011-09-10T11:39:20Z</time>
      </trkpt>
      <trkpt lat="44.88835" lon="6.82722">
        <ele>2487</ele>
        <time>2011-09-10T11:39:48Z</time>
      </trkpt>
      <trkpt lat="44.88814" lon="6.82709">
        <ele>2493</ele>
        <time>2011-09-10T11:40:26Z</time>
      </trkpt>
      <trkpt lat="44.88795" lon="6.8269">
        <ele>2496</ele>
        <time>2011-09-10T11:41:00Z</time>
      </trkpt>
      <trkpt lat="44.88805" lon="6.8272">
        <ele>2504</ele>
        <time>2011-09-10T11:42:44Z</time>
      </trkpt>
      <trkpt lat="44.88814" lon="6.8275">
        <ele>2509</ele>
        <time>2011-09-10T11:43:48Z</time>
      </trkpt>
      <trkpt lat="44.8879" lon="6.82748">
        <ele>2520</ele>
        <time>2011-09-10T11:45:22Z</time>
      </trkpt>
      <trkpt lat="44.88772" lon="6.82728">
        <ele>2523</ele>
        <time>2011-09-10T11:45:55Z</time>
      </trkpt>
      <trkpt lat="44.88753" lon="6.82709">
        <ele>2529</ele>
        <time>2011-09-10T11:46:32Z</time>
      </trkpt>
      <trkpt lat="44.8875" lon="6.82741">
        <ele>2540</ele>
        <time>2011-09-10T11:47:57Z</time>
      </trkpt>
      <trkpt lat="44.88726" lon="6.82744">
        <ele>2549</ele>
        <time>2011-09-10T11:49:45Z</time>
      </trkpt>
      <trkpt lat="44.88708" lon="6.82765">
        <ele>2556</ele>
        <time>2011-09-10T11:50:36Z</time>
      </trkpt>
      <trkpt lat="44.88697" lon="6.82736">
        <ele>2563</ele>
        <time>2011-09-10T11:52:04Z</time>
      </trkpt>
      <trkpt lat="44.88695" lon="6.82724">
        <ele>2561</ele>
        <time>2011-09-10T12:39:21Z</time>
      </trkpt>
      <trkpt lat="44.88671" lon="6.8273">
        <ele>2556</ele>
        <time>2011-09-10T12:40:02Z</time>
      </trkpt>
      <trkpt lat="44.88645" lon="6.8272">
        <ele>2550</ele>
        <time>2011-09-10T12:40:11Z</time>
      </trkpt>
      <trkpt lat="44.88622" lon="6.82714">
        <ele>2549</ele>
        <time>2011-09-10T12:40:18Z</time>
      </trkpt>
      <trkpt lat="44.88599" lon="6.82723">
        <ele>2548</ele>
        <time>2011-09-10T12:41:13Z</time>
      </trkpt>
      <trkpt lat="44.88577" lon="6.82714">
        <ele>2548</ele>
        <time>2011-09-10T12:41:41Z</time>
      </trkpt>
      <trkpt lat="44.88583" lon="6.82682">
        <ele>2542</ele>
        <time>2011-09-10T12:42:11Z</time>
      </trkpt>
      <trkpt lat="44.88588" lon="6.8265">
        <ele>2536</ele>
        <time>2011-09-10T12:42:25Z</time>
      </trkpt>
      <trkpt lat="44.88596" lon="6.82619">
        <ele>2532</ele>
        <time>2011-09-10T12:42:34Z</time>
      </trkpt>
      <trkpt lat="44.88574" lon="6.82603">
        <ele>2525</ele>
        <time>2011-09-10T12:42:42Z</time>
      </trkpt>
      <trkpt lat="44.88552" lon="6.82589">
        <ele>2546.1</ele>
        <time>2011-09-10T12:42:51Z</time>
      </trkpt>
      <trkpt lat="44.88553" lon="6.82556">
        <ele>2511</ele>
        <time>2011-09-10T12:43:02Z</time>
      </trkpt>
      <trkpt lat="44.88539" lon="6.82529">
        <ele>2504</ele>
        <time>2011-09-10T12:43:11Z</time>
      </trkpt>
      <trkpt lat="44.88523" lon="6.825">
        <ele>2498</ele>
        <time>2011-09-10T12:43:18Z</time>
      </trkpt>
      <trkpt lat="44.88506" lon="6.82472">
        <ele>2494</ele>
        <time>2011-09-10T12:46:43Z</time>
      </trkpt>
      <trkpt lat="44.88481" lon="6.82463">
        <ele>2489</ele>
        <time>2011-09-10T12:46:50Z</time>
      </trkpt>
      <trkpt lat="44.88455" lon="6.82458">
        <ele>2482</ele>
        <time>2011-09-10T12:47:00Z</time>
      </trkpt>
      <trkpt lat="44.88433" lon="6.8247">
        <ele>2502.4</ele>
        <time>2011-09-10T12:48:04Z</time>
      </trkpt>
      <trkpt lat="44.88408" lon="6.82482">
        <ele>2494.6</ele>
        <time>2011-09-10T12:48:10Z</time>
      </trkpt>
      <trkpt lat="44.88385" lon="6.825">
        <ele>2459</ele>
        <time>2011-09-10T12:49:21Z</time>
      </trkpt>
      <trkpt lat="44.88364" lon="6.82513">
        <ele>2451</ele>
        <time>2011-09-10T12:49:27Z</time>
      </trkpt>
      <trkpt lat="44.8834" lon="6.82519">
        <ele>2445</ele>
        <time>2011-09-10T12:49:32Z</time>
      </trkpt>
      <trkpt lat="44.88317" lon="6.82518">
        <ele>2437</ele>
        <time>2011-09-10T12:49:37Z</time>
      </trkpt>
      <trkpt lat="44.88291" lon="6.82513">
        <ele>2434</ele>
        <time>2011-09-10T12:49:43Z</time>
      </trkpt>
      <trkpt lat="44.88271" lon="6.82493">
        <ele>2427</ele>
        <time>2011-09-10T12:49:50Z</time>
      </trkpt>
      <trkpt lat="44.88252" lon="6.82468">
        <ele>2422</ele>
        <time>2011-09-10T12:49:58Z</time>
      </trkpt>
      <trkpt lat="44.88241" lon="6.82438">
        <ele>2416</ele>
        <time>2011-09-10T12:50:11Z</time>
      </trkpt>
      <trkpt lat="44.8823" lon="6.82406">
        <ele>2411</ele>
        <time>2011-09-10T12:50:24Z</time>
      </trkpt>
      <trkpt lat="44.88227" lon="6.82372">
        <ele>2403</ele>
        <time>2011-09-10T12:50:35Z</time>
      </trkpt>
      <trkpt lat="44.88227" lon="6.82339">
        <ele>2398</ele>
        <time>2011-09-10T12:50:53Z</time>
      </trkpt>
      <trkpt lat="44.88225" lon="6.82307">
        <ele>2393</ele>
        <time>2011-09-10T12:51:06Z</time>
      </trkpt>
      <trkpt lat="44.88224" lon="6.82274">
        <ele>2387</ele>
        <time>2011-09-10T12:51:17Z</time>
      </trkpt>
      <trkpt lat="44.88223" lon="6.82241">
        <ele>2379</ele>
        <time>2011-09-10T12:51:28Z</time>
      </trkpt>
      <trkpt lat="44.88209" lon="6.82216">
        <ele>2372</ele>
        <time>2011-09-10T12:51:48Z</time>
      </trkpt>
      <trkpt lat="44.88201" lon="6.82184">
        <ele>2372</ele>
        <time>2011-09-10T12:53:20Z</time>
      </trkpt>
      <trkpt lat="44.88184" lon="6.8216">
        <ele>2375</ele>
        <time>2011-09-10T12:53:53Z</time>
      </trkpt>
      <trkpt lat="44.88169" lon="6.82134">
        <ele>2381</ele>
        <time>2011-09-10T12:54:21Z</time>
      </trkpt>
      <trkpt lat="44.88155" lon="6.82108">
        <ele>2384</ele>
        <time>2011-09-10T12:54:53Z</time>
      </trkpt>
      <trkpt lat="44.88144" lon="6.82078">
        <ele>2387</ele>
        <time>2011-09-10T12:55:25Z</time>
      </trkpt>
      <trkpt lat="44.88141" lon="6.82046">
        <ele>2393</ele>
        <time>2011-09-10T12:55:59Z</time>
      </trkpt>
      <trkpt lat="44.88148" lon="6.82015">
        <ele>2399</ele>
        <time>2011-09-10T12:56:44Z</time>
      </trkpt>
      <trkpt lat="44.88141" lon="6.81982">
        <ele>2406</ele>
        <time>2011-09-10T12:57:25Z</time>
      </trkpt>
      <trkpt lat="44.88142" lon="6.8195">
        <ele>2410</ele>
        <time>2011-09-10T12:58:13Z</time>
      </trkpt>
      <trkpt lat="44.88122" lon="6.81934">
        <ele>2414</ele>
        <time>2011-09-10T12:59:10Z</time>
      </trkpt>
      <trkpt lat="44.88111" lon="6.81903">
        <ele>2412</ele>
        <time>2011-09-10T13:00:09Z</time>
      </trkpt>
      <trkpt lat="44.88094" lon="6.81881">
        <ele>2407</ele>
        <time>2011-09-10T13:00:18Z</time>
      </trkpt>
      <trkpt lat="44.88101" lon="6.8185">
        <ele>2402</ele>
        <time>2011-09-10T13:00:24Z</time>
      </trkpt>
      <trkpt lat="44.88117" lon="6.81824">
        <ele>2398</ele>
        <time>2011-09-10T13:00:31Z</time>
      </trkpt>
      <trkpt lat="44.88103" lon="6.81797">
        <ele>2396</ele>
        <time>2011-09-10T13:01:16Z</time>
      </trkpt>
      <trkpt lat="44.88082" lon="6.8178">
        <ele>2392</ele>
        <time>2011-09-10T13:01:26Z</time>
      </trkpt>
      <trkpt lat="44.88059" lon="6.81766">
        <ele>2388</ele>
        <time>2011-09-10T13:01:34Z</time>
      </trkpt>
      <trkpt lat="44.88038" lon="6.81749">
        <ele>2386</ele>
        <time>2011-09-10T13:01:42Z</time>
      </trkpt>
      <trkpt lat="44.88035" lon="6.81716">
        <ele>2389</ele>
        <time>2011-09-10T13:02:51Z</time>
      </trkpt>
      <trkpt lat="44.8803" lon="6.81684">
        <ele>2391</ele>
        <time>2011-09-10T13:03:21Z</time>
      </trkpt>
      <trkpt lat="44.88016" lon="6.81658">
        <ele>2392</ele>
        <time>2011-09-10T13:03:41Z</time>
      </trkpt>
      <trkpt lat="44.87999" lon="6.81634">
        <ele>2391</ele>
        <time>2011-09-10T13:04:06Z</time>
      </trkpt>
      <trkpt lat="44.87994" lon="6.816">
        <ele>2392</ele>
        <time>2011-09-10T13:04:28Z</time>
      </trkpt>
      <trkpt lat="44.87996" lon="6.81567">
        <ele>2389</ele>
        <time>2011-09-10T13:04:37Z</time>
      </trkpt>
      <trkpt lat="44.87991" lon="6.81535">
        <ele>2390</ele>
        <time>2011-09-10T13:04:54Z</time>
      </trkpt>
      <trkpt lat="44.87982" lon="6.81504">
        <ele>2392</ele>
        <time>2011-09-10T13:05:06Z</time>
      </trkpt>
      <trkpt lat="44.87969" lon="6.81474">
        <ele>2390</ele>
        <time>2011-09-10T13:05:18Z</time>
      </trkpt>
      <trkpt lat="44.87969" lon="6.81437">
        <ele>2386</ele>
        <time>2011-09-10T13:05:25Z</time>
      </trkpt>
      <trkpt lat="44.87966" lon="6.81404">
        <ele>2387</ele>
        <time>2011-09-10T13:06:17Z</time>
      </trkpt>
      <trkpt lat="44.87959" lon="6.8137">
        <ele>2384</ele>
        <time>2011-09-10T13:06:27Z</time>
      </trkpt>
      <trkpt lat="44.87954" lon="6.81336">
        <ele>2376</ele>
        <time>2011-09-10T13:06:34Z</time>
      </trkpt>
      <trkpt lat="44.87947" lon="6.81302">
        <ele>2372</ele>
        <time>2011-09-10T13:06:39Z</time>
      </trkpt>
      <trkpt lat="44.87938" lon="6.81271">
        <ele>2371</ele>
        <time>2011-09-10T13:06:47Z</time>
      </trkpt>
      <trkpt lat="44.87937" lon="6.81236">
        <ele>2367</ele>
        <time>2011-09-10T13:06:56Z</time>
      </trkpt>
      <trkpt lat="44.87946" lon="6.81204">
        <ele>2366</ele>
        <time>2011-09-10T13:07:03Z</time>
      </trkpt>
      <trkpt lat="44.87961" lon="6.81175">
        <ele>2365</ele>
        <time>2011-09-10T13:07:15Z</time>
      </trkpt>
      <trkpt lat="44.87975" lon="6.81145">
        <ele>2363</ele>
        <time>2011-09-10T13:07:25Z</time>
      </trkpt>
      <trkpt lat="44.87989" lon="6.81118">
        <ele>2362</ele>
        <time>2011-09-10T13:07:35Z</time>
      </trkpt>
      <trkpt lat="44.87999" lon="6.81089">
        <ele>2362</ele>
        <time>2011-09-10T13:07:45Z</time>
      </trkpt>
      <trkpt lat="44.88009" lon="6.81058">
        <ele>2362</ele>
        <time>2011-09-10T13:08:00Z</time>
      </trkpt>
      <trkpt lat="44.88022" lon="6.81029">
        <ele>2360</ele>
        <time>2011-09-10T13:08:08Z</time>
      </trkpt>
      <trkpt lat="44.88036" lon="6.80997">
        <ele>2353</ele>
        <time>2011-09-10T13:08:18Z</time>
      </trkpt>
      <trkpt lat="44.88048" lon="6.80968">
        <ele>2355</ele>
        <time>2011-09-10T13:08:29Z</time>
      </trkpt>
      <trkpt lat="44.88058" lon="6.80939">
        <ele>2354</ele>
        <time>2011-09-10T13:08:46Z</time>
      </trkpt>
      <trkpt lat="44.88083" lon="6.80949">
        <ele>2342</ele>
        <time>2011-09-10T13:09:32Z</time>
      </trkpt>
      <trkpt lat="44.88108" lon="6.8094">
        <ele>2334</ele>
        <time>2011-09-10T13:09:39Z</time>
      </trkpt>
      <trkpt lat="44.88126" lon="6.80916">
        <ele>2330</ele>
        <time>2011-09-10T13:09:46Z</time>
      </trkpt>
      <trkpt lat="44.8814" lon="6.8089">
        <ele>2324</ele>
        <time>2011-09-10T13:09:51Z</time>
      </trkpt>
      <trkpt lat="44.88156" lon="6.80861">
        <ele>2315</ele>
        <time>2011-09-10T13:09:58Z</time>
      </trkpt>
      <trkpt lat="44.88165" lon="6.8083">
        <ele>2315</ele>
        <time>2011-09-10T13:10:37Z</time>
      </trkpt>
      <trkpt lat="44.88176" lon="6.80801">
        <ele>2316</ele>
        <time>2011-09-10T13:10:48Z</time>
      </trkpt>
      <trkpt lat="44.88185" lon="6.8077">
        <ele>2316</ele>
        <time>2011-09-10T13:11:08Z</time>
      </trkpt>
      <trkpt lat="44.88193" lon="6.8074">
        <ele>2317</ele>
        <time>2011-09-10T13:11:20Z</time>
      </trkpt>
      <trkpt lat="44.88207" lon="6.80712">
        <ele>2315</ele>
        <time>2011-09-10T13:11:30Z</time>
      </trkpt>
      <trkpt lat="44.88224" lon="6.80687">
        <ele>2317</ele>
        <time>2011-09-10T13:11:45Z</time>
      </trkpt>
      <trkpt lat="44.88237" lon="6.80659">
        <ele>2319</ele>
        <time>2011-09-10T13:12:06Z</time>
      </trkpt>
      <trkpt lat="44.88244" lon="6.80627">
        <ele>2319</ele>
        <time>2011-09-10T13:12:26Z</time>
      </trkpt>
      <trkpt lat="44.88252" lon="6.80595">
        <ele>2317</ele>
        <time>2011-09-10T13:12:46Z</time>
      </trkpt>
      <trkpt lat="44.88262" lon="6.80565">
        <ele>2311</ele>
        <time>2011-09-10T13:13:18Z</time>
      </trkpt>
      <trkpt lat="44.88281" lon="6.80545">
        <ele>2298</ele>
        <time>2011-09-10T13:13:28Z</time>
      </trkpt>
      <trkpt lat="44.88297" lon="6.8052">
        <ele>2309.4</ele>
        <time>2011-09-10T13:13:34Z</time>
      </trkpt>
      <trkpt lat="44.88307" lon="6.80489">
        <ele>2306.2</ele>
        <time>2011-09-10T13:13:38Z</time>
      </trkpt>
      <trkpt lat="44.88316" lon="6.80458">
        <ele>2285</ele>
        <time>2011-09-10T13:13:43Z</time>
      </trkpt>
      <trkpt lat="44.88319" lon="6.80425">
        <ele>2286</ele>
        <time>2011-09-10T13:13:56Z</time>
      </trkpt>
      <trkpt lat="44.88313" lon="6.80393">
        <ele>2281</ele>
        <time>2011-09-10T13:14:12Z</time>
      </trkpt>
      <trkpt lat="44.88297" lon="6.80366">
        <ele>2278</ele>
        <time>2011-09-10T13:14:25Z</time>
      </trkpt>
      <trkpt lat="44.88307" lon="6.80336">
        <ele>2272</ele>
        <time>2011-09-10T13:14:39Z</time>
      </trkpt>
      <trkpt lat="44.88324" lon="6.80312">
        <ele>2266</ele>
        <time>2011-09-10T13:14:49Z</time>
      </trkpt>
      <trkpt lat="44.88332" lon="6.80281">
        <ele>2257</ele>
        <time>2011-09-10T13:15:00Z</time>
      </trkpt>
      <trkpt lat="44.88339" lon="6.8025">
        <ele>2251</ele>
        <time>2011-09-10T13:17:10Z</time>
      </trkpt>
      <trkpt lat="44.88353" lon="6.80221">
        <ele>2246</ele>
        <time>2011-09-10T13:17:18Z</time>
      </trkpt>
      <trkpt lat="44.88367" lon="6.80188">
        <ele>2243</ele>
        <time>2011-09-10T13:17:23Z</time>
      </trkpt>
      <trkpt lat="44.88381" lon="6.80156">
        <ele>2238</ele>
        <time>2011-09-10T13:17:30Z</time>
      </trkpt>
      <trkpt lat="44.88393" lon="6.80128">
        <ele>2253.8</ele>
        <time>2011-09-10T13:17:35Z</time>
      </trkpt>
      <trkpt lat="44.88397" lon="6.80095">
        <ele>2232</ele>
        <time>2011-09-10T13:17:55Z</time>
      </trkpt>
      <trkpt lat="44.88406" lon="6.80064">
        <ele>2225</ele>
        <time>2011-09-10T13:18:12Z</time>
      </trkpt>
      <trkpt lat="44.88418" lon="6.80036">
        <ele>2222</ele>
        <time>2011-09-10T13:18:19Z</time>
      </trkpt>
      <trkpt lat="44.88439" lon="6.80023">
        <ele>2216</ele>
        <time>2011-09-10T13:18:28Z</time>
      </trkpt>
      <trkpt lat="44.88454" lon="6.79996">
        <ele>2205</ele>
        <time>2011-09-10T13:18:41Z</time>
      </trkpt>
      <trkpt lat="44.88473" lon="6.79975">
        <ele>2200</ele>
        <time>2011-09-10T13:19:05Z</time>
      </trkpt>
      <trkpt lat="44.88495" lon="6.79965">
        <ele>2197</ele>
        <time>2011-09-10T13:19:22Z</time>
      </trkpt>
      <trkpt lat="44.88513" lon="6.79986">
        <ele>2198</ele>
        <time>2011-09-10T13:20:06Z</time>
      </trkpt>
      <trkpt lat="44.88535" lon="6.8">
        <ele>2198</ele>
        <time>2011-09-10T13:20:17Z</time>
      </trkpt>
      <trkpt lat="44.88556" lon="6.80014">
        <ele>2196</ele>
        <time>2011-09-10T13:20:29Z</time>
      </trkpt>
      <trkpt lat="44.88577" lon="6.8003">
        <ele>2199</ele>
        <time>2011-09-10T13:20:44Z</time>
      </trkpt>
      <trkpt lat="44.88598" lon="6.80046">
        <ele>2200</ele>
        <time>2011-09-10T13:21:48Z</time>
      </trkpt>
      <trkpt lat="44.88612" lon="6.80075">
        <ele>2199</ele>
        <time>2011-09-10T13:23:06Z</time>
      </trkpt>
      <trkpt lat="44.88621" lon="6.80107">
        <ele>2198</ele>
        <time>2011-09-10T13:23:20Z</time>
      </trkpt>
      <trkpt lat="44.88622" lon="6.80142">
        <ele>2196</ele>
        <time>2011-09-10T13:23:29Z</time>
      </trkpt>
      <trkpt lat="44.88629" lon="6.80173">
        <ele>2196</ele>
        <time>2011-09-10T13:23:37Z</time>
      </trkpt>
      <trkpt lat="44.8864" lon="6.80204">
        <ele>2195</ele>
        <time>2011-09-10T13:23:47Z</time>
      </trkpt>
      <trkpt lat="44.88659" lon="6.80227">
        <ele>2195</ele>
        <time>2011-09-10T13:23:57Z</time>
      </trkpt>
      <trkpt lat="44.88673" lon="6.80253">
        <ele>2196</ele>
        <time>2011-09-10T13:24:04Z</time>
      </trkpt>
      <trkpt lat="44.88685" lon="6.80283">
        <ele>2195</ele>
        <time>2011-09-10T13:24:12Z</time>
      </trkpt>
      <trkpt lat="44.88694" lon="6.80313">
        <ele>2196</ele>
        <time>2011-09-10T13:24:19Z</time>
      </trkpt>
      <trkpt lat="44.88701" lon="6.80347">
        <ele>2195</ele>
        <time>2011-09-10T13:24:27Z</time>
      </trkpt>
      <trkpt lat="44.88704" lon="6.80379">
        <ele>2211.1</ele>
        <time>2011-09-10T13:24:34Z</time>
      </trkpt>
      <trkpt lat="44.88712" lon="6.8041">
        <ele>2195</ele>
        <time>2011-09-10T13:24:43Z</time>
      </trkpt>
      <trkpt lat="44.88724" lon="6.80441">
        <ele>2193</ele>
        <time>2011-09-10T13:24:52Z</time>
      </trkpt>
      <trkpt lat="44.8874" lon="6.80467">
        <ele>2193</ele>
        <time>2011-09-10T13:25:01Z</time>
      </trkpt>
      <trkpt lat="44.88756" lon="6.8049">
        <ele>2192</ele>
        <time>2011-09-10T13:25:10Z</time>
      </trkpt>
      <trkpt lat="44.8877" lon="6.8052">
        <ele>2194</ele>
        <time>2011-09-10T13:25:19Z</time>
      </trkpt>
      <trkpt lat="44.88778" lon="6.80551">
        <ele>2193</ele>
        <time>2011-09-10T13:25:26Z</time>
      </trkpt>
      <trkpt lat="44.88788" lon="6.80581">
        <ele>2194</ele>
        <time>2011-09-10T13:25:35Z</time>
      </trkpt>
      <trkpt lat="44.888" lon="6.8061">
        <ele>2193</ele>
        <time>2011-09-10T13:27:39Z</time>
      </trkpt>
      <trkpt lat="44.88802" lon="6.80645">
        <ele>2192</ele>
        <time>2011-09-10T13:28:06Z</time>
      </trkpt>
      <trkpt lat="44.88802" lon="6.80678">
        <ele>2191</ele>
        <time>2011-09-10T13:28:23Z</time>
      </trkpt>
      <trkpt lat="44.88806" lon="6.8071">
        <ele>2189</ele>
        <time>2011-09-10T13:29:24Z</time>
      </trkpt>
      <trkpt lat="44.88816" lon="6.80741">
        <ele>2188</ele>
        <time>2011-09-10T13:29:34Z</time>
      </trkpt>
      <trkpt lat="44.88823" lon="6.80772">
        <ele>2186</ele>
        <time>2011-09-10T13:29:57Z</time>
      </trkpt>
      <trkpt lat="44.88833" lon="6.80801">
        <ele>2184</ele>
        <time>2011-09-10T13:30:19Z</time>
      </trkpt>
      <trkpt lat="44.88842" lon="6.80832">
        <ele>2184</ele>
        <time>2011-09-10T13:30:31Z</time>
      </trkpt>
      <trkpt lat="44.88861" lon="6.80857">
        <ele>2186</ele>
        <time>2011-09-10T13:30:58Z</time>
      </trkpt>
      <trkpt lat="44.88874" lon="6.80887">
        <ele>2185</ele>
        <time>2011-09-10T13:31:06Z</time>
      </trkpt>
      <trkpt lat="44.88888" lon="6.80914">
        <ele>2184</ele>
        <time>2011-09-10T13:31:14Z</time>
      </trkpt>
      <trkpt lat="44.88907" lon="6.80938">
        <ele>2183</ele>
        <time>2011-09-10T13:31:22Z</time>
      </trkpt>
      <trkpt lat="44.88924" lon="6.80962">
        <ele>2181</ele>
        <time>2011-09-10T13:31:38Z</time>
      </trkpt>
      <trkpt lat="44.88939" lon="6.80988">
        <ele>2180</ele>
        <time>2011-09-10T13:31:52Z</time>
      </trkpt>
      <trkpt lat="44.88958" lon="6.81007">
        <ele>2179</ele>
        <time>2011-09-10T13:31:59Z</time>
      </trkpt>
      <trkpt lat="44.88981" lon="6.8102">
        <ele>2182</ele>
        <time>2011-09-10T13:32:12Z</time>
      </trkpt>
      <trkpt lat="44.89002" lon="6.81038">
        <ele>2183</ele>
        <time>2011-09-10T13:32:25Z</time>
      </trkpt>
      <trkpt lat="44.89018" lon="6.81061">
        <ele>2184</ele>
        <time>2011-09-10T13:32:37Z</time>
      </trkpt>
      <trkpt lat="44.89038" lon="6.81079">
        <ele>2186</ele>
        <time>2011-09-10T13:32:52Z</time>
      </trkpt>
      <trkpt lat="44.89058" lon="6.81095">
        <ele>2188</ele>
        <time>2011-09-10T13:33:06Z</time>
      </trkpt>
      <trkpt lat="44.89076" lon="6.81116">
        <ele>2192</ele>
        <time>2011-09-10T13:33:30Z</time>
      </trkpt>
      <trkpt lat="44.89097" lon="6.81129">
        <ele>2195</ele>
        <time>2011-09-10T13:34:20Z</time>
      </trkpt>
      <trkpt lat="44.89121" lon="6.81128">
        <ele>2200</ele>
        <time>2011-09-10T13:35:14Z</time>
      </trkpt>
      <trkpt lat="44.89145" lon="6.81125">
        <ele>2204</ele>
        <time>2011-09-10T13:35:39Z</time>
      </trkpt>
      <trkpt lat="44.89168" lon="6.81132">
        <ele>2205</ele>
        <time>2011-09-10T13:36:01Z</time>
      </trkpt>
      <trkpt lat="44.8919" lon="6.81145">
        <ele>2207</ele>
        <time>2011-09-10T13:36:23Z</time>
      </trkpt>
      <trkpt lat="44.89212" lon="6.81156">
        <ele>2209</ele>
        <time>2011-09-10T13:36:44Z</time>
      </trkpt>
      <trkpt lat="44.89234" lon="6.81163">
        <ele>2212</ele>
        <time>2011-09-10T13:37:11Z</time>
      </trkpt>
      <trkpt lat="44.89257" lon="6.81162">
        <ele>2216</ele>
        <time>2011-09-10T13:37:37Z</time>
      </trkpt>
      <trkpt lat="44.89281" lon="6.81161">
        <ele>2218</ele>
        <time>2011-09-10T13:38:03Z</time>
      </trkpt>
      <trkpt lat="44.89303" lon="6.81173">
        <ele>2219</ele>
        <time>2011-09-10T13:38:26Z</time>
      </trkpt>
      <trkpt lat="44.89327" lon="6.81177">
        <ele>2221</ele>
        <time>2011-09-10T13:38:46Z</time>
      </trkpt>
      <trkpt lat="44.8935" lon="6.8117">
        <ele>2223</ele>
        <time>2011-09-10T13:39:10Z</time>
      </trkpt>
      <trkpt lat="44.89371" lon="6.81183">
        <ele>2224</ele>
        <time>2011-09-10T13:39:32Z</time>
      </trkpt>
      <trkpt lat="44.89394" lon="6.8119">
        <ele>2226</ele>
        <time>2011-09-10T13:39:56Z</time>
      </trkpt>
      <trkpt lat="44.89418" lon="6.81189">
        <ele>2228</ele>
        <time>2011-09-10T13:40:36Z</time>
      </trkpt>
      <trkpt lat="44.89421" lon="6.81157">
        <ele>2232</ele>
        <time>2011-09-10T13:41:08Z</time>
      </trkpt>
      <trkpt lat="44.89444" lon="6.81155">
        <ele>2236</ele>
        <time>2011-09-10T13:41:34Z</time>
      </trkpt>
      <trkpt lat="44.89468" lon="6.81155">
        <ele>2239</ele>
        <time>2011-09-10T13:42:06Z</time>
      </trkpt>
      <trkpt lat="44.89491" lon="6.8116">
        <ele>2244</ele>
        <time>2011-09-10T13:42:37Z</time>
      </trkpt>
      <trkpt lat="44.89514" lon="6.81165">
        <ele>2248</ele>
        <time>2011-09-10T13:43:11Z</time>
      </trkpt>
      <trkpt lat="44.89537" lon="6.81171">
        <ele>2252</ele>
        <time>2011-09-10T13:43:39Z</time>
      </trkpt>
      <trkpt lat="44.89561" lon="6.81171">
        <ele>2256</ele>
        <time>2011-09-10T13:44:06Z</time>
      </trkpt>
      <trkpt lat="44.89585" lon="6.81168">
        <ele>2260</ele>
        <time>2011-09-10T13:44:32Z</time>
      </trkpt>
      <trkpt lat="44.89572" lon="6.81141">
        <ele>2268</ele>
        <time>2011-09-10T13:45:19Z</time>
      </trkpt>
      <trkpt lat="44.89594" lon="6.81129">
        <ele>2276</ele>
        <time>2011-09-10T13:46:41Z</time>
      </trkpt>
      <trkpt lat="44.89617" lon="6.81125">
        <ele>2281</ele>
        <time>2011-09-10T13:47:13Z</time>
      </trkpt>
      <trkpt lat="44.89641" lon="6.8113">
        <ele>2281</ele>
        <time>2011-09-10T13:47:38Z</time>
      </trkpt>
      <trkpt lat="44.89663" lon="6.81145">
        <ele>2280</ele>
        <time>2011-09-10T13:47:46Z</time>
      </trkpt>
      <trkpt lat="44.89685" lon="6.81157">
        <ele>2282</ele>
        <time>2011-09-10T13:52:19Z</time>
      </trkpt>
      <trkpt lat="44.89705" lon="6.81176">
        <ele>2281</ele>
        <time>2011-09-10T13:52:28Z</time>
      </trkpt>
      <trkpt lat="44.89727" lon="6.81197">
        <ele>2281</ele>
        <time>2011-09-10T13:52:38Z</time>
      </trkpt>
      <trkpt lat="44.89747" lon="6.81215">
        <ele>2281</ele>
        <time>2011-09-10T13:52:46Z</time>
      </trkpt>
      <trkpt lat="44.89769" lon="6.81232">
        <ele>2281</ele>
        <time>2011-09-10T13:52:55Z</time>
      </trkpt>
      <trkpt lat="44.89788" lon="6.81252">
        <ele>2281</ele>
        <time>2011-09-10T13:53:03Z</time>
      </trkpt>
      <trkpt lat="44.89805" lon="6.81275">
        <ele>2281</ele>
        <time>2011-09-10T13:53:12Z</time>
      </trkpt>
      <trkpt lat="44.89827" lon="6.81288">
        <ele>2281</ele>
        <time>2011-09-10T13:53:20Z</time>
      </trkpt>
      <trkpt lat="44.89844" lon="6.81314">
        <ele>2281</ele>
        <time>2011-09-10T13:53:29Z</time>
      </trkpt>
      <trkpt lat="44.89855" lon="6.81346">
        <ele>2279</ele>
        <time>2011-09-10T13:53:35Z</time>
      </trkpt>
      <trkpt lat="44.89852" lon="6.8138">
        <ele>2276</ele>
        <time>2011-09-10T13:53:41Z</time>
      </trkpt>
      <trkpt lat="44.89868" lon="6.81405">
        <ele>2272</ele>
        <time>2011-09-10T13:53:54Z</time>
      </trkpt>
      <trkpt lat="44.89889" lon="6.81386">
        <ele>2270</ele>
        <time>2011-09-10T13:54:01Z</time>
      </trkpt>
      <trkpt lat="44.89915" lon="6.8139">
        <ele>2269</ele>
        <time>2011-09-10T13:54:07Z</time>
      </trkpt>
      <trkpt lat="44.89935" lon="6.81407">
        <ele>2268</ele>
        <time>2011-09-10T13:54:12Z</time>
      </trkpt>
      <trkpt lat="44.89958" lon="6.81421">
        <ele>2266</ele>
        <time>2011-09-10T13:54:18Z</time>
      </trkpt>
      <trkpt lat="44.89978" lon="6.81439">
        <ele>2265</ele>
        <time>2011-09-10T13:54:24Z</time>
      </trkpt>
      <trkpt lat="44.9" lon="6.81453">
        <ele>2265</ele>
        <time>2011-09-10T13:54:31Z</time>
      </trkpt>
      <trkpt lat="44.90023" lon="6.81457">
        <ele>2264</ele>
        <time>2011-09-10T13:54:40Z</time>
      </trkpt>
      <trkpt lat="44.90047" lon="6.81462">
        <ele>2263</ele>
        <time>2011-09-10T13:54:49Z</time>
      </trkpt>
      <trkpt lat="44.90024" lon="6.81456">
        <ele>2265</ele>
        <time>2011-09-10T13:56:48Z</time>
      </trkpt>
      <trkpt lat="44.9" lon="6.81451">
        <ele>2265</ele>
        <time>2011-09-10T13:56:58Z</time>
      </trkpt>
      <trkpt lat="44.8998" lon="6.81435">
        <ele>2265</ele>
        <time>2011-09-10T13:57:09Z</time>
      </trkpt>
      <trkpt lat="44.89959" lon="6.81419">
        <ele>2267</ele>
        <time>2011-09-10T13:57:20Z</time>
      </trkpt>
      <trkpt lat="44.89937" lon="6.81406">
        <ele>2268</ele>
        <time>2011-09-10T13:57:29Z</time>
      </trkpt>
      <trkpt lat="44.89917" lon="6.81392">
        <ele>2270</ele>
        <time>2011-09-10T13:57:39Z</time>
      </trkpt>
      <trkpt lat="44.89894" lon="6.81385">
        <ele>2271</ele>
        <time>2011-09-10T13:57:52Z</time>
      </trkpt>
      <trkpt lat="44.89875" lon="6.81404">
        <ele>2272</ele>
        <time>2011-09-10T13:58:03Z</time>
      </trkpt>
      <trkpt lat="44.89851" lon="6.81407">
        <ele>2274</ele>
        <time>2011-09-10T13:58:18Z</time>
      </trkpt>
      <trkpt lat="44.89851" lon="6.81375">
        <ele>2276</ele>
        <time>2011-09-10T13:58:35Z</time>
      </trkpt>
      <trkpt lat="44.89853" lon="6.81342">
        <ele>2278</ele>
        <time>2011-09-10T13:58:49Z</time>
      </trkpt>
      <trkpt lat="44.8984" lon="6.81314">
        <ele>2280</ele>
        <time>2011-09-10T13:59:02Z</time>
      </trkpt>
      <trkpt lat="44.89822" lon="6.8129">
        <ele>2281</ele>
        <time>2011-09-10T13:59:16Z</time>
      </trkpt>
      <trkpt lat="44.898" lon="6.81277">
        <ele>2281</ele>
        <time>2011-09-10T13:59:28Z</time>
      </trkpt>
      <trkpt lat="44.89784" lon="6.81253">
        <ele>2281</ele>
        <time>2011-09-10T13:59:38Z</time>
      </trkpt>
      <trkpt lat="44.89764" lon="6.81232">
        <ele>2281</ele>
        <time>2011-09-10T13:59:48Z</time>
      </trkpt>
      <trkpt lat="44.89742" lon="6.81213">
        <ele>2281</ele>
        <time>2011-09-10T14:00:00Z</time>
      </trkpt>
      <trkpt lat="44.89721" lon="6.81195">
        <ele>2282</ele>
        <time>2011-09-10T14:00:10Z</time>
      </trkpt>
      <trkpt lat="44.89701" lon="6.81177">
        <ele>2280</ele>
        <time>2011-09-10T14:00:21Z</time>
      </trkpt>
      <trkpt lat="44.89681" lon="6.81159">
        <ele>2282</ele>
        <time>2011-09-10T14:00:32Z</time>
      </trkpt>
      <trkpt lat="44.89705" lon="6.81166">
        <ele>2285</ele>
        <time>2011-09-10T14:02:23Z</time>
      </trkpt>
      <trkpt lat="44.89726" lon="6.81181">
        <ele>2283</ele>
        <time>2011-09-10T14:02:32Z</time>
      </trkpt>
      <trkpt lat="44.89746" lon="6.81196">
        <ele>2284</ele>
        <time>2011-09-10T14:02:41Z</time>
      </trkpt>
      <trkpt lat="44.89767" lon="6.81215">
        <ele>2284</ele>
        <time>2011-09-10T14:02:51Z</time>
      </trkpt>
      <trkpt lat="44.89787" lon="6.81236">
        <ele>2283</ele>
        <time>2011-09-10T14:03:01Z</time>
      </trkpt>
      <trkpt lat="44.89807" lon="6.81256">
        <ele>2282</ele>
        <time>2011-09-10T14:03:11Z</time>
      </trkpt>
      <trkpt lat="44.89828" lon="6.81272">
        <ele>2284</ele>
        <time>2011-09-10T14:03:23Z</time>
      </trkpt>
      <trkpt lat="44.89849" lon="6.81293">
        <ele>2284</ele>
        <time>2011-09-10T14:03:32Z</time>
      </trkpt>
      <trkpt lat="44.89869" lon="6.81308">
        <ele>2286</ele>
        <time>2011-09-10T14:03:43Z</time>
      </trkpt>
      <trkpt lat="44.89893" lon="6.81319">
        <ele>2286</ele>
        <time>2011-09-10T14:03:56Z</time>
      </trkpt>
      <trkpt lat="44.89917" lon="6.81323">
        <ele>2289</ele>
        <time>2011-09-10T14:04:11Z</time>
      </trkpt>
      <trkpt lat="44.8994" lon="6.81324">
        <ele>2288</ele>
        <time>2011-09-10T14:05:09Z</time>
      </trkpt>
      <trkpt lat="44.89963" lon="6.8133">
        <ele>2297</ele>
        <time>2011-09-10T14:05:46Z</time>
      </trkpt>
      <trkpt lat="44.89986" lon="6.81326">
        <ele>2306</ele>
        <time>2011-09-10T14:06:26Z</time>
      </trkpt>
      <trkpt lat="44.90009" lon="6.81332">
        <ele>2308</ele>
        <time>2011-09-10T14:06:51Z</time>
      </trkpt>
      <trkpt lat="44.90032" lon="6.81325">
        <ele>2311</ele>
        <time>2011-09-10T14:07:14Z</time>
      </trkpt>
      <trkpt lat="44.90054" lon="6.81316">
        <ele>2317</ele>
        <time>2011-09-10T14:07:39Z</time>
      </trkpt>
      <trkpt lat="44.90077" lon="6.81319">
        <ele>2322</ele>
        <time>2011-09-10T14:08:06Z</time>
      </trkpt>
      <trkpt lat="44.90101" lon="6.81321">
        <ele>2329</ele>
        <time>2011-09-10T14:08:48Z</time>
      </trkpt>
      <trkpt lat="44.90124" lon="6.81321">
        <ele>2334</ele>
        <time>2011-09-10T14:09:16Z</time>
      </trkpt>
      <trkpt lat="44.90147" lon="6.81324">
        <ele>2336</ele>
        <time>2011-09-10T14:09:38Z</time>
      </trkpt>
      <trkpt lat="44.9017" lon="6.81327">
        <ele>2342</ele>
        <time>2011-09-10T14:10:04Z</time>
      </trkpt>
      <trkpt lat="44.90193" lon="6.8133">
        <ele>2346</ele>
        <time>2011-09-10T14:10:29Z</time>
      </trkpt>
      <trkpt lat="44.90212" lon="6.81349">
        <ele>2357</ele>
        <time>2011-09-10T14:11:13Z</time>
      </trkpt>
      <trkpt lat="44.90233" lon="6.81335">
        <ele>2361</ele>
        <time>2011-09-10T14:12:11Z</time>
      </trkpt>
      <trkpt lat="44.90238" lon="6.81303">
        <ele>2374</ele>
        <time>2011-09-10T14:13:30Z</time>
      </trkpt>
      <trkpt lat="44.90224" lon="6.81277">
        <ele>2385</ele>
        <time>2011-09-10T14:14:50Z</time>
      </trkpt>
      <trkpt lat="44.902" lon="6.8128">
        <ele>2362</ele>
        <time>2011-09-10T14:17:08Z</time>
      </trkpt>
      <trkpt lat="44.90192" lon="6.81313">
        <ele>2350</ele>
        <time>2011-09-10T14:18:11Z</time>
      </trkpt>
      <trkpt lat="44.90171" lon="6.81328">
        <ele>2339</ele>
        <time>2011-09-10T14:19:36Z</time>
      </trkpt>
      <trkpt lat="44.90148" lon="6.81324">
        <ele>2336</ele>
        <time>2011-09-10T14:19:59Z</time>
      </trkpt>
      <trkpt lat="44.90125" lon="6.8132">
        <ele>2333</ele>
        <time>2011-09-10T14:20:48Z</time>
      </trkpt>
      <trkpt lat="44.90102" lon="6.81324">
        <ele>2327</ele>
        <time>2011-09-10T14:21:33Z</time>
      </trkpt>
      <trkpt lat="44.90078" lon="6.81319">
        <ele>2321</ele>
        <time>2011-09-10T14:21:53Z</time>
      </trkpt>
      <trkpt lat="44.90055" lon="6.81317">
        <ele>2315</ele>
        <time>2011-09-10T14:22:14Z</time>
      </trkpt>
      <trkpt lat="44.90032" lon="6.81328">
        <ele>2309</ele>
        <time>2011-09-10T14:22:35Z</time>
      </trkpt>
      <trkpt lat="44.90009" lon="6.81333">
        <ele>2307</ele>
        <time>2011-09-10T14:22:50Z</time>
      </trkpt>
      <trkpt lat="44.89987" lon="6.81327">
        <ele>2303</ele>
        <time>2011-09-10T14:23:49Z</time>
      </trkpt>
      <trkpt lat="44.89964" lon="6.81334">
        <ele>2295</ele>
        <time>2011-09-10T14:24:13Z</time>
      </trkpt>
      <trkpt lat="44.89941" lon="6.81324">
        <ele>2288</ele>
        <time>2011-09-10T14:26:21Z</time>
      </trkpt>
      <trkpt lat="44.89919" lon="6.81324">
        <ele>2289</ele>
        <time>2011-09-10T14:27:58Z</time>
      </trkpt>
      <trkpt lat="44.89894" lon="6.81324">
        <ele>2287</ele>
        <time>2011-09-10T14:28:42Z</time>
      </trkpt>
      <trkpt lat="44.89871" lon="6.81312">
        <ele>2284</ele>
        <time>2011-09-10T14:28:48Z</time>
      </trkpt>
      <trkpt lat="44.89849" lon="6.813">
        <ele>2283</ele>
        <time>2011-09-10T14:28:53Z</time>
      </trkpt>
      <trkpt lat="44.8983" lon="6.81278">
        <ele>2283</ele>
        <time>2011-09-10T14:28:58Z</time>
      </trkpt>
      <trkpt lat="44.89808" lon="6.81261">
        <ele>2283</ele>
        <time>2011-09-10T14:29:08Z</time>
      </trkpt>
      <trkpt lat="44.89787" lon="6.8124">
        <ele>2282</ele>
        <time>2011-09-10T14:29:16Z</time>
      </trkpt>
      <trkpt lat="44.89769" lon="6.81221">
        <ele>2284</ele>
        <time>2011-09-10T14:29:28Z</time>
      </trkpt>
      <trkpt lat="44.89749" lon="6.81202">
        <ele>2284</ele>
        <time>2011-09-10T14:29:43Z</time>
      </trkpt>
      <trkpt lat="44.89728" lon="6.81184">
        <ele>2284</ele>
        <time>2011-09-10T14:29:55Z</time>
      </trkpt>
      <trkpt lat="44.89707" lon="6.81166">
        <ele>2284</ele>
        <time>2011-09-10T14:30:09Z</time>
      </trkpt>
      <trkpt lat="44.89685" lon="6.81152">
        <ele>2281</ele>
        <time>2011-09-10T14:30:20Z</time>
      </trkpt>
      <trkpt lat="44.89674" lon="6.81123">
        <ele>2277</ele>
        <time>2011-09-10T14:30:33Z</time>
      </trkpt>
      <trkpt lat="44.89673" lon="6.81089">
        <ele>2271</ele>
        <time>2011-09-10T14:30:40Z</time>
      </trkpt>
      <trkpt lat="44.89666" lon="6.81055">
        <ele>2267</ele>
        <time>2011-09-10T14:30:46Z</time>
      </trkpt>
      <trkpt lat="44.89662" lon="6.8102">
        <ele>2263</ele>
        <time>2011-09-10T14:30:53Z</time>
      </trkpt>
      <trkpt lat="44.89662" lon="6.80985">
        <ele>2256</ele>
        <time>2011-09-10T14:31:00Z</time>
      </trkpt>
      <trkpt lat="44.89664" lon="6.80952">
        <ele>2253</ele>
        <time>2011-09-10T14:31:05Z</time>
      </trkpt>
      <trkpt lat="44.89679" lon="6.80925">
        <ele>2247</ele>
        <time>2011-09-10T14:31:13Z</time>
      </trkpt>
      <trkpt lat="44.89702" lon="6.80936">
        <ele>2244</ele>
        <time>2011-09-10T14:31:18Z</time>
      </trkpt>
      <trkpt lat="44.89725" lon="6.8095">
        <ele>2240</ele>
        <time>2011-09-10T14:31:25Z</time>
      </trkpt>
      <trkpt lat="44.89749" lon="6.80963">
        <ele>2236</ele>
        <time>2011-09-10T14:31:31Z</time>
      </trkpt>
      <trkpt lat="44.89775" lon="6.80965">
        <ele>2232</ele>
        <time>2011-09-10T14:31:38Z</time>
      </trkpt>
      <trkpt lat="44.89801" lon="6.8096">
        <ele>2227</ele>
        <time>2011-09-10T14:31:43Z</time>
      </trkpt>
      <trkpt lat="44.89823" lon="6.80944">
        <ele>2222</ele>
        <time>2011-09-10T14:31:49Z</time>
      </trkpt>
      <trkpt lat="44.89845" lon="6.80964">
        <ele>2218</ele>
        <time>2011-09-10T14:31:55Z</time>
      </trkpt>
      <trkpt lat="44.89862" lon="6.80988">
        <ele>2215</ele>
        <time>2011-09-10T14:32:03Z</time>
      </trkpt>
      <trkpt lat="44.89882" lon="6.81009">
        <ele>2211</ele>
        <time>2011-09-10T14:32:10Z</time>
      </trkpt>
      <trkpt lat="44.89902" lon="6.80986">
        <ele>2207</ele>
        <time>2011-09-10T14:32:18Z</time>
      </trkpt>
      <trkpt lat="44.89921" lon="6.80962">
        <ele>2201</ele>
        <time>2011-09-10T14:32:25Z</time>
      </trkpt>
      <trkpt lat="44.89938" lon="6.80936">
        <ele>2197</ele>
        <time>2011-09-10T14:32:32Z</time>
      </trkpt>
      <trkpt lat="44.8996" lon="6.80916">
        <ele>2195</ele>
        <time>2011-09-10T14:32:40Z</time>
      </trkpt>
      <trkpt lat="44.89975" lon="6.80891">
        <ele>2192</ele>
        <time>2011-09-10T14:32:48Z</time>
      </trkpt>
      <trkpt lat="44.89986" lon="6.80861">
        <ele>2188</ele>
        <time>2011-09-10T14:32:55Z</time>
      </trkpt>
      <trkpt lat="44.90001" lon="6.80832">
        <ele>2184</ele>
        <time>2011-09-10T14:33:03Z</time>
      </trkpt>
      <trkpt lat="44.90021" lon="6.8081">
        <ele>2181</ele>
        <time>2011-09-10T14:33:11Z</time>
      </trkpt>
      <trkpt lat="44.90035" lon="6.80784">
        <ele>2180</ele>
        <time>2011-09-10T14:33:23Z</time>
      </trkpt>
      <trkpt lat="44.90055" lon="6.80761">
        <ele>2177</ele>
        <time>2011-09-10T14:33:33Z</time>
      </trkpt>
      <trkpt lat="44.90073" lon="6.80737">
        <ele>2172</ele>
        <time>2011-09-10T14:33:40Z</time>
      </trkpt>
      <trkpt lat="44.90084" lon="6.80705">
        <ele>2165</ele>
        <time>2011-09-10T14:33:48Z</time>
      </trkpt>
      <trkpt lat="44.90097" lon="6.80672">
        <ele>2162</ele>
        <time>2011-09-10T14:33:55Z</time>
      </trkpt>
      <trkpt lat="44.90093" lon="6.8064">
        <ele>2156</ele>
        <time>2011-09-10T14:34:01Z</time>
      </trkpt>
      <trkpt lat="44.90098" lon="6.80603">
        <ele>2168.4</ele>
        <time>2011-09-10T14:34:08Z</time>
      </trkpt>
      <trkpt lat="44.90111" lon="6.80576">
        <ele>2163.2</ele>
        <time>2011-09-10T14:34:13Z</time>
      </trkpt>
      <trkpt lat="44.90134" lon="6.80562">
        <ele>2144</ele>
        <time>2011-09-10T14:34:18Z</time>
      </trkpt>
      <trkpt lat="44.9014" lon="6.80528">
        <ele>2136</ele>
        <time>2011-09-10T14:34:30Z</time>
      </trkpt>
      <trkpt lat="44.90163" lon="6.80515">
        <ele>2131</ele>
        <time>2011-09-10T14:34:44Z</time>
      </trkpt>
      <trkpt lat="44.90162" lon="6.80482">
        <ele>2126</ele>
        <time>2011-09-10T14:34:51Z</time>
      </trkpt>
      <trkpt lat="44.90159" lon="6.80447">
        <ele>2120</ele>
        <time>2011-09-10T14:34:58Z</time>
      </trkpt>
      <trkpt lat="44.90171" lon="6.80419">
        <ele>2117</ele>
        <time>2011-09-10T14:35:05Z</time>
      </trkpt>
      <trkpt lat="44.90195" lon="6.80416">
        <ele>2112</ele>
        <time>2011-09-10T14:35:13Z</time>
      </trkpt>
      <trkpt lat="44.9022" lon="6.80418">
        <ele>2108</ele>
        <time>2011-09-10T14:35:21Z</time>
      </trkpt>
      <trkpt lat="44.90244" lon="6.80428">
        <ele>2100</ele>
        <time>2011-09-10T14:35:32Z</time>
      </trkpt>
      <trkpt lat="44.90232" lon="6.80397">
        <ele>2094</ele>
        <time>2011-09-10T14:35:50Z</time>
      </trkpt>
      <trkpt lat="44.90223" lon="6.80365">
        <ele>2090</ele>
        <time>2011-09-10T14:36:00Z</time>
      </trkpt>
      <trkpt lat="44.9022" lon="6.80332">
        <ele>2084</ele>
        <time>2011-09-10T14:36:13Z</time>
      </trkpt>
      <trkpt lat="44.90225" lon="6.80301">
        <ele>2078</ele>
        <time>2011-09-10T14:38:08Z</time>
      </trkpt>
      <trkpt lat="44.90222" lon="6.80267">
        <ele>2073</ele>
        <time>2011-09-10T14:38:20Z</time>
      </trkpt>
      <trkpt lat="44.90231" lon="6.80237">
        <ele>2068</ele>
        <time>2011-09-10T14:38:31Z</time>
      </trkpt>
      <trkpt lat="44.90247" lon="6.80212">
        <ele>2062</ele>
        <time>2011-09-10T14:38:40Z</time>
      </trkpt>
      <trkpt lat="44.9027" lon="6.80201">
        <ele>2058</ele>
        <time>2011-09-10T14:38:48Z</time>
      </trkpt>
      <trkpt lat="44.90279" lon="6.80171">
        <ele>2055</ele>
        <time>2011-09-10T14:38:55Z</time>
      </trkpt>
      <trkpt lat="44.90296" lon="6.80142">
        <ele>2050</ele>
        <time>2011-09-10T14:39:03Z</time>
      </trkpt>
      <trkpt lat="44.90312" lon="6.80113">
        <ele>2046</ele>
        <time>2011-09-10T14:39:09Z</time>
      </trkpt>
      <trkpt lat="44.90313" lon="6.8008">
        <ele>2045</ele>
        <time>2011-09-10T14:39:15Z</time>
      </trkpt>
      <trkpt lat="44.90306" lon="6.80047">
        <ele>2043</ele>
        <time>2011-09-10T14:39:20Z</time>
      </trkpt>
      <trkpt lat="44.90305" lon="6.80013">
        <ele>2040</ele>
        <time>2011-09-10T14:39:34Z</time>
      </trkpt>
      <trkpt lat="44.90296" lon="6.79981">
        <ele>2036</ele>
        <time>2011-09-10T14:39:40Z</time>
      </trkpt>
      <trkpt lat="44.90293" lon="6.79947">
        <ele>2032</ele>
        <time>2011-09-10T14:39:45Z</time>
      </trkpt>
      <trkpt lat="44.90301" lon="6.79912">
        <ele>2028</ele>
        <time>2011-09-10T14:39:51Z</time>
      </trkpt>
      <trkpt lat="44.90307" lon="6.79875">
        <ele>2024</ele>
        <time>2011-09-10T14:39:58Z</time>
      </trkpt>
      <trkpt lat="44.90302" lon="6.79839">
        <ele>2022</ele>
        <time>2011-09-10T14:40:04Z</time>
      </trkpt>
      <trkpt lat="44.90309" lon="6.79807">
        <ele>2019</ele>
        <time>2011-09-10T14:40:09Z</time>
      </trkpt>
      <trkpt lat="44.90306" lon="6.79771">
        <ele>2015</ele>
        <time>2011-09-10T14:40:18Z</time>
      </trkpt>
      <trkpt lat="44.90296" lon="6.79737">
        <ele>2011</ele>
        <time>2011-09-10T14:40:24Z</time>
      </trkpt>
      <trkpt lat="44.90279" lon="6.79708">
        <ele>2009</ele>
        <time>2011-09-10T14:40:31Z</time>
      </trkpt>
      <trkpt lat="44.90265" lon="6.79682">
        <ele>2005</ele>
        <time>2011-09-10T14:40:38Z</time>
      </trkpt>
      <trkpt lat="44.90248" lon="6.79658">
        <ele>2004</ele>
        <time>2011-09-10T14:40:46Z</time>
      </trkpt>
      <trkpt lat="44.90254" lon="6.79624">
        <ele>2002</ele>
        <time>2011-09-10T14:40:56Z</time>
      </trkpt>
      <trkpt lat="44.90257" lon="6.79591">
        <ele>2002</ele>
        <time>2011-09-10T14:41:08Z</time>
      </trkpt>
      <trkpt lat="44.90259" lon="6.79557">
        <ele>2002</ele>
        <time>2011-09-10T14:41:19Z</time>
      </trkpt>
      <trkpt lat="44.9024" lon="6.79537">
        <ele>2005</ele>
        <time>2011-09-10T14:42:24Z</time>
      </trkpt>
      <trkpt lat="44.90224" lon="6.79508">
        <ele>2004</ele>
        <time>2011-09-10T14:42:34Z</time>
      </trkpt>
      <trkpt lat="44.90213" lon="6.79478">
        <ele>2005</ele>
        <time>2011-09-10T14:42:43Z</time>
      </trkpt>
      <trkpt lat="44.90231" lon="6.79498">
        <ele>2005</ele>
        <time>2011-09-10T14:48:01Z</time>
      </trkpt>
      <trkpt lat="44.9024" lon="6.79532">
        <ele>2004</ele>
        <time>2011-09-10T14:48:31Z</time>
      </trkpt>
      <trkpt lat="44.9026" lon="6.79548">
        <ele>2002</ele>
        <time>2011-09-10T14:48:41Z</time>
      </trkpt>
      <trkpt lat="44.90257" lon="6.79581">
        <ele>2003</ele>
        <time>2011-09-10T14:48:55Z</time>
      </trkpt>
      <trkpt lat="44.90262" lon="6.79615">
        <ele>2002</ele>
        <time>2011-09-10T14:49:05Z</time>
      </trkpt>
      <trkpt lat="44.9028" lon="6.79636">
        <ele>2002</ele>
        <time>2011-09-10T14:49:16Z</time>
      </trkpt>
      <trkpt lat="44.90304" lon="6.79643">
        <ele>1998</ele>
        <time>2011-09-10T14:49:23Z</time>
      </trkpt>
      <trkpt lat="44.90327" lon="6.7966">
        <ele>1997</ele>
        <time>2011-09-10T14:49:28Z</time>
      </trkpt>
      <trkpt lat="44.90353" lon="6.79668">
        <ele>1997</ele>
        <time>2011-09-10T14:49:33Z</time>
      </trkpt>
      <trkpt lat="44.90378" lon="6.79663">
        <ele>1997</ele>
        <time>2011-09-10T14:49:38Z</time>
      </trkpt>
      <trkpt lat="44.90397" lon="6.79686">
        <ele>1996</ele>
        <time>2011-09-10T14:49:45Z</time>
      </trkpt>
      <trkpt lat="44.90413" lon="6.7971">
        <ele>1996</ele>
        <time>2011-09-10T14:49:51Z</time>
      </trkpt>
      <trkpt lat="44.90435" lon="6.79728">
        <ele>1995</ele>
        <time>2011-09-10T14:49:58Z</time>
      </trkpt>
      <trkpt lat="44.90461" lon="6.79742">
        <ele>1994</ele>
        <time>2011-09-10T14:50:04Z</time>
      </trkpt>
      <trkpt lat="44.90484" lon="6.7975">
        <ele>1994</ele>
        <time>2011-09-10T14:50:09Z</time>
      </trkpt>
      <trkpt lat="44.90511" lon="6.79751">
        <ele>1991</ele>
        <time>2011-09-10T14:50:16Z</time>
      </trkpt>
      <trkpt lat="44.90533" lon="6.79767">
        <ele>1987</ele>
        <time>2011-09-10T14:50:19Z</time>
      </trkpt>
      <trkpt lat="44.90549" lon="6.79796">
        <ele>1987</ele>
        <time>2011-09-10T14:50:23Z</time>
      </trkpt>
      <trkpt lat="44.90563" lon="6.79827">
        <ele>1986</ele>
        <time>2011-09-10T14:50:29Z</time>
      </trkpt>
      <trkpt lat="44.90581" lon="6.79857">
        <ele>1979</ele>
        <time>2011-09-10T14:50:36Z</time>
      </trkpt>
      <trkpt lat="44.90598" lon="6.79885">
        <ele>1978</ele>
        <time>2011-09-10T14:50:39Z</time>
      </trkpt>
      <trkpt lat="44.90614" lon="6.79911">
        <ele>1976</ele>
        <time>2011-09-10T14:50:43Z</time>
      </trkpt>
      <trkpt lat="44.90641" lon="6.79899">
        <ele>1973</ele>
        <time>2011-09-10T14:50:48Z</time>
      </trkpt>
      <trkpt lat="44.90666" lon="6.79893">
        <ele>1968</ele>
        <time>2011-09-10T14:50:53Z</time>
      </trkpt>
      <trkpt lat="44.9069" lon="6.79909">
        <ele>1969</ele>
        <time>2011-09-10T14:50:55Z</time>
      </trkpt>
      <trkpt lat="44.90708" lon="6.7993">
        <ele>1965</ele>
        <time>2011-09-10T14:51:00Z</time>
      </trkpt>
      <trkpt lat="44.90732" lon="6.7992">
        <ele>1962</ele>
        <time>2011-09-10T14:51:05Z</time>
      </trkpt>
      <trkpt lat="44.90757" lon="6.79915">
        <ele>1961</ele>
        <time>2011-09-10T14:51:11Z</time>
      </trkpt>
      <trkpt lat="44.9077" lon="6.79942">
        <ele>1957</ele>
        <time>2011-09-10T14:51:45Z</time>
      </trkpt>
      <trkpt lat="44.90767" lon="6.79975">
        <ele>1951</ele>
        <time>2011-09-10T14:51:53Z</time>
      </trkpt>
      <trkpt lat="44.90764" lon="6.80012">
        <ele>1943</ele>
        <time>2011-09-10T14:52:04Z</time>
      </trkpt>
      <trkpt lat="44.90763" lon="6.80048">
        <ele>1945.2</ele>
        <time>2011-09-10T14:52:16Z</time>
      </trkpt>
      <trkpt lat="44.90788" lon="6.80033">
        <ele>1931</ele>
        <time>2011-09-10T14:52:42Z</time>
      </trkpt>
      <trkpt lat="44.90811" lon="6.8004">
        <ele>1924</ele>
        <time>2011-09-10T14:53:19Z</time>
      </trkpt>
      <trkpt lat="44.90838" lon="6.80054">
        <ele>1924</ele>
        <time>2011-09-10T14:53:25Z</time>
      </trkpt>
      <trkpt lat="44.90846" lon="6.80085">
        <ele>1917</ele>
        <time>2011-09-10T14:54:15Z</time>
      </trkpt>
      <trkpt lat="44.90861" lon="6.80114">
        <ele>1917</ele>
        <time>2011-09-10T14:54:26Z</time>
      </trkpt>
      <trkpt lat="44.90876" lon="6.80144">
        <ele>1914</ele>
        <time>2011-09-10T14:54:34Z</time>
      </trkpt>
      <trkpt lat="44.90879" lon="6.80177">
        <ele>1912</ele>
        <time>2011-09-10T14:55:36Z</time>
      </trkpt>
      <trkpt lat="44.90903" lon="6.8018">
        <ele>1912</ele>
        <time>2011-09-10T14:55:48Z</time>
      </trkpt>
      <trkpt lat="44.90926" lon="6.80182">
        <ele>1910</ele>
        <time>2011-09-10T14:56:00Z</time>
      </trkpt>
      <trkpt lat="44.9095" lon="6.80193">
        <ele>1910</ele>
        <time>2011-09-10T14:56:14Z</time>
      </trkpt>
      <trkpt lat="44.90973" lon="6.80198">
        <ele>1909</ele>
        <time>2011-09-10T14:56:30Z</time>
      </trkpt>
      <trkpt lat="44.90996" lon="6.80193">
        <ele>1908</ele>
        <time>2011-09-10T14:56:45Z</time>
      </trkpt>
      <trkpt lat="44.91019" lon="6.80189">
        <ele>1908</ele>
        <time>2011-09-10T14:56:58Z</time>
      </trkpt>
      <trkpt lat="44.91043" lon="6.80187">
        <ele>1906</ele>
        <time>2011-09-10T14:58:41Z</time>
      </trkpt>
      <trkpt lat="44.9102" lon="6.80193">
        <ele>1907</ele>
        <time>2011-09-10T15:00:04Z</time>
      </trkpt>
      <trkpt lat="44.90998" lon="6.80177">
        <ele>1912</ele>
        <time>2011-09-10T15:00:40Z</time>
      </trkpt>
      <trkpt lat="44.90981" lon="6.80154">
        <ele>1916</ele>
        <time>2011-09-10T15:01:04Z</time>
      </trkpt>
      <trkpt lat="44.90985" lon="6.80122">
        <ele>1921</ele>
        <time>2011-09-10T15:01:33Z</time>
      </trkpt>
      <trkpt lat="44.91003" lon="6.80101">
        <ele>1927</ele>
        <time>2011-09-10T15:02:11Z</time>
      </trkpt>
      <trkpt lat="44.91021" lon="6.8008">
        <ele>1929</ele>
        <time>2011-09-10T15:02:35Z</time>
      </trkpt>
      <trkpt lat="44.91042" lon="6.80064">
        <ele>1932</ele>
        <time>2011-09-10T15:02:59Z</time>
      </trkpt>
      <trkpt lat="44.91058" lon="6.80042">
        <ele>1934</ele>
        <time>2011-09-10T15:03:20Z</time>
      </trkpt>
      <trkpt lat="44.91082" lon="6.80039">
        <ele>1934</ele>
        <time>2011-09-10T15:03:40Z</time>
      </trkpt>
      <trkpt lat="44.91105" lon="6.80041">
        <ele>1929</ele>
        <time>2011-09-10T15:03:51Z</time>
      </trkpt>
      <trkpt lat="44.91127" lon="6.80026">
        <ele>1927</ele>
        <time>2011-09-10T15:03:56Z</time>
      </trkpt>
      <trkpt lat="44.91151" lon="6.80007">
        <ele>1925</ele>
        <time>2011-09-10T15:04:01Z</time>
      </trkpt>
      <trkpt lat="44.91172" lon="6.79991">
        <ele>1923</ele>
        <time>2011-09-10T15:04:08Z</time>
      </trkpt>
      <trkpt lat="44.91189" lon="6.79966">
        <ele>1918</ele>
        <time>2011-09-10T15:04:14Z</time>
      </trkpt>
      <trkpt lat="44.91212" lon="6.79955">
        <ele>1917</ele>
        <time>2011-09-10T15:04:18Z</time>
      </trkpt>
      <trkpt lat="44.91234" lon="6.79942">
        <ele>1913</ele>
        <time>2011-09-10T15:04:25Z</time>
      </trkpt>
      <trkpt lat="44.91258" lon="6.79931">
        <ele>1911</ele>
        <time>2011-09-10T15:05:29Z</time>
      </trkpt>
      <trkpt lat="44.91293" lon="6.79935">
        <ele>1909</ele>
        <time>2011-09-10T15:05:49Z</time>
      </trkpt>
      <trkpt lat="44.91268" lon="6.79939">
        <ele>1903</ele>
        <time>2011-09-10T15:05:54Z</time>
      </trkpt>
      <trkpt lat="44.9127" lon="6.79971">
        <ele>1895</ele>
        <time>2011-09-10T15:05:59Z</time>
      </trkpt>
      <trkpt lat="44.91279" lon="6.80006">
        <ele>1891</ele>
        <time>2011-09-10T15:06:03Z</time>
      </trkpt>
      <trkpt lat="44.91282" lon="6.8004">
        <ele>1903.5</ele>
        <time>2011-09-10T15:06:08Z</time>
      </trkpt>
      <trkpt lat="44.91292" lon="6.80073">
        <ele>1887</ele>
        <time>2011-09-10T15:06:13Z</time>
      </trkpt>
      <trkpt lat="44.91307" lon="6.80104">
        <ele>1896.4</ele>
        <time>2011-09-10T15:06:18Z</time>
      </trkpt>
      <trkpt lat="44.91325" lon="6.80132">
        <ele>1878</ele>
        <time>2011-09-10T15:06:23Z</time>
      </trkpt>
      <trkpt lat="44.91341" lon="6.80155">
        <ele>1875</ele>
        <time>2011-09-10T15:06:28Z</time>
      </trkpt>
      <trkpt lat="44.91368" lon="6.80161">
        <ele>1872</ele>
        <time>2011-09-10T15:06:33Z</time>
      </trkpt>
      <trkpt lat="44.91387" lon="6.80183">
        <ele>1876.6</ele>
        <time>2011-09-10T15:06:38Z</time>
      </trkpt>
      <trkpt lat="44.91398" lon="6.80213">
        <ele>1857</ele>
        <time>2011-09-10T15:06:46Z</time>
      </trkpt>
      <trkpt lat="44.91406" lon="6.80246">
        <ele>1852</ele>
        <time>2011-09-10T15:06:53Z</time>
      </trkpt>
      <trkpt lat="44.91416" lon="6.80276">
        <ele>1847</ele>
        <time>2011-09-10T15:06:58Z</time>
      </trkpt>
      <trkpt lat="44.91428" lon="6.80311">
        <ele>1845</ele>
        <time>2011-09-10T15:07:04Z</time>
      </trkpt>
      <trkpt lat="44.91429" lon="6.80345">
        <ele>1840</ele>
        <time>2011-09-10T15:07:09Z</time>
      </trkpt>
      <trkpt lat="44.91435" lon="6.80381">
        <ele>1838</ele>
        <time>2011-09-10T15:07:13Z</time>
      </trkpt>
      <trkpt lat="44.91445" lon="6.80415">
        <ele>1847.1</ele>
        <time>2011-09-10T15:07:18Z</time>
      </trkpt>
      <trkpt lat="44.91456" lon="6.80446">
        <ele>1841.9</ele>
        <time>2011-09-10T15:07:23Z</time>
      </trkpt>
      <trkpt lat="44.91465" lon="6.80476">
        <ele>1822</ele>
        <time>2011-09-10T15:07:28Z</time>
      </trkpt>
      <trkpt lat="44.91481" lon="6.80507">
        <ele>1816</ele>
        <time>2011-09-10T15:07:34Z</time>
      </trkpt>
      <trkpt lat="44.91499" lon="6.80529">
        <ele>1813</ele>
        <time>2011-09-10T15:07:38Z</time>
      </trkpt>
      <trkpt lat="44.91516" lon="6.80552">
        <ele>1808</ele>
        <time>2011-09-10T15:07:42Z</time>
      </trkpt>
      <trkpt lat="44.91533" lon="6.80577">
        <ele>1809</ele>
        <time>2011-09-10T15:07:46Z</time>
      </trkpt>
      <trkpt lat="44.91551" lon="6.80603">
        <ele>1802</ele>
        <time>2011-09-10T15:07:51Z</time>
      </trkpt>
      <trkpt lat="44.9157" lon="6.80622">
        <ele>1799</ele>
        <time>2011-09-10T15:07:55Z</time>
      </trkpt>
      <trkpt lat="44.91593" lon="6.8064">
        <ele>1798</ele>
        <time>2011-09-10T15:07:59Z</time>
      </trkpt>
      <trkpt lat="44.91615" lon="6.80661">
        <ele>1796</ele>
        <time>2011-09-10T15:08:05Z</time>
      </trkpt>
      <trkpt lat="44.91639" lon="6.80678">
        <ele>1792</ele>
        <time>2011-09-10T15:08:10Z</time>
      </trkpt>
      <trkpt lat="44.9166" lon="6.807">
        <ele>1789</ele>
        <time>2011-09-10T15:08:16Z</time>
      </trkpt>
      <trkpt lat="44.91682" lon="6.80721">
        <ele>1784</ele>
        <time>2011-09-10T15:08:21Z</time>
      </trkpt>
      <trkpt lat="44.91706" lon="6.80732">
        <ele>1778</ele>
        <time>2011-09-10T15:08:28Z</time>
      </trkpt>
      <trkpt lat="44.91727" lon="6.80743">
        <ele>1774</ele>
        <time>2011-09-10T15:08:34Z</time>
      </trkpt>
      <trkpt lat="44.91752" lon="6.80748">
        <ele>1772</ele>
        <time>2011-09-10T15:08:40Z</time>
      </trkpt>
      <trkpt lat="44.91777" lon="6.80754">
        <ele>1770</ele>
        <time>2011-09-10T15:08:45Z</time>
      </trkpt>
      <trkpt lat="44.91805" lon="6.80754">
        <ele>1764</ele>
        <time>2011-09-10T15:08:53Z</time>
      </trkpt>
      <trkpt lat="44.91829" lon="6.80759">
        <ele>1761</ele>
        <time>2011-09-10T15:08:58Z</time>
      </trkpt>
      <trkpt lat="44.91854" lon="6.80759">
        <ele>1758</ele>
        <time>2011-09-10T15:09:03Z</time>
      </trkpt>
      <trkpt lat="44.91877" lon="6.80756">
        <ele>1753</ele>
        <time>2011-09-10T15:09:08Z</time>
      </trkpt>
      <trkpt lat="44.91901" lon="6.80757">
        <ele>1751</ele>
        <time>2011-09-10T15:09:14Z</time>
      </trkpt>
      <trkpt lat="44.91926" lon="6.80753">
        <ele>1744</ele>
        <time>2011-09-10T15:09:25Z</time>
      </trkpt>
      <trkpt lat="44.91951" lon="6.80754">
        <ele>1735</ele>
        <time>2011-09-10T15:09:41Z</time>
      </trkpt>
      <trkpt lat="44.91974" lon="6.80746">
        <ele>1724</ele>
        <time>2011-09-10T15:09:56Z</time>
      </trkpt>
      <trkpt lat="44.92006" lon="6.80735">
        <ele>1722</ele>
        <time>2011-09-10T15:10:05Z</time>
      </trkpt>
      <trkpt lat="44.92027" lon="6.8072">
        <ele>1719</ele>
        <time>2011-09-10T15:10:19Z</time>
      </trkpt>
      <trkpt lat="44.92052" lon="6.80729">
        <ele>1716</ele>
        <time>2011-09-10T15:10:29Z</time>
      </trkpt>
      <trkpt lat="44.92074" lon="6.80739">
        <ele>1712</ele>
        <time>2011-09-10T15:10:35Z</time>
      </trkpt>
      <trkpt lat="44.92091" lon="6.80764">
        <ele>1708</ele>
        <time>2011-09-10T15:10:53Z</time>
      </trkpt>
      <trkpt lat="44.92104" lon="6.80793">
        <ele>1704</ele>
        <time>2011-09-10T15:11:00Z</time>
      </trkpt>
      <trkpt lat="44.92121" lon="6.80821">
        <ele>1699</ele>
        <time>2011-09-10T15:11:15Z</time>
      </trkpt>
      <trkpt lat="44.92138" lon="6.80844">
        <ele>1695</ele>
        <time>2011-09-10T15:11:19Z</time>
      </trkpt>
      <trkpt lat="44.92159" lon="6.80874">
        <ele>1694</ele>
        <time>2011-09-10T15:11:23Z</time>
      </trkpt>
      <trkpt lat="44.92178" lon="6.80897">
        <ele>1692</ele>
        <time>2011-09-10T15:11:26Z</time>
      </trkpt>
      <trkpt lat="44.92204" lon="6.80917">
        <ele>1688</ele>
        <time>2011-09-10T15:11:30Z</time>
      </trkpt>
      <trkpt lat="44.92228" lon="6.80938">
        <ele>1684</ele>
        <time>2011-09-10T15:11:34Z</time>
      </trkpt>
      <trkpt lat="44.92246" lon="6.80962">
        <ele>1682</ele>
        <time>2011-09-10T15:11:38Z</time>
      </trkpt>
      <trkpt lat="44.92258" lon="6.80989">
        <ele>1691.4</ele>
        <time>2011-09-10T15:11:43Z</time>
      </trkpt>
      <trkpt lat="44.92274" lon="6.8102">
        <ele>1676</ele>
        <time>2011-09-10T15:11:46Z</time>
      </trkpt>
      <trkpt lat="44.9229" lon="6.81051">
        <ele>1672</ele>
        <time>2011-09-10T15:11:51Z</time>
      </trkpt>
      <trkpt lat="44.92306" lon="6.81081">
        <ele>1670</ele>
        <time>2011-09-10T15:11:56Z</time>
      </trkpt>
      <trkpt lat="44.92325" lon="6.81101">
        <ele>1668</ele>
        <time>2011-09-10T15:12:00Z</time>
      </trkpt>
      <trkpt lat="44.92347" lon="6.81113">
        <ele>1665</ele>
        <time>2011-09-10T15:12:04Z</time>
      </trkpt>
      <trkpt lat="44.92369" lon="6.81127">
        <ele>1663</ele>
        <time>2011-09-10T15:12:09Z</time>
      </trkpt>
      <trkpt lat="44.9239" lon="6.8115">
        <ele>1669.4</ele>
        <time>2011-09-10T15:12:16Z</time>
      </trkpt>
      <trkpt lat="44.92412" lon="6.81168">
        <ele>1655</ele>
        <time>2011-09-10T15:12:21Z</time>
      </trkpt>
      <trkpt lat="44.92432" lon="6.81185">
        <ele>1652</ele>
        <time>2011-09-10T15:12:25Z</time>
      </trkpt>
      <trkpt lat="44.92456" lon="6.81205">
        <ele>1650</ele>
        <time>2011-09-10T15:12:30Z</time>
      </trkpt>
      <trkpt lat="44.92477" lon="6.81219">
        <ele>1647</ele>
        <time>2011-09-10T15:12:34Z</time>
      </trkpt>
      <trkpt lat="44.92502" lon="6.81233">
        <ele>1644</ele>
        <time>2011-09-10T15:12:41Z</time>
      </trkpt>
      <trkpt lat="44.92521" lon="6.81252">
        <ele>1640</ele>
        <time>2011-09-10T15:12:45Z</time>
      </trkpt>
      <trkpt lat="44.92545" lon="6.81268">
        <ele>1637</ele>
        <time>2011-09-10T15:12:51Z</time>
      </trkpt>
      <trkpt lat="44.92567" lon="6.81282">
        <ele>1636</ele>
        <time>2011-09-10T15:12:56Z</time>
      </trkpt>
      <trkpt lat="44.92589" lon="6.81296">
        <ele>1632</ele>
        <time>2011-09-10T15:13:03Z</time>
      </trkpt>
      <trkpt lat="44.92612" lon="6.81314">
        <ele>1628</ele>
        <time>2011-09-10T15:13:08Z</time>
      </trkpt>
      <trkpt lat="44.92634" lon="6.81329">
        <ele>1625</ele>
        <time>2011-09-10T15:13:13Z</time>
      </trkpt>
      <trkpt lat="44.92657" lon="6.81338">
        <ele>1622</ele>
        <time>2011-09-10T15:13:18Z</time>
      </trkpt>
      <trkpt lat="44.9268" lon="6.81348">
        <ele>1620</ele>
        <time>2011-09-10T15:13:21Z</time>
      </trkpt>
      <trkpt lat="44.92704" lon="6.81362">
        <ele>1619</ele>
        <time>2011-09-10T15:13:25Z</time>
      </trkpt>
      <trkpt lat="44.92729" lon="6.81375">
        <ele>1612</ele>
        <time>2011-09-10T15:13:30Z</time>
      </trkpt>
      <trkpt lat="44.92753" lon="6.81373">
        <ele>1609</ele>
        <time>2011-09-10T15:13:34Z</time>
      </trkpt>
      <trkpt lat="44.92777" lon="6.81366">
        <ele>1605</ele>
        <time>2011-09-10T15:13:38Z</time>
      </trkpt>
      <trkpt lat="44.928" lon="6.81356">
        <ele>1603</ele>
        <time>2011-09-10T15:13:43Z</time>
      </trkpt>
      <trkpt lat="44.92826" lon="6.81355">
        <ele>1599</ele>
        <time>2011-09-10T15:13:46Z</time>
      </trkpt>
      <trkpt lat="44.92854" lon="6.81355">
        <ele>1597</ele>
        <time>2011-09-10T15:13:51Z</time>
      </trkpt>
      <trkpt lat="44.92879" lon="6.81356">
        <ele>1594</ele>
        <time>2011-09-10T15:13:55Z</time>
      </trkpt>
      <trkpt lat="44.92908" lon="6.81355">
        <ele>1599.9</ele>
        <time>2011-09-10T15:13:59Z</time>
      </trkpt>
      <trkpt lat="44.92937" lon="6.81343">
        <ele>1594.7</ele>
        <time>2011-09-10T15:14:03Z</time>
      </trkpt>
      <trkpt lat="44.92956" lon="6.81322">
        <ele>1586</ele>
        <time>2011-09-10T15:14:08Z</time>
      </trkpt>
      <trkpt lat="44.92978" lon="6.81306">
        <ele>1585</ele>
        <time>2011-09-10T15:14:10Z</time>
      </trkpt>
      <trkpt lat="44.92999" lon="6.81288">
        <ele>1583</ele>
        <time>2011-09-10T15:14:14Z</time>
      </trkpt>
      <trkpt lat="44.93023" lon="6.81267">
        <ele>1579</ele>
        <time>2011-09-10T15:14:18Z</time>
      </trkpt>
      <trkpt lat="44.93042" lon="6.81242">
        <ele>1574</ele>
        <time>2011-09-10T15:14:24Z</time>
      </trkpt>
      <trkpt lat="44.93066" lon="6.8123">
        <ele>1571</ele>
        <time>2011-09-10T15:14:29Z</time>
      </trkpt>
      <trkpt lat="44.93091" lon="6.81217">
        <ele>1571.9</ele>
        <time>2011-09-10T15:14:33Z</time>
      </trkpt>
      <trkpt lat="44.93113" lon="6.81205">
        <ele>1567.3</ele>
        <time>2011-09-10T15:14:36Z</time>
      </trkpt>
      <trkpt lat="44.93128" lon="6.81179">
        <ele>1563</ele>
        <time>2011-09-10T15:14:41Z</time>
      </trkpt>
      <trkpt lat="44.93137" lon="6.81142">
        <ele>1559</ele>
        <time>2011-09-10T15:14:48Z</time>
      </trkpt>
      <trkpt lat="44.93148" lon="6.81111">
        <ele>1553</ele>
        <time>2011-09-10T15:14:51Z</time>
      </trkpt>
      <trkpt lat="44.93132" lon="6.81076">
        <ele>1551</ele>
        <time>2011-09-10T15:14:55Z</time>
      </trkpt>
      <trkpt lat="44.93111" lon="6.81055">
        <ele>1549</ele>
        <time>2011-09-10T15:14:58Z</time>
      </trkpt>
      <trkpt lat="44.93103" lon="6.81017">
        <ele>1546</ele>
        <time>2011-09-10T15:15:03Z</time>
      </trkpt>
      <trkpt lat="44.9312" lon="6.80981">
        <ele>1544</ele>
        <time>2011-09-10T15:15:06Z</time>
      </trkpt>
      <trkpt lat="44.93142" lon="6.80966">
        <ele>1544</ele>
        <time>2011-09-10T15:15:09Z</time>
      </trkpt>
      <trkpt lat="44.93171" lon="6.80961">
        <ele>1539</ele>
        <time>2011-09-10T15:15:13Z</time>
      </trkpt>
      <trkpt lat="44.93197" lon="6.80976">
        <ele>1536</ele>
        <time>2011-09-10T15:15:18Z</time>
      </trkpt>
      <trkpt lat="44.93218" lon="6.81002">
        <ele>1532</ele>
        <time>2011-09-10T15:15:21Z</time>
      </trkpt>
      <trkpt lat="44.93225" lon="6.81037">
        <ele>1528</ele>
        <time>2011-09-10T15:15:26Z</time>
      </trkpt>
      <trkpt lat="44.93235" lon="6.81068">
        <ele>1527</ele>
        <time>2011-09-10T15:15:30Z</time>
      </trkpt>
      <trkpt lat="44.93254" lon="6.81096">
        <ele>1525</ele>
        <time>2011-09-10T15:15:34Z</time>
      </trkpt>
      <trkpt lat="44.93266" lon="6.81129">
        <ele>1523</ele>
        <time>2011-09-10T15:15:38Z</time>
      </trkpt>
      <trkpt lat="44.93258" lon="6.8117">
        <ele>1517</ele>
        <time>2011-09-10T15:15:43Z</time>
      </trkpt>
      <trkpt lat="44.9324" lon="6.81199">
        <ele>1517</ele>
        <time>2011-09-10T15:15:45Z</time>
      </trkpt>
      <trkpt lat="44.93231" lon="6.81233">
        <ele>1513</ele>
        <time>2011-09-10T15:15:49Z</time>
      </trkpt>
      <trkpt lat="44.9325" lon="6.81254">
        <ele>1512</ele>
        <time>2011-09-10T15:15:53Z</time>
      </trkpt>
      <trkpt lat="44.93257" lon="6.81286">
        <ele>1510</ele>
        <time>2011-09-10T15:15:59Z</time>
      </trkpt>
      <trkpt lat="44.93251" lon="6.81322">
        <ele>1507</ele>
        <time>2011-09-10T15:16:04Z</time>
      </trkpt>
      <trkpt lat="44.93245" lon="6.81361">
        <ele>1505</ele>
        <time>2011-09-10T15:16:09Z</time>
      </trkpt>
      <trkpt lat="44.93238" lon="6.81397">
        <ele>1508.9</ele>
        <time>2011-09-10T15:16:14Z</time>
      </trkpt>
      <trkpt lat="44.93226" lon="6.81431">
        <ele>1505.4</ele>
        <time>2011-09-10T15:16:18Z</time>
      </trkpt>
      <trkpt lat="44.93209" lon="6.81457">
        <ele>1495</ele>
        <time>2011-09-10T15:16:21Z</time>
      </trkpt>
      <trkpt lat="44.932" lon="6.81487">
        <ele>1491</ele>
        <time>2011-09-10T15:16:24Z</time>
      </trkpt>
      <trkpt lat="44.93194" lon="6.8152">
        <ele>1490</ele>
        <time>2011-09-10T15:16:28Z</time>
      </trkpt>
      <trkpt lat="44.9319" lon="6.81561">
        <ele>1487</ele>
        <time>2011-09-10T15:16:31Z</time>
      </trkpt>
      <trkpt lat="44.93189" lon="6.81606">
        <ele>1482</ele>
        <time>2011-09-10T15:16:35Z</time>
      </trkpt>
      <trkpt lat="44.93188" lon="6.81646">
        <ele>1479</ele>
        <time>2011-09-10T15:16:38Z</time>
      </trkpt>
      <trkpt lat="44.93184" lon="6.81682">
        <ele>1477</ele>
        <time>2011-09-10T15:16:41Z</time>
      </trkpt>
      <trkpt lat="44.93173" lon="6.81716">
        <ele>1473</ele>
        <time>2011-09-10T15:16:45Z</time>
      </trkpt>
      <trkpt lat="44.93154" lon="6.81746">
        <ele>1467</ele>
        <time>2011-09-10T15:16:48Z</time>
      </trkpt>
      <trkpt lat="44.93131" lon="6.81777">
        <ele>1463</ele>
        <time>2011-09-10T15:16:50Z</time>
      </trkpt>
      <trkpt lat="44.93107" lon="6.81807">
        <ele>1459</ele>
        <time>2011-09-10T15:16:53Z</time>
      </trkpt>
      <trkpt lat="44.93089" lon="6.81829">
        <ele>1456</ele>
        <time>2011-09-10T15:16:55Z</time>
      </trkpt>
      <trkpt lat="44.93073" lon="6.81855">
        <ele>1453</ele>
        <time>2011-09-10T15:16:58Z</time>
      </trkpt>
      <trkpt lat="44.93058" lon="6.8188">
        <ele>1451</ele>
        <time>2011-09-10T15:16:59Z</time>
      </trkpt>
      <trkpt lat="44.93038" lon="6.81917">
        <ele>1448</ele>
        <time>2011-09-10T15:17:03Z</time>
      </trkpt>
      <trkpt lat="44.93022" lon="6.81943">
        <ele>1447</ele>
        <time>2011-09-10T15:17:05Z</time>
      </trkpt>
      <trkpt lat="44.93021" lon="6.81981">
        <ele>1445</ele>
        <time>2011-09-10T15:17:10Z</time>
      </trkpt>
      <trkpt lat="44.93044" lon="6.81993">
        <ele>1443</ele>
        <time>2011-09-10T15:17:14Z</time>
      </trkpt>
      <trkpt lat="44.9307" lon="6.82003">
        <ele>1440</ele>
        <time>2011-09-10T15:17:18Z</time>
      </trkpt>
      <trkpt lat="44.93096" lon="6.82013">
        <ele>1437</ele>
        <time>2011-09-10T15:17:23Z</time>
      </trkpt>
      <trkpt lat="44.93119" lon="6.82021">
        <ele>1434</ele>
        <time>2011-09-10T15:17:25Z</time>
      </trkpt>
      <trkpt lat="44.93144" lon="6.82028">
        <ele>1430</ele>
        <time>2011-09-10T15:17:28Z</time>
      </trkpt>
      <trkpt lat="44.9317" lon="6.82034">
        <ele>1427</ele>
        <time>2011-09-10T15:17:31Z</time>
      </trkpt>
      <trkpt lat="44.93198" lon="6.8204">
        <ele>1425</ele>
        <time>2011-09-10T15:17:34Z</time>
      </trkpt>
      <trkpt lat="44.93228" lon="6.82047">
        <ele>1423</ele>
        <time>2011-09-10T15:17:38Z</time>
      </trkpt>
      <trkpt lat="44.9326" lon="6.82051">
        <ele>1423</ele>
        <time>2011-09-10T15:17:40Z</time>
      </trkpt>
      <trkpt lat="44.93291" lon="6.82055">
        <ele>1421</ele>
        <time>2011-09-10T15:17:43Z</time>
      </trkpt>
      <trkpt lat="44.93317" lon="6.82057">
        <ele>1423</ele>
        <time>2011-09-10T15:17:46Z</time>
      </trkpt>
      <trkpt lat="44.93326" lon="6.8209">
        <ele>1424</ele>
        <time>2011-09-10T15:17:53Z</time>
      </trkpt>
      <trkpt lat="44.93307" lon="6.82109">
        <ele>1423</ele>
        <time>2011-09-10T15:17:58Z</time>
      </trkpt>
    </trkseg>
  </trk>
</gpx>